Darstellungsparameter: Aktuell verwendete Einstellungen:
Skalierung der Graphiken ... ?
xyx+y,   Skalierungsfaktor:      Skalierung: Modus: x, Faktor: 1
Darstellungszeitraum ... ?
Vom - - bis: - -   Zeitraum: 23.01.2010 - 22.04.2010
Min/Max/Avg-Anzeige ... ?
Zeige MMA aktuell
Zeige MMA Monat
Zeige MMA alles
Zeige --A aktuell
Zeige --A Monat
Zeige --A alles
Keine MMA-Anzeige
MMA:
Average (ber die Originaldaten)
MMA-Basis: 23.01.2010 - 22.04.2010
Quicknavigation für Darstellung... ?
Tage:      1T, 2T, 3T, 5T -1T -2T -3T -5T +1T +2T +3T +5T
Wochen: 1W, 2W, 3W -1W -2W -3W +1W +2W +3W
Monate: 1M, 3M, 6M -1M -3M -6M +1M +3M +6M
Jahre:    1J, 3J, 5J, 10J -1J -3J -5J -10J +1J +3J +5J +10J
Nutze für die Darstellung ... ?
Originaldaten oder Mittelwerte auf ...
Stundenbasis Tagesbasis Wochenbasis
Monatsbasis Jahresbasis      Datenbasis: Original-Daten
Darstellen als:
Statistik (Auto) Statistik J:M      Darstellung:
Zur Graphik,    zurück zur Übersicht aller Sensoren.
 
Tabellarische Datenbersicht: ?
 
Sensor: Nr:Datum:Temp:Abs-Feuchte:Windchill:Wind:
Aussen-T/F 1 23-01-2010 00:01:02 2.2 C 3.89 g/m*3 2.2 C 0 km/h
2 23-01-2010 00:13:02 1.8 C 3.84 g/m*3 1.8 C 0 km/h
3 23-01-2010 00:25:02 1.5 C 3.76 g/m*3 1.5 C 0 km/h
4 23-01-2010 00:37:02 1.2 C 3.68 g/m*3 1.2 C 0 km/h
5 23-01-2010 00:49:02 1.1 C 3.71 g/m*3 1.1 C 0 km/h
6 23-01-2010 01:01:02 1 C 3.69 g/m*3 1 C 0 km/h
7 23-01-2010 01:13:02 0.9 C 3.66 g/m*3 0.9 C 0 km/h
8 23-01-2010 01:25:02 0.8 C 3.69 g/m*3 0.8 C 0 km/h
9 23-01-2010 01:37:02 0.7 C 3.61 g/m*3 0.7 C 0 km/h
10 23-01-2010 01:49:03 0.6 C 3.59 g/m*3 0.6 C 0 km/h
11 23-01-2010 02:01:03 0.5 C 3.61 g/m*3 0.5 C 0 km/h
12 23-01-2010 02:13:03 0.4 C 3.59 g/m*3 0.4 C 0 km/h
13 23-01-2010 02:25:03 0.5 C 3.61 g/m*3 0.5 C 0 km/h
14 23-01-2010 02:37:03 0.4 C 3.59 g/m*3 0.4 C 0 km/h
15 23-01-2010 02:49:03 0.4 C 3.59 g/m*3 0.4 C 0 km/h
16 23-01-2010 03:01:03 0.4 C 3.64 g/m*3 0.4 C 0 km/h
17 23-01-2010 03:13:03 0.4 C 3.64 g/m*3 0.4 C 0 km/h
18 23-01-2010 03:25:03 0.4 C 3.64 g/m*3 0.4 C 0 km/h
19 23-01-2010 03:37:03 0.3 C 3.61 g/m*3 0.3 C 0 km/h
20 23-01-2010 03:49:03 0.2 C 3.59 g/m*3 0.2 C 0 km/h
21 23-01-2010 04:01:03 0.1 C 3.56 g/m*3 0.1 C 0 km/h
22 23-01-2010 04:13:03 0 C 3.59 g/m*3 0 C 0 km/h
23 23-01-2010 04:25:03 -0.1 C 3.56 g/m*3 -0.1 C 0 km/h
24 23-01-2010 04:37:03 -0.2 C 3.54 g/m*3 -0.2 C 0 km/h
25 23-01-2010 04:49:03 -0.2 C 3.54 g/m*3 -0.2 C 0 km/h
Sensor: Nr:Datum:Temp:Abs-Feuchte:Windchill:Wind:
Aussen-T/F 26 23-01-2010 05:01:03 -0.3 C 3.51 g/m*3 -0.3 C 0 km/h
27 23-01-2010 05:13:03 -0.3 C 3.51 g/m*3 -0.3 C 0 km/h
28 23-01-2010 05:25:03 -0.3 C 3.51 g/m*3 -0.3 C 0 km/h
29 23-01-2010 05:37:03 -0.4 C 3.44 g/m*3 -0.4 C 0 km/h
30 23-01-2010 05:49:03 -0.5 C 3.46 g/m*3 -0.5 C 0 km/h
31 23-01-2010 06:01:04 -0.5 C 3.46 g/m*3 -0.5 C 0 km/h
32 23-01-2010 06:13:04 -0.6 C 3.44 g/m*3 -0.6 C 0 km/h
33 23-01-2010 06:25:04 -0.5 C 3.46 g/m*3 -0.5 C 0 km/h
34 23-01-2010 06:37:04 -0.6 C 3.44 g/m*3 -0.6 C 0 km/h
35 23-01-2010 06:49:04 -0.7 C 3.42 g/m*3 -0.7 C 0 km/h
36 23-01-2010 07:01:04 -1 C 3.35 g/m*3 -1 C 0 km/h
37 23-01-2010 07:13:04 -1 C 3.39 g/m*3 -1 C 0 km/h
38 23-01-2010 07:25:04 -1 C 3.39 g/m*3 -1 C 0 km/h
39 23-01-2010 07:37:04 -1.1 C 3.32 g/m*3 -1.1 C 0 km/h
40 23-01-2010 07:49:04 -1.1 C 3.37 g/m*3 -1.1 C 0 km/h
41 23-01-2010 08:01:04 -1 C 3.35 g/m*3 -1 C 0 km/h
42 23-01-2010 08:13:04 -1.1 C 3.32 g/m*3 -1.1 C 0 km/h
43 23-01-2010 08:25:02 -1.1 C 3.28 g/m*3 -1.1 C 0 km/h
44 23-01-2010 08:37:02 -1.1 C 3.23 g/m*3 -1.1 C 0 km/h
45 23-01-2010 08:49:01 -1.1 C 3.23 g/m*3 -1.1 C 0 km/h
46 23-01-2010 09:01:02 -1 C 3.25 g/m*3 -1 C 0 km/h
47 23-01-2010 09:13:02 -1 C 3.21 g/m*3 -1 C 0 km/h
48 23-01-2010 09:25:02 -1 C 3.21 g/m*3 -1 C 0 km/h
49 23-01-2010 09:37:02 -1.1 C 3.19 g/m*3 -1.1 C 0 km/h
50 23-01-2010 09:49:03 -1.2 C 3.17 g/m*3 -1.2 C 0 km/h
Sensor: Nr:Datum:Temp:Abs-Feuchte:Windchill:Wind:
Aussen-T/F 51 23-01-2010 10:01:03 -1.2 C 3.17 g/m*3 -1.2 C 0 km/h
52 23-01-2010 10:13:03 -1.1 C 3.19 g/m*3 -1.1 C 0 km/h
53 23-01-2010 10:25:02 -1.1 C 3.19 g/m*3 -1.1 C 0 km/h
54 23-01-2010 10:37:03 -1.2 C 3.12 g/m*3 -1.2 C 0 km/h
55 23-01-2010 10:49:02 -1 C 3.21 g/m*3 -1 C 0 km/h
56 23-01-2010 11:01:02 -1 C 3.16 g/m*3 -1 C 0 km/h
57 23-01-2010 11:13:02 -1 C 3.16 g/m*3 -1 C 0 km/h
58 23-01-2010 11:25:02 -0.9 C 3.19 g/m*3 -0.9 C 0 km/h
59 23-01-2010 11:37:02 -0.6 C 3.25 g/m*3 -0.6 C 0 km/h
60 23-01-2010 11:49:02 -0.8 C 3.16 g/m*3 -0.8 C 0 km/h
61 23-01-2010 12:01:03 -0.9 C 3.19 g/m*3 -0.9 C 0 km/h
62 23-01-2010 12:13:03 -0.8 C 3.21 g/m*3 -0.8 C 0 km/h
63 23-01-2010 12:25:02 -0.7 C 3.23 g/m*3 -0.7 C 0 km/h
64 23-01-2010 12:37:02 -0.6 C 3.25 g/m*3 -0.6 C 0 km/h
65 23-01-2010 12:49:01 -0.5 C 3.28 g/m*3 -0.5 C 0 km/h
66 23-01-2010 13:01:02 -0.6 C 3.25 g/m*3 -0.6 C 0 km/h
67 23-01-2010 13:13:02 -0.5 C 3.28 g/m*3 -0.5 C 0 km/h
68 23-01-2010 13:25:01 -0.6 C 3.25 g/m*3 -0.6 C 0 km/h
69 23-01-2010 13:37:02 -0.5 C 3.28 g/m*3 -0.5 C 0 km/h
70 23-01-2010 13:49:01 -0.4 C 3.3 g/m*3 -0.4 C 0 km/h
71 23-01-2010 14:01:02 -0.3 C 3.32 g/m*3 -0.3 C 0 km/h
72 23-01-2010 14:13:02 -0.3 C 3.32 g/m*3 -0.3 C 0 km/h
73 23-01-2010 14:25:01 -0.3 C 3.27 g/m*3 -0.3 C 0 km/h
74 23-01-2010 14:37:02 -0.3 C 3.27 g/m*3 -0.3 C 0 km/h
75 23-01-2010 14:49:01 -0.3 C 3.32 g/m*3 -0.3 C 0 km/h
Sensor: Nr:Datum:Temp:Abs-Feuchte:Windchill:Wind:
Aussen-T/F 76 23-01-2010 15:01:02 -0.5 C 3.28 g/m*3 -0.5 C 0 km/h
77 23-01-2010 15:13:02 -0.6 C 3.25 g/m*3 -0.6 C 0 km/h
78 23-01-2010 15:25:02 -0.6 C 3.25 g/m*3 -0.6 C 0 km/h
79 23-01-2010 15:37:02 -0.6 C 3.3 g/m*3 -0.6 C 0 km/h
80 23-01-2010 15:49:02 -0.6 C 3.3 g/m*3 -0.6 C 0 km/h
81 23-01-2010 16:01:02 -0.5 C 3.32 g/m*3 -0.5 C 0 km/h
82 23-01-2010 16:13:02 -0.6 C 3.3 g/m*3 -0.6 C 0 km/h
83 23-01-2010 16:25:02 -0.7 C 3.28 g/m*3 -0.7 C 0 km/h
84 23-01-2010 16:37:01 -0.7 C 3.32 g/m*3 -0.7 C 0 km/h
85 23-01-2010 16:49:02 -0.7 C 3.32 g/m*3 -0.7 C 0 km/h
86 23-01-2010 17:01:01 -0.7 C 3.32 g/m*3 -0.7 C 0 km/h
87 23-01-2010 17:13:01 -0.6 C 3.35 g/m*3 -0.6 C 0 km/h
88 23-01-2010 17:25:02 -0.6 C 3.35 g/m*3 -0.6 C 0 km/h
89 23-01-2010 17:37:01 -0.5 C 3.42 g/m*3 -0.5 C 0 km/h
90 23-01-2010 17:49:02 -0.6 C 3.35 g/m*3 -0.6 C 0 km/h
91 23-01-2010 18:01:02 -0.5 C 3.37 g/m*3 -0.5 C 0 km/h
92 23-01-2010 18:13:02 -0.6 C 3.35 g/m*3 -0.6 C 0 km/h
93 23-01-2010 18:25:02 -0.6 C 3.35 g/m*3 -0.6 C 0 km/h
94 23-01-2010 18:37:03 -0.7 C 3.32 g/m*3 -0.7 C 0 km/h
95 23-01-2010 18:49:02 -0.8 C 3.3 g/m*3 -0.8 C 0 km/h
96 23-01-2010 19:01:01 -0.8 C 3.3 g/m*3 -0.8 C 0 km/h
97 23-01-2010 19:13:01 -0.7 C 3.32 g/m*3 -0.7 C 0 km/h
98 23-01-2010 19:25:02 -0.7 C 3.32 g/m*3 -0.7 C 0 km/h
99 23-01-2010 19:37:02 -0.7 C 3.28 g/m*3 -0.7 C 0 km/h
100 23-01-2010 19:49:02 -0.6 C 3.3 g/m*3 -0.6 C 0 km/h
Sensor: Nr:Datum:Temp:Abs-Feuchte:Windchill:Wind:
Aussen-T/F 101 23-01-2010 20:01:03 -0.7 C 3.23 g/m*3 -0.7 C 0 km/h
102 23-01-2010 20:13:03 -0.7 C 3.23 g/m*3 -0.7 C 0 km/h
103 23-01-2010 20:25:02 -0.7 C 3.23 g/m*3 -0.7 C 0 km/h
104 23-01-2010 20:37:02 -0.6 C 3.25 g/m*3 -0.6 C 0 km/h
105 23-01-2010 20:49:02 -0.6 C 3.25 g/m*3 -0.6 C 0 km/h
106 23-01-2010 21:01:02 -0.6 C 3.25 g/m*3 -0.6 C 0 km/h
107 23-01-2010 21:13:02 -0.6 C 3.25 g/m*3 -0.6 C 0 km/h
108 23-01-2010 21:25:01 -0.5 C 3.28 g/m*3 -0.5 C 0 km/h
109 23-01-2010 21:37:02 -0.6 C 3.25 g/m*3 -0.6 C 0 km/h
110 23-01-2010 21:49:02 -0.6 C 3.25 g/m*3 -0.6 C 0 km/h
111 23-01-2010 22:01:02 -0.5 C 3.28 g/m*3 -0.5 C 0 km/h
112 23-01-2010 22:13:02 -0.5 C 3.28 g/m*3 -0.5 C 0 km/h
113 23-01-2010 22:26:02 -0.5 C 3.28 g/m*3 -0.5 C 0 km/h
114 23-01-2010 22:38:02 -0.5 C 3.28 g/m*3 -0.5 C 0 km/h
115 23-01-2010 22:50:02 -0.5 C 3.28 g/m*3 -0.5 C 0 km/h
116 23-01-2010 23:02:02 -0.5 C 3.28 g/m*3 -0.5 C 0 km/h
117 23-01-2010 23:14:02 -0.5 C 3.23 g/m*3 -0.5 C 0 km/h
118 23-01-2010 23:26:02 -0.5 C 3.28 g/m*3 -0.5 C 0 km/h
119 23-01-2010 23:38:02 -0.3 C 3.32 g/m*3 -0.3 C 0 km/h
120 23-01-2010 23:50:02 -0.5 C 3.23 g/m*3 -0.5 C 0 km/h
121 24-01-2010 00:02:02 -0.5 C 3.23 g/m*3 -0.5 C 0 km/h
122 24-01-2010 00:14:02 -0.5 C 3.23 g/m*3 -0.5 C 0 km/h
123 24-01-2010 00:26:02 -0.5 C 3.23 g/m*3 -0.5 C 0 km/h
124 24-01-2010 00:38:02 -0.5 C 3.23 g/m*3 -0.5 C 0 km/h
125 24-01-2010 00:50:02 -0.5 C 3.28 g/m*3 -0.5 C 0 km/h
Sensor: Nr:Datum:Temp:Abs-Feuchte:Windchill:Wind:
Aussen-T/F 126 24-01-2010 01:02:02 -0.5 C 3.23 g/m*3 -0.5 C 0 km/h
127 24-01-2010 01:14:03 -0.5 C 3.23 g/m*3 -0.5 C 0 km/h
128 24-01-2010 01:26:03 -0.5 C 3.23 g/m*3 -0.5 C 0 km/h
129 24-01-2010 01:38:03 -0.5 C 3.23 g/m*3 -0.5 C 0 km/h
130 24-01-2010 01:50:03 -0.5 C 3.28 g/m*3 -0.5 C 0 km/h
131 24-01-2010 02:02:03 -0.5 C 3.23 g/m*3 -0.5 C 0 km/h
132 24-01-2010 02:14:03 -0.5 C 3.23 g/m*3 -0.5 C 0 km/h
133 24-01-2010 02:26:03 -0.5 C 3.23 g/m*3 -0.5 C 0 km/h
134 24-01-2010 02:38:03 -0.3 C 3.32 g/m*3 -0.3 C 0 km/h
135 24-01-2010 02:50:03 -0.5 C 3.28 g/m*3 -0.5 C 0 km/h
136 24-01-2010 03:02:03 -0.6 C 3.35 g/m*3 -0.6 C 0 km/h
137 24-01-2010 03:14:03 -0.6 C 3.39 g/m*3 -0.6 C 0 km/h
138 24-01-2010 03:26:03 -0.5 C 3.46 g/m*3 -0.5 C 0 km/h
139 24-01-2010 03:38:03 -0.6 C 3.44 g/m*3 -0.6 C 0 km/h
140 24-01-2010 03:50:03 -0.6 C 3.49 g/m*3 -0.6 C 0 km/h
141 24-01-2010 04:02:03 -0.6 C 3.53 g/m*3 -0.6 C 0 km/h
142 24-01-2010 04:14:03 -0.6 C 3.58 g/m*3 -0.6 C 0 km/h
143 24-01-2010 04:26:03 -0.5 C 3.65 g/m*3 -0.5 C 0 km/h
144 24-01-2010 04:38:03 -0.4 C 3.68 g/m*3 -0.4 C 0 km/h
145 24-01-2010 04:50:03 -0.3 C 3.7 g/m*3 -0.3 C 0 km/h
146 24-01-2010 05:02:03 -0.3 C 3.75 g/m*3 -0.3 C 0 km/h
147 24-01-2010 05:14:03 -0.3 C 3.75 g/m*3 -0.3 C 0 km/h
148 24-01-2010 05:26:04 -0.3 C 3.8 g/m*3 -0.3 C 0 km/h
149 24-01-2010 05:38:04 -0.3 C 3.8 g/m*3 -0.3 C 0 km/h
150 24-01-2010 05:50:04 -0.3 C 3.8 g/m*3 -0.3 C 0 km/h
Sensor: Nr:Datum:Temp:Abs-Feuchte:Windchill:Wind:
Aussen-T/F 151 24-01-2010 06:02:04 -0.4 C 3.82 g/m*3 -0.4 C 0 km/h
152 24-01-2010 06:14:04 -0.5 C 3.79 g/m*3 -0.5 C 0 km/h
153 24-01-2010 06:26:04 -0.4 C 3.86 g/m*3 -0.4 C 0 km/h
154 24-01-2010 06:38:04 -0.4 C 3.86 g/m*3 -0.4 C 0 km/h
155 24-01-2010 06:50:04 -0.4 C 3.86 g/m*3 -0.4 C 0 km/h
156 24-01-2010 07:02:04 -0.4 C 3.86 g/m*3 -0.4 C 0 km/h
157 24-01-2010 07:14:04 -0.5 C 3.88 g/m*3 -0.5 C 0 km/h
158 24-01-2010 07:26:04 -0.4 C 3.91 g/m*3 -0.4 C 0 km/h
159 24-01-2010 07:38:04 -0.5 C 3.88 g/m*3 -0.5 C 0 km/h
160 24-01-2010 07:50:04 -0.5 C 3.93 g/m*3 -0.5 C 0 km/h
161 24-01-2010 08:02:04 -0.6 C 3.9 g/m*3 -0.6 C 0 km/h
162 24-01-2010 08:14:04 -0.5 C 3.98 g/m*3 -0.5 C 0 km/h
163 24-01-2010 08:26:04 -0.4 C 4.01 g/m*3 -0.4 C 0 km/h
164 24-01-2010 08:38:04 -0.4 C 4.01 g/m*3 -0.4 C 0 km/h
165 24-01-2010 08:50:04 -0.4 C 4.05 g/m*3 -0.4 C 0 km/h
166 24-01-2010 09:02:01 -0.4 C 4.05 g/m*3 -0.4 C 0 km/h
167 24-01-2010 09:14:01 -0.3 C 4.08 g/m*3 -0.3 C 0 km/h
168 24-01-2010 09:26:02 -0.3 C 4.08 g/m*3 -0.3 C 0 km/h
169 24-01-2010 09:38:02 -0.2 C 4.11 g/m*3 -0.2 C 0 km/h
170 24-01-2010 09:50:02 -0.1 C 4.14 g/m*3 -0.1 C 0 km/h
171 24-01-2010 10:02:01 0.1 C 4.2 g/m*3 0.1 C 0 km/h
172 24-01-2010 10:14:01 0.2 C 4.22 g/m*3 0.2 C 0 km/h
173 24-01-2010 10:26:02 0.2 C 4.22 g/m*3 0.2 C 0 km/h
174 24-01-2010 10:38:01 0.3 C 4.2 g/m*3 0.3 C 0 km/h
175 24-01-2010 10:50:02 0.5 C 4.26 g/m*3 0.5 C 0 km/h
Sensor: Nr:Datum:Temp:Abs-Feuchte:Windchill:Wind:
Aussen-T/F 176 24-01-2010 11:02:02 0.5 C 4.26 g/m*3 0.5 C 0 km/h
177 24-01-2010 11:14:02 0.7 C 4.27 g/m*3 0.7 C 0 km/h
178 24-01-2010 11:26:02 0.9 C 4.33 g/m*3 0.9 C 0 km/h
179 24-01-2010 11:38:02 0.9 C 4.28 g/m*3 0.9 C 0 km/h
180 24-01-2010 11:50:02 0.9 C 4.23 g/m*3 0.9 C 0 km/h
181 24-01-2010 12:02:02 0.8 C 4.15 g/m*3 0.8 C 0 km/h
182 24-01-2010 12:14:02 0.8 C 4.15 g/m*3 0.8 C 0 km/h
183 24-01-2010 12:26:02 0.8 C 4.15 g/m*3 0.8 C 0 km/h
184 24-01-2010 12:38:02 1 C 4.2 g/m*3 1 C 0 km/h
185 24-01-2010 12:50:02 1.1 C 4.23 g/m*3 1.1 C 0 km/h
186 24-01-2010 13:02:01 1.1 C 4.23 g/m*3 1.1 C 0 km/h
187 24-01-2010 13:14:01 1.2 C 4.31 g/m*3 1.2 C 0 km/h
188 24-01-2010 13:26:02 1.2 C 4.31 g/m*3 1.2 C 0 km/h
189 24-01-2010 13:38:01 1.4 C 4.43 g/m*3 1.4 C 0 km/h
190 24-01-2010 13:50:01 1.4 C 4.43 g/m*3 1.4 C 0 km/h
191 24-01-2010 14:02:01 1.6 C 4.49 g/m*3 1.6 C 0 km/h
192 24-01-2010 14:14:01 1.7 C 4.52 g/m*3 1.7 C 0 km/h
193 24-01-2010 14:26:01 1.6 C 4.49 g/m*3 1.6 C 0 km/h
194 24-01-2010 14:38:02 1.7 C 4.52 g/m*3 1.7 C 0 km/h
195 24-01-2010 14:50:02 1.5 C 4.4 g/m*3 1.5 C 0 km/h
196 24-01-2010 15:02:02 1.4 C 4.37 g/m*3 1.4 C 0 km/h
197 24-01-2010 15:14:02 1.1 C 4.29 g/m*3 1.1 C 0 km/h
198 24-01-2010 15:26:02 1.3 C 4.4 g/m*3 1.3 C 0 km/h
199 24-01-2010 15:38:02 1.3 C 4.4 g/m*3 1.3 C 0 km/h
200 24-01-2010 15:50:02 1.3 C 4.4 g/m*3 1.3 C 0 km/h
Sensor: Nr:Datum:Temp:Abs-Feuchte:Windchill:Wind:
Aussen-T/F 201 24-01-2010 16:02:02 1.3 C 4.45 g/m*3 1.3 C 0 km/h
202 24-01-2010 16:14:02 1.2 C 4.42 g/m*3 1.2 C 0 km/h
203 24-01-2010 16:26:02 1.3 C 4.45 g/m*3 1.3 C 0 km/h
204 24-01-2010 16:38:02 1.3 C 4.45 g/m*3 1.3 C 0 km/h
205 24-01-2010 16:50:01 1.2 C 4.42 g/m*3 1.2 C 0 km/h
206 24-01-2010 17:02:02 1.1 C 4.39 g/m*3 1.1 C 0 km/h
207 24-01-2010 17:14:03 1 C 4.41 g/m*3 1 C 0 km/h
208 24-01-2010 17:26:01 1 C 4.46 g/m*3 1 C 0 km/h
209 24-01-2010 17:38:01 1 C 4.46 g/m*3 1 C 0 km/h
210 24-01-2010 17:50:01 1 C 4.46 g/m*3 1 C 0 km/h
211 24-01-2010 18:02:01 0.9 C 4.48 g/m*3 0.9 C 0 km/h
212 24-01-2010 18:14:01 0.7 C 4.37 g/m*3 0.7 C 0 km/h
213 24-01-2010 18:26:02 0.7 C 4.37 g/m*3 0.7 C 0 km/h
214 24-01-2010 18:38:01 0.6 C 4.39 g/m*3 0.6 C 0 km/h
215 24-01-2010 18:50:01 0.6 C 4.39 g/m*3 0.6 C 0 km/h
216 24-01-2010 19:02:01 0.5 C 4.36 g/m*3 0.5 C 0 km/h
217 24-01-2010 19:14:01 0.6 C 4.44 g/m*3 0.6 C 0 km/h
218 24-01-2010 19:26:01 0.6 C 4.44 g/m*3 0.6 C 0 km/h
219 24-01-2010 19:38:01 0.6 C 4.44 g/m*3 0.6 C 0 km/h
220 24-01-2010 19:50:01 0.5 C 4.41 g/m*3 0.5 C 0 km/h
221 24-01-2010 20:02:02 0.5 C 4.41 g/m*3 0.5 C 0 km/h
222 24-01-2010 20:14:03 0.5 C 4.46 g/m*3 0.5 C 0 km/h
223 24-01-2010 20:26:01 0.6 C 4.49 g/m*3 0.6 C 0 km/h
224 24-01-2010 20:38:01 0.6 C 4.49 g/m*3 0.6 C 0 km/h
225 24-01-2010 20:50:01 0.5 C 4.41 g/m*3 0.5 C 0 km/h
Sensor: Nr:Datum:Temp:Abs-Feuchte:Windchill:Wind:
Aussen-T/F 226 24-01-2010 21:02:02 0.5 C 4.46 g/m*3 0.5 C 0 km/h
227 24-01-2010 21:14:02 0.5 C 4.41 g/m*3 0.5 C 0 km/h
228 24-01-2010 21:26:02 0.4 C 4.38 g/m*3 0.4 C 0 km/h
229 24-01-2010 21:38:01 0.4 C 4.38 g/m*3 0.4 C 0 km/h
230 24-01-2010 21:50:01 0.4 C 4.43 g/m*3 0.4 C 0 km/h
231 24-01-2010 22:02:01 0.2 C 4.37 g/m*3 0.2 C 0 km/h
232 24-01-2010 22:14:01 0.2 C 4.37 g/m*3 0.2 C 0 km/h
233 24-01-2010 22:26:02 0.2 C 4.37 g/m*3 0.2 C 0 km/h
234 24-01-2010 22:38:01 0.2 C 4.37 g/m*3 0.2 C 0 km/h
235 24-01-2010 22:50:01 0.2 C 4.37 g/m*3 0.2 C 0 km/h
236 24-01-2010 23:02:01 0.2 C 4.42 g/m*3 0.2 C 0 km/h
237 24-01-2010 23:14:01 0.1 C 4.39 g/m*3 0.1 C 0 km/h
238 24-01-2010 23:27:02 0.1 C 4.39 g/m*3 0.1 C 0 km/h
239 24-01-2010 23:39:02 0.1 C 4.44 g/m*3 0.1 C 0 km/h
240 24-01-2010 23:51:02 0.1 C 4.44 g/m*3 0.1 C 0 km/h
241 25-01-2010 00:03:02 0.1 C 4.44 g/m*3 0.1 C 0 km/h
242 25-01-2010 00:15:02 0.1 C 4.44 g/m*3 0.1 C 0 km/h
243 25-01-2010 00:27:02 0.1 C 4.44 g/m*3 0.1 C 0 km/h
244 25-01-2010 00:39:02 0.1 C 4.44 g/m*3 0.1 C 0 km/h
245 25-01-2010 00:51:02 0.1 C 4.44 g/m*3 0.1 C 0 km/h
246 25-01-2010 01:03:02 0.1 C 4.44 g/m*3 0.1 C 0 km/h
247 25-01-2010 01:15:02 0.1 C 4.44 g/m*3 0.1 C 0 km/h
248 25-01-2010 01:27:02 0.1 C 4.44 g/m*3 0.1 C 0 km/h
249 25-01-2010 01:39:02 0 C 4.41 g/m*3 0 C 0 km/h
250 25-01-2010 01:51:02 0 C 4.46 g/m*3 0 C 0 km/h
Sensor: Nr:Datum:Temp:Abs-Feuchte:Windchill:Wind:
Aussen-T/F 251 25-01-2010 02:03:02 0 C 4.46 g/m*3 0 C 0 km/h
252 25-01-2010 02:15:02 0 C 4.46 g/m*3 0 C 0 km/h
253 25-01-2010 02:27:02 0 C 4.46 g/m*3 0 C 0 km/h
254 25-01-2010 02:39:03 0 C 4.46 g/m*3 0 C 0 km/h
255 25-01-2010 02:51:03 0 C 4.46 g/m*3 0 C 0 km/h
256 25-01-2010 03:03:03 0 C 4.46 g/m*3 0 C 0 km/h
257 25-01-2010 03:15:03 -0.1 C 4.43 g/m*3 -0.1 C 0 km/h
258 25-01-2010 03:27:03 -0.1 C 4.43 g/m*3 -0.1 C 0 km/h
259 25-01-2010 03:39:03 -0.1 C 4.43 g/m*3 -0.1 C 0 km/h
260 25-01-2010 03:51:03 -0.1 C 4.43 g/m*3 -0.1 C 0 km/h
261 25-01-2010 04:03:03 -0.1 C 4.43 g/m*3 -0.1 C 0 km/h
262 25-01-2010 04:15:03 -0.1 C 4.38 g/m*3 -0.1 C 0 km/h
263 25-01-2010 04:27:03 -0.1 C 4.38 g/m*3 -0.1 C 0 km/h
264 25-01-2010 04:39:03 -0.1 C 4.38 g/m*3 -0.1 C 0 km/h
265 25-01-2010 04:51:03 -0.2 C 4.35 g/m*3 -0.2 C 0 km/h
266 25-01-2010 05:03:03 -0.2 C 4.35 g/m*3 -0.2 C 0 km/h
267 25-01-2010 05:15:03 -0.2 C 4.35 g/m*3 -0.2 C 0 km/h
268 25-01-2010 05:27:03 -0.2 C 4.35 g/m*3 -0.2 C 0 km/h
269 25-01-2010 05:39:03 -0.2 C 4.35 g/m*3 -0.2 C 0 km/h
270 25-01-2010 05:51:03 -0.2 C 4.35 g/m*3 -0.2 C 0 km/h
271 25-01-2010 06:03:03 -0.3 C 4.27 g/m*3 -0.3 C 0 km/h
272 25-01-2010 06:15:03 -0.3 C 4.27 g/m*3 -0.3 C 0 km/h
273 25-01-2010 06:27:03 -0.3 C 4.27 g/m*3 -0.3 C 0 km/h
274 25-01-2010 06:39:04 -0.3 C 4.27 g/m*3 -0.3 C 0 km/h
275 25-01-2010 06:51:04 -0.3 C 4.27 g/m*3 -0.3 C 0 km/h
Sensor: Nr:Datum:Temp:Abs-Feuchte:Windchill:Wind:
Aussen-T/F 276 25-01-2010 07:03:01 -0.3 C 4.27 g/m*3 -0.3 C 0 km/h
277 25-01-2010 07:15:02 -0.3 C 4.22 g/m*3 -0.3 C 0 km/h
278 25-01-2010 07:27:02 -0.4 C 4.19 g/m*3 -0.4 C 0 km/h
279 25-01-2010 07:39:01 -0.5 C 4.17 g/m*3 -0.5 C 0 km/h
280 25-01-2010 07:51:03 -0.5 C 4.17 g/m*3 -0.5 C 0 km/h
281 25-01-2010 08:03:02 -0.6 C 4.14 g/m*3 -0.6 C 0 km/h
282 25-01-2010 08:15:02 -0.7 C 4.11 g/m*3 -0.7 C 0 km/h
283 25-01-2010 08:27:03 -0.7 C 4.11 g/m*3 -0.7 C 0 km/h
284 25-01-2010 08:39:02 -0.7 C 4.11 g/m*3 -0.7 C 0 km/h
285 25-01-2010 08:51:02 -0.6 C 4.14 g/m*3 -0.6 C 0 km/h
286 25-01-2010 09:03:02 -0.3 C 4.18 g/m*3 -0.3 C 0 km/h
287 25-01-2010 09:15:02 -0.3 C 4.18 g/m*3 -0.3 C 0 km/h
288 25-01-2010 09:27:02 -0.3 C 4.18 g/m*3 -0.3 C 0 km/h
289 25-01-2010 09:39:02 -0.3 C 4.13 g/m*3 -0.3 C 0 km/h
290 25-01-2010 09:51:02 -0.3 C 4.08 g/m*3 -0.3 C 0 km/h
291 25-01-2010 10:03:03 -0.2 C 4.01 g/m*3 -0.2 C 0 km/h
292 25-01-2010 10:15:02 -0.1 C 4.04 g/m*3 -0.1 C 0 km/h
293 25-01-2010 10:27:02 0 C 4.02 g/m*3 0 C 0 km/h
294 25-01-2010 10:39:02 0.1 C 4.05 g/m*3 0.1 C 0 km/h
295 25-01-2010 10:51:01 0.2 C 4.08 g/m*3 0.2 C 0 km/h
296 25-01-2010 11:03:02 0.3 C 4.06 g/m*3 0.3 C 0 km/h
297 25-01-2010 11:15:01 0.4 C 4.13 g/m*3 0.4 C 0 km/h
298 25-01-2010 11:27:01 0.4 C 4.08 g/m*3 0.4 C 0 km/h
299 25-01-2010 11:39:02 0.4 C 4.03 g/m*3 0.4 C 0 km/h
300 25-01-2010 11:51:01 0.6 C 4.09 g/m*3 0.6 C 0 km/h
Sensor: Nr:Datum:Temp:Abs-Feuchte:Windchill:Wind:
Aussen-T/F 301 25-01-2010 12:03:02 0.7 C 4.12 g/m*3 0.7 C 0 km/h
302 25-01-2010 12:15:01 0.9 C 4.12 g/m*3 0.9 C 0 km/h
303 25-01-2010 12:27:01 1.2 C 4.16 g/m*3 1.2 C 0 km/h
304 25-01-2010 12:39:02 1.2 C 4.05 g/m*3 1.2 C 0 km/h
305 25-01-2010 12:51:01 1.1 C 3.87 g/m*3 1.1 C 0 km/h
306 25-01-2010 13:03:02 1 C 3.84 g/m*3 1 C 0 km/h
307 25-01-2010 13:15:02 1 C 3.84 g/m*3 1 C 0 km/h
308 25-01-2010 13:27:02 0.9 C 3.87 g/m*3 0.9 C 0 km/h
309 25-01-2010 13:39:01 1 C 3.84 g/m*3 1 C 0 km/h
310 25-01-2010 13:51:02 1.2 C 3.95 g/m*3 1.2 C 0 km/h
311 25-01-2010 14:03:01 1.2 C 3.95 g/m*3 1.2 C 0 km/h
312 25-01-2010 14:15:02 1.2 C 3.95 g/m*3 1.2 C 0 km/h
313 25-01-2010 14:27:03 1.1 C 3.92 g/m*3 1.1 C 0 km/h
314 25-01-2010 14:39:01 1.1 C 3.92 g/m*3 1.1 C 0 km/h
315 25-01-2010 14:51:02 1 C 3.94 g/m*3 1 C 0 km/h
316 25-01-2010 15:03:02 1 C 3.94 g/m*3 1 C 0 km/h
317 25-01-2010 15:15:02 1 C 3.94 g/m*3 1 C 0 km/h
318 25-01-2010 15:27:02 0.8 C 3.99 g/m*3 0.8 C 0 km/h
319 25-01-2010 15:39:02 1 C 4.05 g/m*3 1 C 0 km/h
320 25-01-2010 15:51:02 1.1 C 4.13 g/m*3 1.1 C 0 km/h
321 25-01-2010 16:03:01 1 C 4.1 g/m*3 1 C 0 km/h
322 25-01-2010 16:15:02 0.9 C 4.18 g/m*3 0.9 C 0 km/h
323 25-01-2010 16:27:02 0.7 C 4.12 g/m*3 0.7 C 0 km/h
324 25-01-2010 16:39:02 0.7 C 4.17 g/m*3 0.7 C 0 km/h
325 25-01-2010 16:51:02 0.7 C 4.17 g/m*3 0.7 C 0 km/h
Sensor: Nr:Datum:Temp:Abs-Feuchte:Windchill:Wind:
Aussen-T/F 326 25-01-2010 17:03:01 0.6 C 4.14 g/m*3 0.6 C 0 km/h
327 25-01-2010 17:15:01 0.5 C 4.11 g/m*3 0.5 C 0 km/h
328 25-01-2010 17:27:01 0.4 C 4.08 g/m*3 0.4 C 0 km/h
329 25-01-2010 17:39:02 0.3 C 4.11 g/m*3 0.3 C 0 km/h
330 25-01-2010 17:51:02 0.2 C 4.13 g/m*3 0.2 C 0 km/h
331 25-01-2010 18:03:03 0.2 C 4.13 g/m*3 0.2 C 0 km/h
332 25-01-2010 18:15:02 0.2 C 4.22 g/m*3 0.2 C 0 km/h
333 25-01-2010 18:27:02 0 C 4.22 g/m*3 0 C 0 km/h
334 25-01-2010 18:39:01 0 C 4.26 g/m*3 0 C 0 km/h
335 25-01-2010 18:51:02 -0.2 C 4.21 g/m*3 -0.2 C 0 km/h
336 25-01-2010 19:03:01 -0.4 C 4.19 g/m*3 -0.4 C 0 km/h
337 25-01-2010 19:15:02 -0.5 C 4.21 g/m*3 -0.5 C 0 km/h
338 25-01-2010 19:27:02 -0.5 C 4.21 g/m*3 -0.5 C 0 km/h
339 25-01-2010 19:39:02 -0.5 C 4.26 g/m*3 -0.5 C 0 km/h
340 25-01-2010 19:51:02 -0.6 C 4.23 g/m*3 -0.6 C 0 km/h
341 25-01-2010 20:03:03 -0.5 C 4.26 g/m*3 -0.5 C 0 km/h
342 25-01-2010 20:15:02 -0.6 C 4.23 g/m*3 -0.6 C 0 km/h
343 25-01-2010 20:27:02 -0.6 C 4.23 g/m*3 -0.6 C 0 km/h
344 25-01-2010 20:39:02 -0.7 C 4.2 g/m*3 -0.7 C 0 km/h
345 25-01-2010 20:51:01 -0.8 C 4.17 g/m*3 -0.8 C 0 km/h
346 25-01-2010 21:03:02 -0.7 C 4.2 g/m*3 -0.7 C 0 km/h
347 25-01-2010 21:15:01 -0.6 C 4.23 g/m*3 -0.6 C 0 km/h
348 25-01-2010 21:27:01 -0.7 C 4.15 g/m*3 -0.7 C 0 km/h
349 25-01-2010 21:39:02 -0.7 C 4.15 g/m*3 -0.7 C 0 km/h
350 25-01-2010 21:51:02 -0.8 C 4.08 g/m*3 -0.8 C 0 km/h
Sensor: Nr:Datum:Temp:Abs-Feuchte:Windchill:Wind:
Aussen-T/F 351 25-01-2010 22:03:02 -0.7 C 4.11 g/m*3 -0.7 C 0 km/h
352 25-01-2010 22:15:02 -0.6 C 4.14 g/m*3 -0.6 C 0 km/h
353 25-01-2010 22:27:02 -0.8 C 4.03 g/m*3 -0.8 C 0 km/h
354 25-01-2010 22:40:03 -0.7 C 4.06 g/m*3 -0.7 C 0 km/h
355 25-01-2010 22:52:03 -0.9 C 4.01 g/m*3 -0.9 C 0 km/h
356 25-01-2010 23:04:03 -0.9 C 3.96 g/m*3 -0.9 C 0 km/h
357 25-01-2010 23:16:03 -0.8 C 4.03 g/m*3 -0.8 C 0 km/h
358 25-01-2010 23:28:03 -0.9 C 3.96 g/m*3 -0.9 C 0 km/h
359 25-01-2010 23:40:03 -1 C 3.93 g/m*3 -1 C 0 km/h
360 25-01-2010 23:52:03 -1 C 3.93 g/m*3 -1 C 0 km/h
361 26-01-2010 00:04:03 -1.1 C 3.91 g/m*3 -1.1 C 0 km/h
362 26-01-2010 00:16:03 -1.1 C 3.91 g/m*3 -1.1 C 0 km/h
363 26-01-2010 00:28:03 -1.1 C 3.91 g/m*3 -1.1 C 0 km/h
364 26-01-2010 00:40:03 -1.1 C 3.91 g/m*3 -1.1 C 0 km/h
365 26-01-2010 00:52:03 -1.4 C 3.82 g/m*3 -1.4 C 0 km/h
366 26-01-2010 01:04:03 -1.5 C 3.84 g/m*3 -1.5 C 0 km/h
367 26-01-2010 01:16:03 -1.6 C 3.81 g/m*3 -1.6 C 0 km/h
368 26-01-2010 01:28:03 -1.4 C 3.87 g/m*3 -1.4 C 0 km/h
369 26-01-2010 01:40:04 -1.7 C 3.79 g/m*3 -1.7 C 0 km/h
370 26-01-2010 01:52:04 -1.6 C 3.81 g/m*3 -1.6 C 0 km/h
371 26-01-2010 02:04:04 -1.5 C 3.84 g/m*3 -1.5 C 0 km/h
372 26-01-2010 02:16:04 -1.7 C 3.79 g/m*3 -1.7 C 0 km/h
373 26-01-2010 02:28:04 -1.8 C 3.76 g/m*3 -1.8 C 0 km/h
374 26-01-2010 02:40:04 -1.8 C 3.76 g/m*3 -1.8 C 0 km/h
375 26-01-2010 02:52:04 -1.9 C 3.74 g/m*3 -1.9 C 0 km/h
Sensor: Nr:Datum:Temp:Abs-Feuchte:Windchill:Wind:
Aussen-T/F 376 26-01-2010 03:04:04 -1.7 C 3.79 g/m*3 -1.7 C 0 km/h
377 26-01-2010 03:16:04 -1.7 C 3.79 g/m*3 -1.7 C 0 km/h
378 26-01-2010 03:28:04 -1.8 C 3.76 g/m*3 -1.8 C 0 km/h
379 26-01-2010 03:40:04 -2.1 C 3.68 g/m*3 -2.1 C 0 km/h
380 26-01-2010 03:52:04 -2 C 3.75 g/m*3 -2 C 0 km/h
381 26-01-2010 04:04:04 -2.1 C 3.73 g/m*3 -2.1 C 0 km/h
382 26-01-2010 04:16:04 -2.1 C 3.73 g/m*3 -2.1 C 0 km/h
383 26-01-2010 04:28:04 -2.1 C 3.73 g/m*3 -2.1 C 0 km/h
384 26-01-2010 04:40:04 -2.2 C 3.66 g/m*3 -2.2 C 0 km/h
385 26-01-2010 04:52:04 -2.2 C 3.66 g/m*3 -2.2 C 0 km/h
386 26-01-2010 05:04:04 -2.2 C 3.66 g/m*3 -2.2 C 0 km/h
387 26-01-2010 05:16:04 -2.1 C 3.68 g/m*3 -2.1 C 0 km/h
388 26-01-2010 05:28:04 -2.2 C 3.66 g/m*3 -2.2 C 0 km/h
389 26-01-2010 05:40:05 -2.1 C 3.68 g/m*3 -2.1 C 0 km/h
390 26-01-2010 05:52:05 -2.3 C 3.59 g/m*3 -2.3 C 0 km/h
391 26-01-2010 06:04:05 -2.3 C 3.59 g/m*3 -2.3 C 0 km/h
392 26-01-2010 06:16:05 -2.3 C 3.59 g/m*3 -2.3 C 0 km/h
393 26-01-2010 06:28:05 -2.3 C 3.59 g/m*3 -2.3 C 0 km/h
394 26-01-2010 06:40:05 -2.4 C 3.57 g/m*3 -2.4 C 0 km/h
395 26-01-2010 06:52:05 -2.4 C 3.57 g/m*3 -2.4 C 0 km/h
396 26-01-2010 07:04:02 -2.3 C 3.59 g/m*3 -2.3 C 0 km/h
397 26-01-2010 07:16:02 -2.2 C 3.62 g/m*3 -2.2 C 0 km/h
398 26-01-2010 07:28:02 -2.1 C 3.64 g/m*3 -2.1 C 0 km/h
399 26-01-2010 07:40:02 -2.1 C 3.6 g/m*3 -2.1 C 0 km/h
400 26-01-2010 07:52:02 -2.1 C 3.56 g/m*3 -2.1 C 0 km/h
Sensor: Nr:Datum:Temp:Abs-Feuchte:Windchill:Wind:
Aussen-T/F 401 26-01-2010 08:04:02 -2.1 C 3.52 g/m*3 -2.1 C 0 km/h
402 26-01-2010 08:16:02 -2.7 C 3.21 g/m*3 -2.7 C 0 km/h
403 26-01-2010 08:28:02 -2.8 C 3.11 g/m*3 -2.8 C 0 km/h
404 26-01-2010 08:40:02 -3 C 2.99 g/m*3 -3 C 0 km/h
405 26-01-2010 08:52:02 -3.3 C 2.81 g/m*3 -3.3 C 0 km/h
406 26-01-2010 09:04:02 -3.3 C 2.81 g/m*3 -3.3 C 0 km/h
407 26-01-2010 09:16:02 -3.3 C 2.77 g/m*3 -3.3 C 0 km/h
408 26-01-2010 09:28:02 -3.3 C 2.73 g/m*3 -3.3 C 0 km/h
409 26-01-2010 09:40:02 -3.8 C 2.49 g/m*3 -3.8 C 0 km/h
410 26-01-2010 09:52:02 -3.9 C 2.47 g/m*3 -3.9 C 0 km/h
411 26-01-2010 10:04:02 -3.7 C 2.47 g/m*3 -3.7 C 0 km/h
412 26-01-2010 10:16:02 -3.5 C 2.46 g/m*3 -3.5 C 0 km/h
413 26-01-2010 10:28:02 -3.5 C 2.39 g/m*3 -3.5 C 0 km/h
414 26-01-2010 10:40:02 -3.2 C 2.44 g/m*3 -3.2 C 0 km/h
415 26-01-2010 10:52:01 -3.2 C 2.4 g/m*3 -3.2 C 0 km/h
416 26-01-2010 11:04:01 -3.3 C 2.31 g/m*3 -3.3 C 0 km/h
417 26-01-2010 11:16:02 -3.4 C 2.29 g/m*3 -3.4 C 0 km/h
418 26-01-2010 11:28:02 -3.1 C 2.38 g/m*3 -3.1 C 0 km/h
419 26-01-2010 11:40:01 -2.8 C 2.43 g/m*3 -2.8 C 0 km/h
420 26-01-2010 11:52:02 -2.7 C 2.45 g/m*3 -2.7 C 0 km/h
421 26-01-2010 12:04:02 -2.9 C 2.37 g/m*3 -2.9 C 0 km/h
422 26-01-2010 12:16:03 -2.7 C 2.41 g/m*3 -2.7 C 0 km/h
423 26-01-2010 12:28:03 -2.7 C 2.37 g/m*3 -2.7 C 0 km/h
424 26-01-2010 12:40:02 -2.5 C 2.36 g/m*3 -2.5 C 0 km/h
425 26-01-2010 12:52:03 -2.5 C 2.36 g/m*3 -2.5 C 0 km/h
Sensor: Nr:Datum:Temp:Abs-Feuchte:Windchill:Wind:
Aussen-T/F 426 26-01-2010 13:04:02 -3 C 2.24 g/m*3 -3 C 0 km/h
427 26-01-2010 13:16:02 -3 C 2.24 g/m*3 -3 C 0 km/h
428 26-01-2010 13:28:02 -2.5 C 2.36 g/m*3 -2.5 C 0 km/h
429 26-01-2010 13:40:02 -2.1 C 2.34 g/m*3 -2.1 C 0 km/h
430 26-01-2010 13:52:02 -1.7 C 2.37 g/m*3 -1.7 C 0 km/h
431 26-01-2010 14:04:02 -1.4 C 2.37 g/m*3 -1.4 C 0 km/h
432 26-01-2010 14:16:02 -1.1 C 2.38 g/m*3 -1.1 C 0 km/h
433 26-01-2010 14:28:02 -0.9 C 2.37 g/m*3 -0.9 C 0 km/h
434 26-01-2010 14:40:01 -0.9 C 2.32 g/m*3 -0.9 C 0 km/h
435 26-01-2010 14:52:02 -1.1 C 2.29 g/m*3 -1.1 C 0 km/h
436 26-01-2010 15:04:01 -1 C 2.35 g/m*3 -1 C 0 km/h
437 26-01-2010 15:16:02 -0.7 C 2.4 g/m*3 -0.7 C 0 km/h
438 26-01-2010 15:28:02 -1.1 C 2.29 g/m*3 -1.1 C 0 km/h
439 26-01-2010 15:40:02 -1.4 C 2.29 g/m*3 -1.4 C 0 km/h
440 26-01-2010 15:52:02 -1.6 C 2.34 g/m*3 -1.6 C 0 km/h
441 26-01-2010 16:04:02 -1.9 C 2.33 g/m*3 -1.9 C 0 km/h
442 26-01-2010 16:16:02 -2.1 C 2.34 g/m*3 -2.1 C 0 km/h
443 26-01-2010 16:28:02 -2.4 C 2.34 g/m*3 -2.4 C 0 km/h
444 26-01-2010 16:40:03 -2.8 C 2.31 g/m*3 -2.8 C 0 km/h
445 26-01-2010 16:52:02 -3 C 2.32 g/m*3 -3 C 0 km/h
446 26-01-2010 17:04:02 -3.3 C 2.31 g/m*3 -3.3 C 0 km/h
447 26-01-2010 17:16:01 -3.5 C 2.31 g/m*3 -3.5 C 0 km/h
448 26-01-2010 17:28:01 -3.7 C 2.32 g/m*3 -3.7 C 0 km/h
449 26-01-2010 17:40:02 -4.1 C 2.29 g/m*3 -4.1 C 0 km/h
450 26-01-2010 17:52:02 -4.3 C 2.33 g/m*3 -4.3 C 0 km/h
Sensor: Nr:Datum:Temp:Abs-Feuchte:Windchill:Wind:
Aussen-T/F 451 26-01-2010 18:04:02 -4.6 C 2.31 g/m*3 -4.6 C 0 km/h
452 26-01-2010 18:16:02 -4.8 C 2.31 g/m*3 -4.8 C 0 km/h
453 26-01-2010 18:28:02 -4.9 C 2.33 g/m*3 -4.9 C 0 km/h
454 26-01-2010 18:40:02 -4.9 C 2.37 g/m*3 -4.9 C 0 km/h
455 26-01-2010 18:52:01 -5.1 C 2.3 g/m*3 -5.1 C 0 km/h
456 26-01-2010 19:04:02 -5.3 C 2.3 g/m*3 -5.3 C 0 km/h
457 26-01-2010 19:16:01 -5.4 C 2.32 g/m*3 -5.4 C 0 km/h
458 26-01-2010 19:28:01 -5.6 C 2.28 g/m*3 -5.6 C 0 km/h
459 26-01-2010 19:40:01 -5.7 C 2.3 g/m*3 -5.7 C 0 km/h
460 26-01-2010 19:52:01 -5.9 C 2.3 g/m*3 -5.9 C 0 km/h
461 26-01-2010 20:04:02 -6 C 2.31 g/m*3 -6 C 0 km/h
462 26-01-2010 20:16:01 -6 C 2.34 g/m*3 -6 C 0 km/h
463 26-01-2010 20:28:01 -6.2 C 2.31 g/m*3 -6.2 C 0 km/h
464 26-01-2010 20:40:01 -6.4 C 2.28 g/m*3 -6.4 C 0 km/h
465 26-01-2010 20:52:01 -6.4 C 2.28 g/m*3 -6.4 C 0 km/h
466 26-01-2010 21:04:02 -6.6 C 2.27 g/m*3 -6.6 C 0 km/h
467 26-01-2010 21:16:02 -6.7 C 2.26 g/m*3 -6.7 C 0 km/h
468 26-01-2010 21:28:02 -6.9 C 2.22 g/m*3 -6.9 C 0 km/h
469 26-01-2010 21:40:01 -7 C 2.21 g/m*3 -7 C 0 km/h
470 26-01-2010 21:52:01 -6.9 C 2.25 g/m*3 -6.9 C 0 km/h
471 26-01-2010 22:04:01 -7 C 2.27 g/m*3 -7 C 0 km/h
472 26-01-2010 22:16:01 -7.1 C 2.25 g/m*3 -7.1 C 0 km/h
473 26-01-2010 22:28:01 -7.2 C 2.23 g/m*3 -7.2 C 0 km/h
474 26-01-2010 22:40:02 -7.1 C 2.25 g/m*3 -7.1 C 0 km/h
475 26-01-2010 22:52:02 -7.2 C 2.23 g/m*3 -7.2 C 0 km/h
Sensor: Nr:Datum:Temp:Abs-Feuchte:Windchill:Wind:
Aussen-T/F 476 26-01-2010 23:04:02 -7.5 C 2.16 g/m*3 -7.5 C 0 km/h
477 26-01-2010 23:16:02 -7.6 C 2.14 g/m*3 -7.6 C 0 km/h
478 26-01-2010 23:28:02 -7.7 C 2.13 g/m*3 -7.7 C 0 km/h
479 26-01-2010 23:40:02 -7.7 C 2.13 g/m*3 -7.7 C 0 km/h
480 26-01-2010 23:52:01 -8.1 C 2.06 g/m*3 -8.1 C 0 km/h
481 27-01-2010 00:04:02 -8.2 C 2.05 g/m*3 -8.2 C 0 km/h
482 27-01-2010 00:16:01 -8.3 C 2.03 g/m*3 -8.3 C 0 km/h
483 27-01-2010 00:28:01 -8.2 C 2.07 g/m*3 -8.2 C 0 km/h
484 27-01-2010 00:40:02 -8.3 C 2.06 g/m*3 -8.3 C 0 km/h
485 27-01-2010 00:53:02 -8.6 C 2.01 g/m*3 -8.6 C 0 km/h
486 27-01-2010 01:05:02 -8.8 C 1.98 g/m*3 -8.8 C 0 km/h
487 27-01-2010 01:17:02 -8.9 C 1.97 g/m*3 -8.9 C 0 km/h
488 27-01-2010 01:29:02 -8.9 C 1.97 g/m*3 -8.9 C 0 km/h
489 27-01-2010 01:41:02 -8.9 C 1.97 g/m*3 -8.9 C 0 km/h
490 27-01-2010 01:53:02 -9.2 C 1.93 g/m*3 -9.2 C 0 km/h
491 27-01-2010 02:05:02 -9.3 C 1.91 g/m*3 -9.3 C 0 km/h
492 27-01-2010 02:17:02 -9.1 C 1.94 g/m*3 -9.1 C 0 km/h
493 27-01-2010 02:29:02 -9.3 C 1.91 g/m*3 -9.3 C 0 km/h
494 27-01-2010 02:41:02 -9.4 C 1.9 g/m*3 -9.4 C 0 km/h
495 27-01-2010 02:53:02 -9.4 C 1.9 g/m*3 -9.4 C 0 km/h
496 27-01-2010 03:05:02 -9.3 C 1.91 g/m*3 -9.3 C 0 km/h
497 27-01-2010 03:17:02 -9.1 C 1.94 g/m*3 -9.1 C 0 km/h
498 27-01-2010 03:29:02 -9.1 C 1.94 g/m*3 -9.1 C 0 km/h
499 27-01-2010 03:41:02 -8.9 C 1.97 g/m*3 -8.9 C 0 km/h
500 27-01-2010 03:53:03 -8.9 C 1.94 g/m*3 -8.9 C 0 km/h
Sensor: Nr:Datum:Temp:Abs-Feuchte:Windchill:Wind:
Aussen-T/F 501 27-01-2010 04:05:03 -8.8 C 1.96 g/m*3 -8.8 C 0 km/h
502 27-01-2010 04:17:03 -8.8 C 1.93 g/m*3 -8.8 C 0 km/h
503 27-01-2010 04:29:03 -8.5 C 2 g/m*3 -8.5 C 0 km/h
504 27-01-2010 04:41:03 -8.4 C 2.02 g/m*3 -8.4 C 0 km/h
505 27-01-2010 04:53:03 -8.4 C 2.02 g/m*3 -8.4 C 0 km/h
506 27-01-2010 05:05:03 -8.4 C 2.04 g/m*3 -8.4 C 0 km/h
507 27-01-2010 05:17:03 -8.4 C 2.02 g/m*3 -8.4 C 0 km/h
508 27-01-2010 05:29:03 -8.6 C 1.96 g/m*3 -8.6 C 0 km/h
509 27-01-2010 05:41:03 -8.7 C 1.92 g/m*3 -8.7 C 0 km/h
510 27-01-2010 05:53:03 -8.8 C 1.91 g/m*3 -8.8 C 0 km/h
511 27-01-2010 06:05:03 -8.7 C 1.95 g/m*3 -8.7 C 0 km/h
512 27-01-2010 06:17:03 -8.8 C 1.93 g/m*3 -8.8 C 0 km/h
513 27-01-2010 06:29:03 -8.9 C 1.92 g/m*3 -8.9 C 0 km/h
514 27-01-2010 06:41:03 -9.1 C 1.89 g/m*3 -9.1 C 0 km/h
515 27-01-2010 06:53:03 -9.2 C 1.88 g/m*3 -9.2 C 0 km/h
516 27-01-2010 07:05:01 -9.4 C 1.82 g/m*3 -9.4 C 0 km/h
517 27-01-2010 07:17:02 -9.3 C 1.84 g/m*3 -9.3 C 0 km/h
518 27-01-2010 07:29:02 -9.1 C 1.89 g/m*3 -9.1 C 0 km/h
519 27-01-2010 07:41:02 -9.1 C 1.89 g/m*3 -9.1 C 0 km/h
520 27-01-2010 07:53:01 -9.2 C 1.88 g/m*3 -9.2 C 0 km/h
521 27-01-2010 08:05:02 -9.3 C 1.84 g/m*3 -9.3 C 0 km/h
522 27-01-2010 08:17:01 -9.2 C 1.88 g/m*3 -9.2 C 0 km/h
523 27-01-2010 08:29:01 -9.2 C 1.88 g/m*3 -9.2 C 0 km/h
524 27-01-2010 08:41:02 -9.2 C 1.88 g/m*3 -9.2 C 0 km/h
525 27-01-2010 08:53:02 -9.3 C 1.86 g/m*3 -9.3 C 0 km/h
Sensor: Nr:Datum:Temp:Abs-Feuchte:Windchill:Wind:
Aussen-T/F 526 27-01-2010 09:05:02 -9.2 C 1.88 g/m*3 -9.2 C 0 km/h
527 27-01-2010 09:17:01 -9 C 1.88 g/m*3 -9 C 0 km/h
528 27-01-2010 09:29:01 -8.8 C 1.91 g/m*3 -8.8 C 0 km/h
529 27-01-2010 09:41:02 -8.6 C 1.91 g/m*3 -8.6 C 0 km/h
530 27-01-2010 09:53:02 -8.6 C 1.88 g/m*3 -8.6 C 0 km/h
531 27-01-2010 10:05:02 -8.7 C 1.84 g/m*3 -8.7 C 0 km/h
532 27-01-2010 10:17:01 -8.6 C 1.86 g/m*3 -8.6 C 0 km/h
533 27-01-2010 10:29:01 -8.4 C 1.88 g/m*3 -8.4 C 0 km/h
534 27-01-2010 10:41:02 -7.8 C 1.94 g/m*3 -7.8 C 0 km/h
535 27-01-2010 10:53:02 -7.5 C 1.96 g/m*3 -7.5 C 0 km/h
536 27-01-2010 11:05:02 -6.9 C 2.02 g/m*3 -6.9 C 0 km/h
537 27-01-2010 11:17:01 -7 C 1.94 g/m*3 -7 C 0 km/h
538 27-01-2010 11:29:01 -6.9 C 1.96 g/m*3 -6.9 C 0 km/h
539 27-01-2010 11:41:02 -6.5 C 2.02 g/m*3 -6.5 C 0 km/h
540 27-01-2010 11:53:02 -5.8 C 2.09 g/m*3 -5.8 C 0 km/h
541 27-01-2010 12:05:02 -5.3 C 2.13 g/m*3 -5.3 C 0 km/h
542 27-01-2010 12:17:02 -5.1 C 2.1 g/m*3 -5.1 C 0 km/h
543 27-01-2010 12:29:02 -4.7 C 2.16 g/m*3 -4.7 C 0 km/h
544 27-01-2010 12:41:02 -4.2 C 2.16 g/m*3 -4.2 C 0 km/h
545 27-01-2010 12:53:01 -3.9 C 2.14 g/m*3 -3.9 C 0 km/h
546 27-01-2010 13:05:02 -4.5 C 1.98 g/m*3 -4.5 C 0 km/h
547 27-01-2010 13:17:02 -4.4 C 2.06 g/m*3 -4.4 C 0 km/h
548 27-01-2010 13:29:02 -3.9 C 2.1 g/m*3 -3.9 C 0 km/h
549 27-01-2010 13:41:01 -3.3 C 2.19 g/m*3 -3.3 C 0 km/h
550 27-01-2010 13:53:02 -2.6 C 2.34 g/m*3 -2.6 C 0 km/h
Sensor: Nr:Datum:Temp:Abs-Feuchte:Windchill:Wind:
Aussen-T/F 551 27-01-2010 14:05:01 -2.2 C 2.37 g/m*3 -2.2 C 0 km/h
552 27-01-2010 14:17:02 -2.4 C 2.25 g/m*3 -2.4 C 0 km/h
553 27-01-2010 14:29:02 -2.2 C 2.33 g/m*3 -2.2 C 0 km/h
554 27-01-2010 14:41:01 -2.1 C 2.34 g/m*3 -2.1 C 0 km/h
555 27-01-2010 14:53:02 -2 C 2.44 g/m*3 -2 C 0 km/h
556 27-01-2010 15:05:01 -2 C 2.44 g/m*3 -2 C 0 km/h
557 27-01-2010 15:17:01 -2.1 C 2.43 g/m*3 -2.1 C 0 km/h
558 27-01-2010 15:29:02 -2.1 C 2.47 g/m*3 -2.1 C 0 km/h
559 27-01-2010 15:41:01 -2.3 C 2.44 g/m*3 -2.3 C 0 km/h
560 27-01-2010 15:53:02 -2.2 C 2.45 g/m*3 -2.2 C 0 km/h
561 27-01-2010 16:05:01 -2.1 C 2.39 g/m*3 -2.1 C 0 km/h
562 27-01-2010 16:17:02 -2.1 C 2.39 g/m*3 -2.1 C 0 km/h
563 27-01-2010 16:29:02 -2 C 2.32 g/m*3 -2 C 0 km/h
564 27-01-2010 16:41:02 -2.1 C 2.26 g/m*3 -2.1 C 0 km/h
565 27-01-2010 16:53:02 -2.1 C 2.18 g/m*3 -2.1 C 0 km/h
566 27-01-2010 17:05:01 -2.3 C 2.06 g/m*3 -2.3 C 0 km/h
567 27-01-2010 17:17:02 -2.4 C 2.13 g/m*3 -2.4 C 0 km/h
568 27-01-2010 17:29:02 -2.4 C 2.17 g/m*3 -2.4 C 0 km/h
569 27-01-2010 17:41:02 -2.4 C 2.21 g/m*3 -2.4 C 0 km/h
570 27-01-2010 17:53:02 -2.4 C 2.21 g/m*3 -2.4 C 0 km/h
571 27-01-2010 18:05:02 -2.3 C 2.27 g/m*3 -2.3 C 0 km/h
572 27-01-2010 18:17:02 -2.4 C 2.29 g/m*3 -2.4 C 0 km/h
573 27-01-2010 18:29:02 -2.3 C 2.31 g/m*3 -2.3 C 0 km/h
574 27-01-2010 18:41:02 -2.3 C 2.35 g/m*3 -2.3 C 0 km/h
575 27-01-2010 18:53:02 -2.3 C 2.39 g/m*3 -2.3 C 0 km/h
Sensor: Nr:Datum:Temp:Abs-Feuchte:Windchill:Wind:
Aussen-T/F 576 27-01-2010 19:05:02 -2.1 C 2.39 g/m*3 -2.1 C 0 km/h
577 27-01-2010 19:17:03 -2 C 2.4 g/m*3 -2 C 0 km/h
578 27-01-2010 19:29:03 -1.9 C 2.42 g/m*3 -1.9 C 0 km/h
579 27-01-2010 19:41:02 -1.6 C 2.34 g/m*3 -1.6 C 0 km/h
580 27-01-2010 19:53:02 -1.6 C 2.38 g/m*3 -1.6 C 0 km/h
581 27-01-2010 20:05:02 -1.7 C 2.37 g/m*3 -1.7 C 0 km/h
582 27-01-2010 20:17:02 -2 C 2.57 g/m*3 -2 C 0 km/h
583 27-01-2010 20:29:02 -2 C 2.57 g/m*3 -2 C 0 km/h
584 27-01-2010 20:41:02 -1.9 C 2.59 g/m*3 -1.9 C 0 km/h
585 27-01-2010 20:53:02 -1.9 C 2.55 g/m*3 -1.9 C 0 km/h
586 27-01-2010 21:05:02 -1.9 C 2.55 g/m*3 -1.9 C 0 km/h
587 27-01-2010 21:17:02 -2 C 2.66 g/m*3 -2 C 0 km/h
588 27-01-2010 21:29:02 -1.8 C 2.61 g/m*3 -1.8 C 0 km/h
589 27-01-2010 21:41:02 -2 C 2.66 g/m*3 -2 C 0 km/h
590 27-01-2010 21:53:02 -1.9 C 2.67 g/m*3 -1.9 C 0 km/h
591 27-01-2010 22:06:03 -2 C 2.74 g/m*3 -2 C 0 km/h
592 27-01-2010 22:18:03 -2 C 2.74 g/m*3 -2 C 0 km/h
593 27-01-2010 22:30:03 -1.9 C 2.67 g/m*3 -1.9 C 0 km/h
594 27-01-2010 22:42:03 -1.9 C 2.67 g/m*3 -1.9 C 0 km/h
595 27-01-2010 22:54:03 -1.9 C 2.72 g/m*3 -1.9 C 0 km/h
596 27-01-2010 23:06:03 -2 C 2.82 g/m*3 -2 C 0 km/h
597 27-01-2010 23:18:03 -2 C 2.91 g/m*3 -2 C 0 km/h
598 27-01-2010 23:30:03 -2 C 2.87 g/m*3 -2 C 0 km/h
599 27-01-2010 23:42:03 -2.1 C 2.89 g/m*3 -2.1 C 0 km/h
600 27-01-2010 23:54:03 -2.2 C 2.95 g/m*3 -2.2 C 0 km/h
Sensor: Nr:Datum:Temp:Abs-Feuchte:Windchill:Wind:
Aussen-T/F 601 28-01-2010 00:06:03 -2.1 C 2.93 g/m*3 -2.1 C 0 km/h
602 28-01-2010 00:18:03 -2 C 2.99 g/m*3 -2 C 0 km/h
603 28-01-2010 00:30:03 -2.1 C 3.06 g/m*3 -2.1 C 0 km/h
604 28-01-2010 00:42:03 -2 C 3.16 g/m*3 -2 C 0 km/h
605 28-01-2010 00:54:03 -1.9 C 3.18 g/m*3 -1.9 C 0 km/h
606 28-01-2010 01:06:03 -2 C 3.25 g/m*3 -2 C 0 km/h
607 28-01-2010 01:18:03 -2.1 C 3.43 g/m*3 -2.1 C 0 km/h
608 28-01-2010 01:30:03 -2 C 3.5 g/m*3 -2 C 0 km/h
609 28-01-2010 01:42:03 -1.7 C 3.57 g/m*3 -1.7 C 0 km/h
610 28-01-2010 01:54:03 -1.4 C 3.56 g/m*3 -1.4 C 0 km/h
611 28-01-2010 02:06:04 -1.2 C 3.52 g/m*3 -1.2 C 0 km/h
612 28-01-2010 02:18:04 -1.1 C 3.5 g/m*3 -1.1 C 0 km/h
613 28-01-2010 02:30:04 -1.1 C 3.46 g/m*3 -1.1 C 0 km/h
614 28-01-2010 02:42:04 -1.1 C 3.46 g/m*3 -1.1 C 0 km/h
615 28-01-2010 02:54:04 -1 C 3.53 g/m*3 -1 C 0 km/h
616 28-01-2010 03:06:04 -1 C 3.53 g/m*3 -1 C 0 km/h
617 28-01-2010 03:18:04 -0.9 C 3.55 g/m*3 -0.9 C 0 km/h
618 28-01-2010 03:30:04 -0.9 C 3.55 g/m*3 -0.9 C 0 km/h
619 28-01-2010 03:42:04 -0.9 C 3.6 g/m*3 -0.9 C 0 km/h
620 28-01-2010 03:54:04 -0.9 C 3.64 g/m*3 -0.9 C 0 km/h
621 28-01-2010 04:06:04 -0.9 C 3.69 g/m*3 -0.9 C 0 km/h
622 28-01-2010 04:18:04 -0.8 C 3.71 g/m*3 -0.8 C 0 km/h
623 28-01-2010 04:30:04 -0.7 C 3.78 g/m*3 -0.7 C 0 km/h
624 28-01-2010 04:42:04 -0.5 C 3.84 g/m*3 -0.5 C 0 km/h
625 28-01-2010 04:54:04 -0.5 C 3.84 g/m*3 -0.5 C 0 km/h
Sensor: Nr:Datum:Temp:Abs-Feuchte:Windchill:Wind:
Aussen-T/F 626 28-01-2010 05:06:04 -0.7 C 3.92 g/m*3 -0.7 C 0 km/h
627 28-01-2010 05:18:04 -0.7 C 4.06 g/m*3 -0.7 C 0 km/h
628 28-01-2010 05:30:04 -0.7 C 4.11 g/m*3 -0.7 C 0 km/h
629 28-01-2010 05:42:04 -0.5 C 4.21 g/m*3 -0.5 C 0 km/h
630 28-01-2010 05:54:04 0.1 C 4.44 g/m*3 0.1 C 0 km/h
631 28-01-2010 06:06:05 0.3 C 4.5 g/m*3 0.3 C 0 km/h
632 28-01-2010 06:18:05 0.4 C 4.53 g/m*3 0.4 C 0 km/h
633 28-01-2010 06:30:05 1 C 4.67 g/m*3 1 C 0 km/h
634 28-01-2010 06:42:05 1.5 C 4.62 g/m*3 1.5 C 0 km/h
635 28-01-2010 06:54:05 1.3 C 4.45 g/m*3 1.3 C 0 km/h
636 28-01-2010 07:06:03 1.3 C 4.34 g/m*3 1.3 C 0 km/h
637 28-01-2010 07:18:02 1.2 C 4.31 g/m*3 1.2 C 0 km/h
638 28-01-2010 07:30:02 1.1 C 4.29 g/m*3 1.1 C 0 km/h
639 28-01-2010 07:42:02 1.1 C 4.29 g/m*3 1.1 C 0 km/h
640 28-01-2010 07:54:01 1.2 C 4.31 g/m*3 1.2 C 0 km/h
641 28-01-2010 08:06:02 1.1 C 4.34 g/m*3 1.1 C 0 km/h
642 28-01-2010 08:18:01 1 C 4.36 g/m*3 1 C 0 km/h
643 28-01-2010 08:30:01 1.4 C 4.48 g/m*3 1.4 C 0 km/h
644 28-01-2010 08:42:01 1.4 C 4.48 g/m*3 1.4 C 0 km/h
645 28-01-2010 08:54:01 1.5 C 4.46 g/m*3 1.5 C 0 km/h
646 28-01-2010 09:06:01 1.5 C 4.46 g/m*3 1.5 C 0 km/h
647 28-01-2010 09:18:02 1.6 C 4.43 g/m*3 1.6 C 0 km/h
648 28-01-2010 09:30:02 1.7 C 4.41 g/m*3 1.7 C 0 km/h
649 28-01-2010 09:42:01 1.8 C 4.39 g/m*3 1.8 C 0 km/h
650 28-01-2010 09:54:02 1.9 C 4.42 g/m*3 1.9 C 0 km/h
Sensor: Nr:Datum:Temp:Abs-Feuchte:Windchill:Wind:
Aussen-T/F 651 28-01-2010 10:06:01 2.1 C 4.31 g/m*3 2.1 C 0 km/h
652 28-01-2010 10:18:02 2.2 C 4.22 g/m*3 2.2 C 0 km/h
653 28-01-2010 10:30:02 2.4 C 4.17 g/m*3 2.4 C 0 km/h
654 28-01-2010 10:42:01 2.6 C 4.11 g/m*3 2.6 C 0 km/h
655 28-01-2010 10:54:02 2.8 C 4.05 g/m*3 2.8 C 0 km/h
656 28-01-2010 11:06:02 3 C 3.98 g/m*3 3 C 0 km/h
657 28-01-2010 11:18:02 2.8 C 3.99 g/m*3 2.8 C 0 km/h
658 28-01-2010 11:30:02 2.6 C 3.99 g/m*3 2.6 C 0 km/h
659 28-01-2010 11:42:01 2.5 C 4.02 g/m*3 2.5 C 0 km/h
660 28-01-2010 11:54:02 2.8 C 4.05 g/m*3 2.8 C 0 km/h
661 28-01-2010 12:06:01 3.3 C 3.94 g/m*3 3.3 C 0 km/h
662 28-01-2010 12:18:01 3.1 C 3.89 g/m*3 3.1 C 0 km/h
663 28-01-2010 12:30:01 3.4 C 3.91 g/m*3 3.4 C 0 km/h
664 28-01-2010 12:42:02 3.3 C 3.82 g/m*3 3.3 C 0 km/h
665 28-01-2010 12:54:02 2.9 C 3.96 g/m*3 2.9 C 0 km/h
666 28-01-2010 13:06:02 2.9 C 4.07 g/m*3 2.9 C 0 km/h
667 28-01-2010 13:18:02 3.3 C 4 g/m*3 3.3 C 0 km/h
668 28-01-2010 13:30:02 3.5 C 3.87 g/m*3 3.5 C 0 km/h
669 28-01-2010 13:42:02 3.6 C 3.71 g/m*3 3.6 C 0 km/h
670 28-01-2010 13:54:02 3.6 C 3.71 g/m*3 3.6 C 0 km/h
671 28-01-2010 14:06:02 2.7 C 3.9 g/m*3 2.7 C 0 km/h
672 28-01-2010 14:18:02 2.3 C 4.14 g/m*3 2.3 C 0 km/h
673 28-01-2010 14:30:02 2.1 C 4.2 g/m*3 2.1 C 0 km/h
674 28-01-2010 14:42:02 1.8 C 4.44 g/m*3 1.8 C 0 km/h
675 28-01-2010 14:54:02 2.1 C 4.59 g/m*3 2.1 C 0 km/h
Sensor: Nr:Datum:Temp:Abs-Feuchte:Windchill:Wind:
Aussen-T/F 676 28-01-2010 15:06:02 2.1 C 4.42 g/m*3 2.1 C 0 km/h
677 28-01-2010 15:18:03 2.3 C 4.2 g/m*3 2.3 C 0 km/h
678 28-01-2010 15:30:03 3.1 C 3.95 g/m*3 3.1 C 0 km/h
679 28-01-2010 15:42:02 3 C 3.75 g/m*3 3 C 0 km/h
680 28-01-2010 15:54:02 3 C 3.69 g/m*3 3 C 0 km/h
681 28-01-2010 16:06:02 3 C 3.69 g/m*3 3 C 0 km/h
682 28-01-2010 16:18:02 3 C 3.63 g/m*3 3 C 0 km/h
683 28-01-2010 16:30:02 2.9 C 3.72 g/m*3 2.9 C 0 km/h
684 28-01-2010 16:42:02 2.8 C 3.75 g/m*3 2.8 C 0 km/h
685 28-01-2010 16:54:02 2.7 C 3.79 g/m*3 2.7 C 0 km/h
686 28-01-2010 17:06:02 2.6 C 3.88 g/m*3 2.6 C 0 km/h
687 28-01-2010 17:18:02 2.4 C 3.88 g/m*3 2.4 C 0 km/h
688 28-01-2010 17:30:02 2.4 C 3.94 g/m*3 2.4 C 0 km/h
689 28-01-2010 17:42:02 2.4 C 4 g/m*3 2.4 C 0 km/h
690 28-01-2010 17:54:02 1.8 C 4.17 g/m*3 1.8 C 0 km/h
691 28-01-2010 18:06:02 1.7 C 4.3 g/m*3 1.7 C 0 km/h
692 28-01-2010 18:18:02 1.5 C 4.35 g/m*3 1.5 C 0 km/h
693 28-01-2010 18:30:02 1.1 C 4.34 g/m*3 1.1 C 0 km/h
694 28-01-2010 18:42:02 1.2 C 4.53 g/m*3 1.2 C 0 km/h
695 28-01-2010 18:54:02 1.2 C 4.58 g/m*3 1.2 C 0 km/h
696 28-01-2010 19:06:01 1.2 C 4.58 g/m*3 1.2 C 0 km/h
697 28-01-2010 19:18:02 1.2 C 4.58 g/m*3 1.2 C 0 km/h
698 28-01-2010 19:30:02 1.4 C 4.59 g/m*3 1.4 C 0 km/h
699 28-01-2010 19:42:02 1.5 C 4.51 g/m*3 1.5 C 0 km/h
700 28-01-2010 19:54:01 1.5 C 4.4 g/m*3 1.5 C 0 km/h
Sensor: Nr:Datum:Temp:Abs-Feuchte:Windchill:Wind:
Aussen-T/F 701 28-01-2010 20:06:01 1.7 C 4.36 g/m*3 1.7 C 0 km/h
702 28-01-2010 20:18:01 1.7 C 4.3 g/m*3 1.7 C 0 km/h
703 28-01-2010 20:30:01 1.6 C 4.27 g/m*3 1.6 C 0 km/h
704 28-01-2010 20:42:02 1.6 C 4.22 g/m*3 1.6 C 0 km/h
705 28-01-2010 20:54:02 1.5 C 4.19 g/m*3 1.5 C 0 km/h
706 28-01-2010 21:06:02 1.5 C 4.19 g/m*3 1.5 C 0 km/h
707 28-01-2010 21:18:02 1.7 C 4.25 g/m*3 1.7 C 0 km/h
708 28-01-2010 21:30:02 1.6 C 4.22 g/m*3 1.6 C 0 km/h
709 28-01-2010 21:42:02 1.5 C 4.19 g/m*3 1.5 C 0 km/h
710 28-01-2010 21:54:01 1.6 C 4.22 g/m*3 1.6 C 0 km/h
711 28-01-2010 22:06:01 1.6 C 4.22 g/m*3 1.6 C 0 km/h
712 28-01-2010 22:18:02 1.7 C 4.19 g/m*3 1.7 C 0 km/h
713 28-01-2010 22:30:02 1.7 C 4.19 g/m*3 1.7 C 0 km/h
714 28-01-2010 22:42:02 1.6 C 4.16 g/m*3 1.6 C 0 km/h
715 28-01-2010 22:54:02 1.7 C 4.14 g/m*3 1.7 C 0 km/h
716 28-01-2010 23:06:02 1.6 C 4.11 g/m*3 1.6 C 0 km/h
717 28-01-2010 23:18:02 1.6 C 4.16 g/m*3 1.6 C 0 km/h
718 28-01-2010 23:30:02 1.6 C 4.16 g/m*3 1.6 C 0 km/h
719 28-01-2010 23:42:02 1.6 C 4.16 g/m*3 1.6 C 0 km/h
720 28-01-2010 23:54:02 1.4 C 4.21 g/m*3 1.4 C 0 km/h
721 29-01-2010 00:06:02 1.4 C 4.27 g/m*3 1.4 C 0 km/h
722 29-01-2010 00:18:02 1.4 C 4.27 g/m*3 1.4 C 0 km/h
723 29-01-2010 00:30:02 1.5 C 4.3 g/m*3 1.5 C 0 km/h
724 29-01-2010 00:42:02 1.5 C 4.24 g/m*3 1.5 C 0 km/h
725 29-01-2010 00:54:02 1.5 C 4.3 g/m*3 1.5 C 0 km/h
Sensor: Nr:Datum:Temp:Abs-Feuchte:Windchill:Wind:
Aussen-T/F 726 29-01-2010 01:06:02 1.5 C 4.3 g/m*3 1.5 C 0 km/h
727 29-01-2010 01:18:02 1.4 C 4.32 g/m*3 1.4 C 0 km/h
728 29-01-2010 01:30:02 1.4 C 4.32 g/m*3 1.4 C 0 km/h
729 29-01-2010 01:42:02 1.4 C 4.37 g/m*3 1.4 C 0 km/h
730 29-01-2010 01:54:02 1.3 C 4.34 g/m*3 1.3 C 0 km/h
731 29-01-2010 02:06:02 1.1 C 4.39 g/m*3 1.1 C 0 km/h
732 29-01-2010 02:18:02 1 C 4.41 g/m*3 1 C 0 km/h
733 29-01-2010 02:30:03 1.1 C 4.49 g/m*3 1.1 C 0 km/h
734 29-01-2010 02:42:03 1.1 C 4.49 g/m*3 1.1 C 0 km/h
735 29-01-2010 02:54:03 1.1 C 4.55 g/m*3 1.1 C 0 km/h
736 29-01-2010 03:06:03 1.3 C 4.56 g/m*3 1.3 C 0 km/h
737 29-01-2010 03:18:03 1.3 C 4.56 g/m*3 1.3 C 0 km/h
738 29-01-2010 03:30:03 1.3 C 4.56 g/m*3 1.3 C 0 km/h
739 29-01-2010 03:42:03 1.3 C 4.56 g/m*3 1.3 C 0 km/h
740 29-01-2010 03:54:03 1.3 C 4.56 g/m*3 1.3 C 0 km/h
741 29-01-2010 04:06:03 1.3 C 4.56 g/m*3 1.3 C 0 km/h
742 29-01-2010 04:18:03 1.4 C 4.59 g/m*3 1.4 C 0 km/h
743 29-01-2010 04:30:03 1.3 C 4.56 g/m*3 1.3 C 0 km/h
744 29-01-2010 04:42:03 1.4 C 4.59 g/m*3 1.4 C 0 km/h
745 29-01-2010 04:54:03 1.3 C 4.56 g/m*3 1.3 C 0 km/h
746 29-01-2010 05:06:03 1.2 C 4.58 g/m*3 1.2 C 0 km/h
747 29-01-2010 05:18:03 1 C 4.57 g/m*3 1 C 0 km/h
748 29-01-2010 05:30:03 1 C 4.62 g/m*3 1 C 0 km/h
749 29-01-2010 05:42:03 0.9 C 4.64 g/m*3 0.9 C 0 km/h
750 29-01-2010 05:54:03 0.9 C 4.69 g/m*3 0.9 C 0 km/h
Sensor: Nr:Datum:Temp:Abs-Feuchte:Windchill:Wind:
Aussen-T/F 751 29-01-2010 06:06:03 0.9 C 4.69 g/m*3 0.9 C 0 km/h
752 29-01-2010 06:18:03 0.9 C 4.74 g/m*3 0.9 C 0 km/h
753 29-01-2010 06:30:03 1 C 4.72 g/m*3 1 C 0 km/h
754 29-01-2010 06:42:04 1 C 4.67 g/m*3 1 C 0 km/h
755 29-01-2010 06:54:04 1 C 4.67 g/m*3 1 C 0 km/h
756 29-01-2010 07:06:01 1 C 4.62 g/m*3 1 C 0 km/h
757 29-01-2010 07:18:02 1 C 4.62 g/m*3 1 C 0 km/h
758 29-01-2010 07:30:02 1 C 4.57 g/m*3 1 C 0 km/h
759 29-01-2010 07:42:01 1 C 4.57 g/m*3 1 C 0 km/h
760 29-01-2010 07:54:02 1.2 C 4.58 g/m*3 1.2 C 0 km/h
761 29-01-2010 08:06:01 1.4 C 4.53 g/m*3 1.4 C 0 km/h
762 29-01-2010 08:18:01 1.5 C 4.46 g/m*3 1.5 C 0 km/h
763 29-01-2010 08:30:01 1.6 C 4.43 g/m*3 1.6 C 0 km/h
764 29-01-2010 08:42:01 1.6 C 4.38 g/m*3 1.6 C 0 km/h
765 29-01-2010 08:54:02 1.5 C 4.4 g/m*3 1.5 C 0 km/h
766 29-01-2010 09:06:01 1.5 C 4.4 g/m*3 1.5 C 0 km/h
767 29-01-2010 09:18:01 1.6 C 4.43 g/m*3 1.6 C 0 km/h
768 29-01-2010 09:30:01 1.7 C 4.46 g/m*3 1.7 C 0 km/h
769 29-01-2010 09:42:02 1.8 C 4.44 g/m*3 1.8 C 0 km/h
770 29-01-2010 09:54:01 1.9 C 4.42 g/m*3 1.9 C 0 km/h
771 29-01-2010 10:06:02 2.1 C 4.36 g/m*3 2.1 C 0 km/h
772 29-01-2010 10:18:01 2.1 C 4.36 g/m*3 2.1 C 0 km/h
773 29-01-2010 10:30:01 2.2 C 4.39 g/m*3 2.2 C 0 km/h
774 29-01-2010 10:42:01 2.3 C 4.42 g/m*3 2.3 C 0 km/h
775 29-01-2010 10:54:01 2.4 C 4.4 g/m*3 2.4 C 0 km/h
Sensor: Nr:Datum:Temp:Abs-Feuchte:Windchill:Wind:
Aussen-T/F 776 29-01-2010 11:06:01 2.5 C 4.37 g/m*3 2.5 C 0 km/h
777 29-01-2010 11:18:01 2.5 C 4.37 g/m*3 2.5 C 0 km/h
778 29-01-2010 11:30:01 2.6 C 4.4 g/m*3 2.6 C 0 km/h
779 29-01-2010 11:42:01 2.7 C 4.37 g/m*3 2.7 C 0 km/h
780 29-01-2010 11:54:01 2.7 C 4.31 g/m*3 2.7 C 0 km/h
781 29-01-2010 12:06:01 2.8 C 4.34 g/m*3 2.8 C 0 km/h
782 29-01-2010 12:18:02 2.8 C 4.34 g/m*3 2.8 C 0 km/h
783 29-01-2010 12:30:02 2.8 C 4.34 g/m*3 2.8 C 0 km/h
784 29-01-2010 12:42:01 2.8 C 4.34 g/m*3 2.8 C 0 km/h
785 29-01-2010 12:54:02 2.8 C 4.4 g/m*3 2.8 C 0 km/h
786 29-01-2010 13:06:01 2.7 C 4.37 g/m*3 2.7 C 0 km/h
787 29-01-2010 13:18:02 2.7 C 4.43 g/m*3 2.7 C 0 km/h
788 29-01-2010 13:30:02 2.7 C 4.43 g/m*3 2.7 C 0 km/h
789 29-01-2010 13:42:01 2.7 C 4.43 g/m*3 2.7 C 0 km/h
790 29-01-2010 13:54:02 2.5 C 4.43 g/m*3 2.5 C 0 km/h
791 29-01-2010 14:06:01 2.4 C 4.51 g/m*3 2.4 C 0 km/h
792 29-01-2010 14:18:01 2.2 C 4.56 g/m*3 2.2 C 0 km/h
793 29-01-2010 14:30:01 2.2 C 4.56 g/m*3 2.2 C 0 km/h
794 29-01-2010 14:42:02 2.2 C 4.56 g/m*3 2.2 C 0 km/h
795 29-01-2010 14:54:01 2.2 C 4.51 g/m*3 2.2 C 0 km/h
796 29-01-2010 15:06:01 2.1 C 4.53 g/m*3 2.1 C 0 km/h
797 29-01-2010 15:18:01 2.1 C 4.53 g/m*3 2.1 C 0 km/h
798 29-01-2010 15:30:01 2 C 4.56 g/m*3 2 C 0 km/h
799 29-01-2010 15:42:02 2 C 4.56 g/m*3 2 C 0 km/h
800 29-01-2010 15:54:01 2.1 C 4.53 g/m*3 2.1 C 0 km/h
Sensor: Nr:Datum:Temp:Abs-Feuchte:Windchill:Wind:
Aussen-T/F 801 29-01-2010 16:06:01 2.1 C 4.53 g/m*3 2.1 C 0 km/h
802 29-01-2010 16:18:01 2 C 4.5 g/m*3 2 C 0 km/h
803 29-01-2010 16:30:01 1.8 C 4.55 g/m*3 1.8 C 0 km/h
804 29-01-2010 16:42:02 1.6 C 4.54 g/m*3 1.6 C 0 km/h
805 29-01-2010 16:54:01 1.6 C 4.65 g/m*3 1.6 C 0 km/h
806 29-01-2010 17:06:02 1.5 C 4.67 g/m*3 1.5 C 0 km/h
807 29-01-2010 17:18:01 1.4 C 4.69 g/m*3 1.4 C 0 km/h
808 29-01-2010 17:30:01 1.3 C 4.72 g/m*3 1.3 C 0 km/h
809 29-01-2010 17:42:02 1.3 C 4.72 g/m*3 1.3 C 0 km/h
810 29-01-2010 17:54:02 1.2 C 4.74 g/m*3 1.2 C 0 km/h
811 29-01-2010 18:06:01 1 C 4.67 g/m*3 1 C 0 km/h
812 29-01-2010 18:18:01 0.9 C 4.69 g/m*3 0.9 C 0 km/h
813 29-01-2010 18:30:01 0.8 C 4.71 g/m*3 0.8 C 0 km/h
814 29-01-2010 18:42:01 0.8 C 4.71 g/m*3 0.8 C 0 km/h
815 29-01-2010 18:54:01 0.7 C 4.73 g/m*3 0.7 C 0 km/h
816 29-01-2010 19:06:01 0.7 C 4.78 g/m*3 0.7 C 0 km/h
817 29-01-2010 19:18:01 0.8 C 4.81 g/m*3 0.8 C 0 km/h
818 29-01-2010 19:30:01 0.8 C 4.81 g/m*3 0.8 C 0 km/h
819 29-01-2010 19:42:02 0.8 C 4.81 g/m*3 0.8 C 0 km/h
820 29-01-2010 19:54:01 0.8 C 4.81 g/m*3 0.8 C 0 km/h
821 29-01-2010 20:06:02 0.8 C 4.81 g/m*3 0.8 C 0 km/h
822 29-01-2010 20:18:01 0.8 C 4.76 g/m*3 0.8 C 0 km/h
823 29-01-2010 20:30:01 0.7 C 4.73 g/m*3 0.7 C 0 km/h
824 29-01-2010 20:42:01 0.7 C 4.68 g/m*3 0.7 C 0 km/h
825 29-01-2010 20:54:01 0.7 C 4.68 g/m*3 0.7 C 0 km/h
Sensor: Nr:Datum:Temp:Abs-Feuchte:Windchill:Wind:
Aussen-T/F 826 29-01-2010 21:06:01 0.6 C 4.6 g/m*3 0.6 C 0 km/h
827 29-01-2010 21:18:01 0.5 C 4.51 g/m*3 0.5 C 0 km/h
828 29-01-2010 21:30:01 0.4 C 4.48 g/m*3 0.4 C 0 km/h
829 29-01-2010 21:42:01 0.5 C 4.56 g/m*3 0.5 C 0 km/h
830 29-01-2010 21:54:01 0.4 C 4.48 g/m*3 0.4 C 0 km/h
831 29-01-2010 22:06:01 0.3 C 4.35 g/m*3 0.3 C 0 km/h
832 29-01-2010 22:18:01 0.1 C 4.2 g/m*3 0.1 C 0 km/h
833 29-01-2010 22:30:01 0 C 4.12 g/m*3 0 C 0 km/h
834 29-01-2010 22:42:01 0.1 C 4.1 g/m*3 0.1 C 0 km/h
835 29-01-2010 22:54:01 0.2 C 4.13 g/m*3 0.2 C 0 km/h
836 29-01-2010 23:06:01 0.3 C 4.16 g/m*3 0.3 C 0 km/h
837 29-01-2010 23:20:12 0 C 4.12 g/m*3 0 C 0 km/h
838 29-01-2010 23:32:12 -0.1 C 4.09 g/m*3 -0.1 C 0 km/h
839 29-01-2010 23:44:12 -0.5 C 3.98 g/m*3 -0.5 C 0 km/h
840 29-01-2010 23:56:12 -0.4 C 4.01 g/m*3 -0.4 C 0 km/h
841 30-01-2010 00:08:12 -0.5 C 3.93 g/m*3 -0.5 C 0 km/h
842 30-01-2010 00:20:12 -0.3 C 3.94 g/m*3 -0.3 C 0 km/h
843 30-01-2010 00:32:12 -0.3 C 3.84 g/m*3 -0.3 C 0 km/h
844 30-01-2010 00:44:12 -0.1 C 3.8 g/m*3 -0.1 C 0 km/h
845 30-01-2010 00:56:12 0.1 C 3.81 g/m*3 0.1 C 0 km/h
846 30-01-2010 01:08:12 -0.1 C 3.8 g/m*3 -0.1 C 0 km/h
847 30-01-2010 01:20:12 -0.1 C 3.8 g/m*3 -0.1 C 0 km/h
848 30-01-2010 01:32:12 -0.1 C 3.8 g/m*3 -0.1 C 0 km/h
849 30-01-2010 01:44:12 -0.4 C 3.77 g/m*3 -0.4 C 0 km/h
850 30-01-2010 01:56:12 -0.4 C 3.82 g/m*3 -0.4 C 0 km/h
Sensor: Nr:Datum:Temp:Abs-Feuchte:Windchill:Wind:
Aussen-T/F 851 30-01-2010 02:08:12 -0.6 C 3.81 g/m*3 -0.6 C 0 km/h
852 30-01-2010 02:20:12 -0.9 C 3.78 g/m*3 -0.9 C 0 km/h
853 30-01-2010 02:32:12 -0.9 C 3.82 g/m*3 -0.9 C 0 km/h
854 30-01-2010 02:44:12 -0.9 C 3.82 g/m*3 -0.9 C 0 km/h
855 30-01-2010 02:56:12 -1 C 3.8 g/m*3 -1 C 0 km/h
856 30-01-2010 03:08:12 -0.8 C 3.85 g/m*3 -0.8 C 0 km/h
857 30-01-2010 03:20:12 -0.9 C 3.78 g/m*3 -0.9 C 0 km/h
858 30-01-2010 03:32:12 -1.3 C 3.67 g/m*3 -1.3 C 0 km/h
859 30-01-2010 03:44:13 -1.5 C 3.62 g/m*3 -1.5 C 0 km/h
860 30-01-2010 03:56:13 -1.5 C 3.67 g/m*3 -1.5 C 0 km/h
861 30-01-2010 04:08:13 -1.3 C 3.67 g/m*3 -1.3 C 0 km/h
862 30-01-2010 04:20:13 -1.5 C 3.54 g/m*3 -1.5 C 0 km/h
863 30-01-2010 04:32:13 -1.5 C 3.49 g/m*3 -1.5 C 0 km/h
864 30-01-2010 04:44:13 -1.4 C 3.52 g/m*3 -1.4 C 0 km/h
865 30-01-2010 04:56:13 -1.4 C 3.47 g/m*3 -1.4 C 0 km/h
866 30-01-2010 05:08:13 -1.4 C 3.47 g/m*3 -1.4 C 0 km/h
867 30-01-2010 05:20:13 -1.2 C 3.52 g/m*3 -1.2 C 0 km/h
868 30-01-2010 05:32:13 -0.9 C 3.51 g/m*3 -0.9 C 0 km/h
869 30-01-2010 05:44:13 -0.9 C 3.46 g/m*3 -0.9 C 0 km/h
870 30-01-2010 05:56:13 -0.5 C 3.46 g/m*3 -0.5 C 0 km/h
871 30-01-2010 06:08:13 -0.4 C 3.44 g/m*3 -0.4 C 0 km/h
872 30-01-2010 06:20:13 -0.3 C 3.42 g/m*3 -0.3 C 0 km/h
873 30-01-2010 06:32:13 -0.1 C 3.51 g/m*3 -0.1 C 0 km/h
874 30-01-2010 06:44:13 -0.1 C 3.51 g/m*3 -0.1 C 0 km/h
875 30-01-2010 06:56:13 0.1 C 3.42 g/m*3 0.1 C 0 km/h
Sensor: Nr:Datum:Temp:Abs-Feuchte:Windchill:Wind:
Aussen-T/F 876 30-01-2010 07:08:13 -0.1 C 3.42 g/m*3 -0.1 C 0 km/h
877 30-01-2010 07:20:13 -0.1 C 3.42 g/m*3 -0.1 C 0 km/h
878 30-01-2010 07:32:13 -0.1 C 3.42 g/m*3 -0.1 C 0 km/h
879 30-01-2010 07:44:13 -0.2 C 3.44 g/m*3 -0.2 C 0 km/h
880 30-01-2010 07:56:02 -0.2 C 3.49 g/m*3 -0.2 C 0 km/h
881 30-01-2010 08:08:02 -0.2 C 3.49 g/m*3 -0.2 C 0 km/h
882 30-01-2010 08:20:02 -0.1 C 3.51 g/m*3 -0.1 C 0 km/h
883 30-01-2010 08:32:02 -0.2 C 3.68 g/m*3 -0.2 C 0 km/h
884 30-01-2010 08:44:02 -0.3 C 3.7 g/m*3 -0.3 C 0 km/h
885 30-01-2010 08:56:03 -0.4 C 3.72 g/m*3 -0.4 C 0 km/h
886 30-01-2010 09:08:02 -0.4 C 3.77 g/m*3 -0.4 C 0 km/h
887 30-01-2010 09:20:02 -0.4 C 3.72 g/m*3 -0.4 C 0 km/h
888 30-01-2010 09:32:03 -0.3 C 3.7 g/m*3 -0.3 C 0 km/h
889 30-01-2010 09:44:03 0 C 3.68 g/m*3 0 C 0 km/h
890 30-01-2010 09:56:02 0.1 C 3.61 g/m*3 0.1 C 0 km/h
891 30-01-2010 10:08:02 0 C 3.59 g/m*3 0 C 0 km/h
892 30-01-2010 10:20:02 0 C 3.63 g/m*3 0 C 0 km/h
893 30-01-2010 10:32:02 -0.1 C 3.61 g/m*3 -0.1 C 0 km/h
894 30-01-2010 10:44:02 -0.1 C 3.75 g/m*3 -0.1 C 0 km/h
895 30-01-2010 10:56:02 -0.1 C 3.9 g/m*3 -0.1 C 0 km/h
896 30-01-2010 11:08:02 -0.4 C 3.91 g/m*3 -0.4 C 0 km/h
897 30-01-2010 11:20:02 -0.5 C 3.93 g/m*3 -0.5 C 0 km/h
898 30-01-2010 11:32:02 -0.3 C 4.03 g/m*3 -0.3 C 0 km/h
899 30-01-2010 11:44:02 0 C 4.02 g/m*3 0 C 0 km/h
900 30-01-2010 11:56:01 0.4 C 3.98 g/m*3 0.4 C 0 km/h
Sensor: Nr:Datum:Temp:Abs-Feuchte:Windchill:Wind:
Aussen-T/F 901 30-01-2010 12:08:02 0.2 C 3.88 g/m*3 0.2 C 0 km/h
902 30-01-2010 12:20:02 -0.2 C 3.92 g/m*3 -0.2 C 0 km/h
903 30-01-2010 12:32:01 -0.4 C 4.01 g/m*3 -0.4 C 0 km/h
904 30-01-2010 12:44:01 -0.3 C 4.08 g/m*3 -0.3 C 0 km/h
905 30-01-2010 12:56:01 -0.2 C 4.01 g/m*3 -0.2 C 0 km/h
906 30-01-2010 13:08:01 0 C 3.88 g/m*3 0 C 0 km/h
907 30-01-2010 13:20:02 0 C 3.63 g/m*3 0 C 0 km/h
908 30-01-2010 13:32:01 -0.2 C 3.49 g/m*3 -0.2 C 0 km/h
909 30-01-2010 13:44:01 0.3 C 3.56 g/m*3 0.3 C 0 km/h
910 30-01-2010 13:56:02 0.5 C 3.46 g/m*3 0.5 C 0 km/h
911 30-01-2010 14:08:01 0.6 C 3.48 g/m*3 0.6 C 0 km/h
912 30-01-2010 14:20:02 0.5 C 3.41 g/m*3 0.5 C 0 km/h
913 30-01-2010 14:32:01 0.4 C 3.44 g/m*3 0.4 C 0 km/h
914 30-01-2010 14:44:01 0.3 C 3.51 g/m*3 0.3 C 0 km/h
915 30-01-2010 14:56:03 -1.1 C 3.41 g/m*3 -1.1 C 0 km/h
916 30-01-2010 15:08:02 -1.3 C 3.5 g/m*3 -1.3 C 0 km/h
917 30-01-2010 15:20:02 -1.1 C 3.59 g/m*3 -1.1 C 0 km/h
918 30-01-2010 15:32:02 -0.9 C 3.6 g/m*3 -0.9 C 0 km/h
919 30-01-2010 15:44:02 -0.7 C 3.6 g/m*3 -0.7 C 0 km/h
920 30-01-2010 15:56:02 -0.9 C 3.41 g/m*3 -0.9 C 0 km/h
921 30-01-2010 16:08:02 -1.3 C 3.19 g/m*3 -1.3 C 0 km/h
922 30-01-2010 16:20:02 -1.4 C 3.21 g/m*3 -1.4 C 0 km/h
923 30-01-2010 16:32:01 -1.6 C 3.21 g/m*3 -1.6 C 0 km/h
924 30-01-2010 16:44:01 -1.5 C 3.27 g/m*3 -1.5 C 0 km/h
925 30-01-2010 16:56:02 -1.5 C 3.32 g/m*3 -1.5 C 0 km/h
Sensor: Nr:Datum:Temp:Abs-Feuchte:Windchill:Wind:
Aussen-T/F 926 30-01-2010 17:08:01 -1.6 C 3.34 g/m*3 -1.6 C 0 km/h
927 30-01-2010 17:20:02 -1.7 C 3.36 g/m*3 -1.7 C 0 km/h
928 30-01-2010 17:32:02 -2 C 3.29 g/m*3 -2 C 0 km/h
929 30-01-2010 17:44:02 -2.4 C 3.16 g/m*3 -2.4 C 0 km/h
930 30-01-2010 17:56:02 -2.6 C 3.15 g/m*3 -2.6 C 0 km/h
931 30-01-2010 18:08:02 -2.4 C 3.24 g/m*3 -2.4 C 0 km/h
932 30-01-2010 18:20:02 -2.4 C 3.24 g/m*3 -2.4 C 0 km/h
933 30-01-2010 18:32:03 -2.3 C 3.26 g/m*3 -2.3 C 0 km/h
934 30-01-2010 18:44:03 -2.4 C 3.2 g/m*3 -2.4 C 0 km/h
935 30-01-2010 18:56:02 -2.6 C 3.11 g/m*3 -2.6 C 0 km/h
936 30-01-2010 19:08:01 -2.9 C 3.05 g/m*3 -2.9 C 0 km/h
937 30-01-2010 19:20:02 -3.1 C 3 g/m*3 -3.1 C 0 km/h
938 30-01-2010 19:32:02 -3.3 C 2.96 g/m*3 -3.3 C 0 km/h
939 30-01-2010 19:44:02 -3.5 C 2.92 g/m*3 -3.5 C 0 km/h
940 30-01-2010 19:56:01 -3.7 C 2.92 g/m*3 -3.7 C 0 km/h
941 30-01-2010 20:08:02 -4 C 2.85 g/m*3 -4 C 0 km/h
942 30-01-2010 20:20:01 -4.2 C 2.81 g/m*3 -4.2 C 0 km/h
943 30-01-2010 20:32:02 -4.5 C 2.75 g/m*3 -4.5 C 0 km/h
944 30-01-2010 20:44:02 -4.9 C 2.68 g/m*3 -4.9 C 0 km/h
945 30-01-2010 20:56:02 -4.7 C 2.75 g/m*3 -4.7 C 0 km/h
946 30-01-2010 21:08:02 -4.3 C 2.86 g/m*3 -4.3 C 0 km/h
947 30-01-2010 21:20:02 -4.1 C 2.91 g/m*3 -4.1 C 0 km/h
948 30-01-2010 21:32:02 -4.2 C 2.89 g/m*3 -4.2 C 0 km/h
949 30-01-2010 21:44:02 -4.6 C 2.77 g/m*3 -4.6 C 0 km/h
950 30-01-2010 21:56:02 -5.1 C 2.64 g/m*3 -5.1 C 0 km/h
Sensor: Nr:Datum:Temp:Abs-Feuchte:Windchill:Wind:
Aussen-T/F 951 30-01-2010 22:08:02 -5.6 C 2.54 g/m*3 -5.6 C 0 km/h
952 30-01-2010 22:21:03 -5.9 C 2.49 g/m*3 -5.9 C 0 km/h
953 30-01-2010 22:33:04 -5.7 C 2.56 g/m*3 -5.7 C 0 km/h
954 30-01-2010 22:45:04 -6 C 2.5 g/m*3 -6 C 0 km/h
955 30-01-2010 22:57:04 -6.1 C 2.48 g/m*3 -6.1 C 0 km/h
956 30-01-2010 23:09:04 -6.3 C 2.45 g/m*3 -6.3 C 0 km/h
957 30-01-2010 23:21:04 -6.2 C 2.47 g/m*3 -6.2 C 0 km/h
958 30-01-2010 23:33:04 -6.4 C 2.43 g/m*3 -6.4 C 0 km/h
959 30-01-2010 23:45:04 -6.4 C 2.43 g/m*3 -6.4 C 0 km/h
960 30-01-2010 23:57:04 -6.3 C 2.48 g/m*3 -6.3 C 0 km/h
961 31-01-2010 00:09:04 -6.2 C 2.5 g/m*3 -6.2 C 0 km/h
962 31-01-2010 00:21:04 -6.1 C 2.52 g/m*3 -6.1 C 0 km/h
963 31-01-2010 00:33:04 -6 C 2.53 g/m*3 -6 C 0 km/h
964 31-01-2010 00:45:04 -6 C 2.5 g/m*3 -6 C 0 km/h
965 31-01-2010 00:57:04 -5.6 C 2.58 g/m*3 -5.6 C 0 km/h
966 31-01-2010 01:09:04 -5.1 C 2.67 g/m*3 -5.1 C 0 km/h
967 31-01-2010 01:21:04 -5 C 2.69 g/m*3 -5 C 0 km/h
968 31-01-2010 01:33:04 -4.7 C 2.71 g/m*3 -4.7 C 0 km/h
969 31-01-2010 01:45:04 -4.6 C 2.73 g/m*3 -4.6 C 0 km/h
970 31-01-2010 01:57:04 -4.6 C 2.8 g/m*3 -4.6 C 0 km/h
971 31-01-2010 02:09:04 -4.4 C 2.88 g/m*3 -4.4 C 0 km/h
972 31-01-2010 02:21:04 -4.3 C 2.94 g/m*3 -4.3 C 0 km/h
973 31-01-2010 02:33:04 -4.2 C 2.96 g/m*3 -4.2 C 0 km/h
974 31-01-2010 02:45:04 -4.2 C 2.99 g/m*3 -4.2 C 0 km/h
975 31-01-2010 02:57:05 -4.2 C 3.03 g/m*3 -4.2 C 0 km/h
Sensor: Nr:Datum:Temp:Abs-Feuchte:Windchill:Wind:
Aussen-T/F 976 31-01-2010 03:09:05 -4 C 3.07 g/m*3 -4 C 0 km/h
977 31-01-2010 03:21:05 -3.9 C 3.06 g/m*3 -3.9 C 0 km/h
978 31-01-2010 03:33:05 -3.7 C 3.1 g/m*3 -3.7 C 0 km/h
979 31-01-2010 03:45:05 -3.5 C 3.11 g/m*3 -3.5 C 0 km/h
980 31-01-2010 03:57:05 -3.5 C 3.15 g/m*3 -3.5 C 0 km/h
981 31-01-2010 04:09:05 -3.4 C 3.17 g/m*3 -3.4 C 0 km/h
982 31-01-2010 04:21:05 -3.4 C 3.17 g/m*3 -3.4 C 0 km/h
983 31-01-2010 04:33:05 -3.3 C 3.19 g/m*3 -3.3 C 0 km/h
984 31-01-2010 04:45:05 -3.2 C 3.18 g/m*3 -3.2 C 0 km/h
985 31-01-2010 04:57:05 -3.2 C 3.18 g/m*3 -3.2 C 0 km/h
986 31-01-2010 05:09:05 -3.2 C 3.21 g/m*3 -3.2 C 0 km/h
987 31-01-2010 05:21:05 -3.1 C 3.24 g/m*3 -3.1 C 0 km/h
988 31-01-2010 05:33:05 -2.9 C 3.24 g/m*3 -2.9 C 0 km/h
989 31-01-2010 05:45:05 -2.9 C 3.24 g/m*3 -2.9 C 0 km/h
990 31-01-2010 05:57:05 -2.9 C 3.24 g/m*3 -2.9 C 0 km/h
991 31-01-2010 06:09:05 -2.8 C 3.27 g/m*3 -2.8 C 0 km/h
992 31-01-2010 06:21:05 -2.8 C 3.27 g/m*3 -2.8 C 0 km/h
993 31-01-2010 06:33:05 -2.8 C 3.27 g/m*3 -2.8 C 0 km/h
994 31-01-2010 06:45:05 -2.8 C 3.27 g/m*3 -2.8 C 0 km/h
995 31-01-2010 06:57:05 -2.7 C 3.29 g/m*3 -2.7 C 0 km/h
996 31-01-2010 07:09:05 -2.6 C 3.31 g/m*3 -2.6 C 0 km/h
997 31-01-2010 07:21:05 -2.6 C 3.31 g/m*3 -2.6 C 0 km/h
998 31-01-2010 07:33:06 -2.6 C 3.31 g/m*3 -2.6 C 0 km/h
999 31-01-2010 07:45:06 -2.5 C 3.3 g/m*3 -2.5 C 0 km/h
1000 31-01-2010 07:57:06 -2.5 C 3.3 g/m*3 -2.5 C 0 km/h
Sensor: Nr:Datum:Temp:Abs-Feuchte:Windchill:Wind:
Aussen-T/F 1001 31-01-2010 08:09:06 -2.4 C 3.36 g/m*3 -2.4 C 0 km/h
1002 31-01-2010 08:21:06 -2.4 C 3.4 g/m*3 -2.4 C 0 km/h
1003 31-01-2010 08:33:03 -2.4 C 3.36 g/m*3 -2.4 C 0 km/h
1004 31-01-2010 08:45:02 -2.4 C 3.36 g/m*3 -2.4 C 0 km/h
1005 31-01-2010 08:57:02 -2.4 C 3.36 g/m*3 -2.4 C 0 km/h
1006 31-01-2010 09:09:02 -2.1 C 3.43 g/m*3 -2.1 C 0 km/h
1007 31-01-2010 09:21:02 -2 C 3.41 g/m*3 -2 C 0 km/h
1008 31-01-2010 09:33:01 -2.2 C 3.33 g/m*3 -2.2 C 0 km/h
1009 31-01-2010 09:45:02 -2 C 3.33 g/m*3 -2 C 0 km/h
1010 31-01-2010 09:57:02 -1.8 C 3.33 g/m*3 -1.8 C 0 km/h
1011 31-01-2010 10:09:01 -1.6 C 3.38 g/m*3 -1.6 C 0 km/h
1012 31-01-2010 10:21:02 -1.7 C 3.31 g/m*3 -1.7 C 0 km/h
1013 31-01-2010 10:33:01 -1.7 C 3.27 g/m*3 -1.7 C 0 km/h
1014 31-01-2010 10:45:02 -1.7 C 3.27 g/m*3 -1.7 C 0 km/h
1015 31-01-2010 10:57:02 -1.6 C 3.29 g/m*3 -1.6 C 0 km/h
1016 31-01-2010 11:09:02 -1.4 C 3.34 g/m*3 -1.4 C 0 km/h
1017 31-01-2010 11:21:02 -1.1 C 3.41 g/m*3 -1.1 C 0 km/h
1018 31-01-2010 11:33:03 -0.7 C 3.42 g/m*3 -0.7 C 0 km/h
1019 31-01-2010 11:45:02 -0.6 C 3.39 g/m*3 -0.6 C 0 km/h
1020 31-01-2010 11:57:03 -0.4 C 3.44 g/m*3 -0.4 C 0 km/h
1021 31-01-2010 12:09:01 -0.2 C 3.44 g/m*3 -0.2 C 0 km/h
1022 31-01-2010 12:21:02 0.2 C 3.54 g/m*3 0.2 C 0 km/h
1023 31-01-2010 12:33:02 0.7 C 3.61 g/m*3 0.7 C 0 km/h
1024 31-01-2010 12:45:02 1.1 C 3.5 g/m*3 1.1 C 0 km/h
1025 31-01-2010 12:57:02 1.3 C 3.5 g/m*3 1.3 C 0 km/h
Sensor: Nr:Datum:Temp:Abs-Feuchte:Windchill:Wind:
Aussen-T/F 1026 31-01-2010 13:09:03 1.6 C 3.46 g/m*3 1.6 C 0 km/h
1027 31-01-2010 13:21:02 1.7 C 3.38 g/m*3 1.7 C 0 km/h
1028 31-01-2010 13:33:03 2 C 3.28 g/m*3 2 C 0 km/h
1029 31-01-2010 13:45:02 2 C 3.22 g/m*3 2 C 0 km/h
1030 31-01-2010 13:57:02 2.2 C 3.15 g/m*3 2.2 C 0 km/h
1031 31-01-2010 14:09:02 2.1 C 3.08 g/m*3 2.1 C 0 km/h
1032 31-01-2010 14:21:01 2.2 C 3.15 g/m*3 2.2 C 0 km/h
1033 31-01-2010 14:33:02 2.4 C 3.14 g/m*3 2.4 C 0 km/h
1034 31-01-2010 14:45:02 2.2 C 2.99 g/m*3 2.2 C 0 km/h
1035 31-01-2010 14:57:02 2.2 C 2.93 g/m*3 2.2 C 0 km/h
1036 31-01-2010 15:09:02 1.7 C 2.94 g/m*3 1.7 C 0 km/h
1037 31-01-2010 15:21:02 1.3 C 2.97 g/m*3 1.3 C 0 km/h
1038 31-01-2010 15:33:02 1.1 C 2.93 g/m*3 1.1 C 0 km/h
1039 31-01-2010 15:45:02 1.1 C 3.03 g/m*3 1.1 C 0 km/h
1040 31-01-2010 15:57:02 1.3 C 3.13 g/m*3 1.3 C 0 km/h
1041 31-01-2010 16:09:02 1.2 C 3.1 g/m*3 1.2 C 0 km/h
1042 31-01-2010 16:21:02 0.8 C 3.12 g/m*3 0.8 C 0 km/h
1043 31-01-2010 16:33:02 0.7 C 3.1 g/m*3 0.7 C 0 km/h
1044 31-01-2010 16:45:02 0.7 C 3.15 g/m*3 0.7 C 0 km/h
1045 31-01-2010 16:57:02 0.5 C 3.11 g/m*3 0.5 C 0 km/h
1046 31-01-2010 17:09:03 0.3 C 3.07 g/m*3 0.3 C 0 km/h
1047 31-01-2010 17:21:02 0 C 3.15 g/m*3 0 C 0 km/h
1048 31-01-2010 17:33:02 -0.4 C 3.11 g/m*3 -0.4 C 0 km/h
1049 31-01-2010 17:45:01 -0.6 C 3.11 g/m*3 -0.6 C 0 km/h
1050 31-01-2010 17:57:01 -1 C 3.07 g/m*3 -1 C 0 km/h
Sensor: Nr:Datum:Temp:Abs-Feuchte:Windchill:Wind:
Aussen-T/F 1051 31-01-2010 18:09:02 -1.1 C 3.14 g/m*3 -1.1 C 0 km/h
1052 31-01-2010 18:21:01 -1.3 C 3.1 g/m*3 -1.3 C 0 km/h
1053 31-01-2010 18:33:01 -1.5 C 3.1 g/m*3 -1.5 C 0 km/h
1054 31-01-2010 18:45:01 -1.7 C 3.1 g/m*3 -1.7 C 0 km/h
1055 31-01-2010 18:57:01 -1.8 C 3.16 g/m*3 -1.8 C 0 km/h
1056 31-01-2010 19:09:02 -1.8 C 3.16 g/m*3 -1.8 C 0 km/h
1057 31-01-2010 19:21:01 -1.8 C 3.12 g/m*3 -1.8 C 0 km/h
1058 31-01-2010 19:33:02 -1.9 C 3.1 g/m*3 -1.9 C 0 km/h
1059 31-01-2010 19:45:01 -1.8 C 3.12 g/m*3 -1.8 C 0 km/h
1060 31-01-2010 19:57:01 -2.1 C 3.06 g/m*3 -2.1 C 0 km/h
1061 31-01-2010 20:09:02 -2.1 C 3.14 g/m*3 -2.1 C 0 km/h
1062 31-01-2010 20:21:01 -1.9 C 3.18 g/m*3 -1.9 C 0 km/h
1063 31-01-2010 20:33:02 -2 C 3.16 g/m*3 -2 C 0 km/h
1064 31-01-2010 20:45:01 -2 C 3.2 g/m*3 -2 C 0 km/h
1065 31-01-2010 20:57:01 -2 C 3.2 g/m*3 -2 C 0 km/h
1066 31-01-2010 21:09:02 -1.8 C 3.25 g/m*3 -1.8 C 0 km/h
1067 31-01-2010 21:21:01 -1.6 C 3.29 g/m*3 -1.6 C 0 km/h
1068 31-01-2010 21:33:02 -1.5 C 3.32 g/m*3 -1.5 C 0 km/h
1069 31-01-2010 21:45:01 -1.3 C 3.32 g/m*3 -1.3 C 0 km/h
1070 31-01-2010 21:57:01 -1.1 C 3.37 g/m*3 -1.1 C 0 km/h
1071 31-01-2010 22:09:02 -0.8 C 3.39 g/m*3 -0.8 C 0 km/h
1072 31-01-2010 22:21:02 -0.6 C 3.39 g/m*3 -0.6 C 0 km/h
1073 31-01-2010 22:33:01 -0.6 C 3.35 g/m*3 -0.6 C 0 km/h
1074 31-01-2010 22:46:02 -0.7 C 3.32 g/m*3 -0.7 C 0 km/h
1075 31-01-2010 22:58:02 -0.7 C 3.37 g/m*3 -0.7 C 0 km/h
Sensor: Nr:Datum:Temp:Abs-Feuchte:Windchill:Wind:
Aussen-T/F 1076 31-01-2010 23:10:02 -0.6 C 3.39 g/m*3 -0.6 C 0 km/h
1077 31-01-2010 23:22:02 -0.5 C 3.37 g/m*3 -0.5 C 0 km/h
1078 31-01-2010 23:34:02 -0.6 C 3.35 g/m*3 -0.6 C 0 km/h
1079 31-01-2010 23:46:02 -0.7 C 3.37 g/m*3 -0.7 C 0 km/h
1080 31-01-2010 23:58:02 -0.7 C 3.42 g/m*3 -0.7 C 0 km/h
1081 01-02-2010 00:10:02 -0.8 C 3.39 g/m*3 -0.8 C 0 km/h
1082 01-02-2010 00:22:02 -1 C 3.35 g/m*3 -1 C 0 km/h
1083 01-02-2010 00:34:02 -1.1 C 3.32 g/m*3 -1.1 C 0 km/h
1084 01-02-2010 00:46:02 -0.7 C 3.42 g/m*3 -0.7 C 0 km/h
1085 01-02-2010 00:58:03 -0.7 C 3.37 g/m*3 -0.7 C 0 km/h
1086 01-02-2010 01:10:03 -0.6 C 3.35 g/m*3 -0.6 C 0 km/h
1087 01-02-2010 01:22:03 -0.5 C 3.37 g/m*3 -0.5 C 0 km/h
1088 01-02-2010 01:34:03 -0.5 C 3.37 g/m*3 -0.5 C 0 km/h
1089 01-02-2010 01:46:03 -0.4 C 3.35 g/m*3 -0.4 C 0 km/h
1090 01-02-2010 01:58:03 -0.4 C 3.35 g/m*3 -0.4 C 0 km/h
1091 01-02-2010 02:10:03 -0.6 C 3.25 g/m*3 -0.6 C 0 km/h
1092 01-02-2010 02:22:03 -0.8 C 3.25 g/m*3 -0.8 C 0 km/h
1093 01-02-2010 02:34:03 -0.8 C 3.25 g/m*3 -0.8 C 0 km/h
1094 01-02-2010 02:46:03 -0.8 C 3.25 g/m*3 -0.8 C 0 km/h
1095 01-02-2010 02:58:03 -0.8 C 3.25 g/m*3 -0.8 C 0 km/h
1096 01-02-2010 03:10:03 -0.7 C 3.28 g/m*3 -0.7 C 0 km/h
1097 01-02-2010 03:22:03 -0.8 C 3.25 g/m*3 -0.8 C 0 km/h
1098 01-02-2010 03:34:03 -0.8 C 3.25 g/m*3 -0.8 C 0 km/h
1099 01-02-2010 03:46:03 -0.7 C 3.32 g/m*3 -0.7 C 0 km/h
1100 01-02-2010 03:58:03 -0.8 C 3.25 g/m*3 -0.8 C 0 km/h
Sensor: Nr:Datum:Temp:Abs-Feuchte:Windchill:Wind:
Aussen-T/F 1101 01-02-2010 04:10:03 -0.8 C 3.25 g/m*3 -0.8 C 0 km/h
1102 01-02-2010 04:22:03 -0.9 C 3.28 g/m*3 -0.9 C 0 km/h
1103 01-02-2010 04:34:03 -1 C 3.25 g/m*3 -1 C 0 km/h
1104 01-02-2010 04:46:03 -0.8 C 3.3 g/m*3 -0.8 C 0 km/h
1105 01-02-2010 04:58:03 -0.7 C 3.28 g/m*3 -0.7 C 0 km/h
1106 01-02-2010 05:10:03 -0.7 C 3.28 g/m*3 -0.7 C 0 km/h
1107 01-02-2010 05:22:04 -0.6 C 3.3 g/m*3 -0.6 C 0 km/h
1108 01-02-2010 05:34:04 -0.5 C 3.32 g/m*3 -0.5 C 0 km/h
1109 01-02-2010 05:46:04 -0.4 C 3.35 g/m*3 -0.4 C 0 km/h
1110 01-02-2010 05:58:04 -0.4 C 3.35 g/m*3 -0.4 C 0 km/h
1111 01-02-2010 06:10:04 -0.4 C 3.35 g/m*3 -0.4 C 0 km/h
1112 01-02-2010 06:22:04 -0.4 C 3.35 g/m*3 -0.4 C 0 km/h
1113 01-02-2010 06:34:04 -0.3 C 3.37 g/m*3 -0.3 C 0 km/h
1114 01-02-2010 06:46:04 -0.3 C 3.37 g/m*3 -0.3 C 0 km/h
1115 01-02-2010 06:58:04 -0.4 C 3.35 g/m*3 -0.4 C 0 km/h
1116 01-02-2010 07:10:02 -0.5 C 3.37 g/m*3 -0.5 C 0 km/h
1117 01-02-2010 07:22:03 -0.7 C 3.32 g/m*3 -0.7 C 0 km/h
1118 01-02-2010 07:34:02 -0.7 C 3.37 g/m*3 -0.7 C 0 km/h
1119 01-02-2010 07:46:02 -0.6 C 3.39 g/m*3 -0.6 C 0 km/h
1120 01-02-2010 07:58:02 -0.5 C 3.42 g/m*3 -0.5 C 0 km/h
1121 01-02-2010 08:10:02 -0.4 C 3.39 g/m*3 -0.4 C 0 km/h
1122 01-02-2010 08:22:02 -0.4 C 3.44 g/m*3 -0.4 C 0 km/h
1123 01-02-2010 08:34:02 -0.4 C 3.39 g/m*3 -0.4 C 0 km/h
1124 01-02-2010 08:46:02 -0.4 C 3.39 g/m*3 -0.4 C 0 km/h
1125 01-02-2010 08:58:02 -0.4 C 3.39 g/m*3 -0.4 C 0 km/h
Sensor: Nr:Datum:Temp:Abs-Feuchte:Windchill:Wind:
Aussen-T/F 1126 01-02-2010 09:10:02 -0.4 C 3.39 g/m*3 -0.4 C 0 km/h
1127 01-02-2010 09:22:02 -0.3 C 3.37 g/m*3 -0.3 C 0 km/h
1128 01-02-2010 09:34:02 -0.3 C 3.37 g/m*3 -0.3 C 0 km/h
1129 01-02-2010 09:46:02 -0.2 C 3.39 g/m*3 -0.2 C 0 km/h
1130 01-02-2010 09:58:02 -0.2 C 3.39 g/m*3 -0.2 C 0 km/h
1131 01-02-2010 10:10:02 -0.1 C 3.37 g/m*3 -0.1 C 0 km/h
1132 01-02-2010 10:22:02 0.2 C 3.44 g/m*3 0.2 C 0 km/h
1133 01-02-2010 10:34:01 0.2 C 3.34 g/m*3 0.2 C 0 km/h
1134 01-02-2010 10:46:02 0.3 C 3.36 g/m*3 0.3 C 0 km/h
1135 01-02-2010 10:58:02 0.3 C 3.31 g/m*3 0.3 C 0 km/h
1136 01-02-2010 11:10:01 0.5 C 3.31 g/m*3 0.5 C 0 km/h
1137 01-02-2010 11:22:02 0.5 C 3.26 g/m*3 0.5 C 0 km/h
1138 01-02-2010 11:34:01 0.7 C 3.3 g/m*3 0.7 C 0 km/h
1139 01-02-2010 11:46:02 1 C 3.22 g/m*3 1 C 0 km/h
1140 01-02-2010 11:58:02 1 C 3.22 g/m*3 1 C 0 km/h
1141 01-02-2010 12:10:02 1.4 C 3.31 g/m*3 1.4 C 0 km/h
1142 01-02-2010 12:22:02 1.3 C 3.23 g/m*3 1.3 C 0 km/h
1143 01-02-2010 12:34:02 1.7 C 3.32 g/m*3 1.7 C 0 km/h
1144 01-02-2010 12:46:02 1.5 C 3.28 g/m*3 1.5 C 0 km/h
1145 01-02-2010 12:58:02 1.5 C 3.28 g/m*3 1.5 C 0 km/h
1146 01-02-2010 13:10:01 1.4 C 3.25 g/m*3 1.4 C 0 km/h
1147 01-02-2010 13:22:02 1.6 C 3.3 g/m*3 1.6 C 0 km/h
1148 01-02-2010 13:34:01 1.7 C 3.32 g/m*3 1.7 C 0 km/h
1149 01-02-2010 13:46:02 2.3 C 3.29 g/m*3 2.3 C 0 km/h
1150 01-02-2010 13:58:02 2.3 C 3.18 g/m*3 2.3 C 0 km/h
Sensor: Nr:Datum:Temp:Abs-Feuchte:Windchill:Wind:
Aussen-T/F 1151 01-02-2010 14:10:01 2.4 C 3.25 g/m*3 2.4 C 0 km/h
1152 01-02-2010 14:22:01 2.4 C 3.25 g/m*3 2.4 C 0 km/h
1153 01-02-2010 14:34:02 2.1 C 3.24 g/m*3 2.1 C 0 km/h
1154 01-02-2010 14:46:02 1.5 C 3.44 g/m*3 1.5 C 0 km/h
1155 01-02-2010 14:58:03 1.4 C 3.68 g/m*3 1.4 C 0 km/h
1156 01-02-2010 15:10:01 1.3 C 3.71 g/m*3 1.3 C 0 km/h
1157 01-02-2010 15:22:02 1.8 C 3.73 g/m*3 1.8 C 0 km/h
1158 01-02-2010 15:34:02 1.5 C 3.71 g/m*3 1.5 C 0 km/h
1159 01-02-2010 15:46:02 1.1 C 3.81 g/m*3 1.1 C 0 km/h
1160 01-02-2010 15:58:02 0.9 C 3.92 g/m*3 0.9 C 0 km/h
1161 01-02-2010 16:10:01 0.7 C 4.02 g/m*3 0.7 C 0 km/h
1162 01-02-2010 16:22:02 0.7 C 4.12 g/m*3 0.7 C 0 km/h
1163 01-02-2010 16:34:01 0.7 C 4.12 g/m*3 0.7 C 0 km/h
1164 01-02-2010 16:46:03 0.8 C 4.1 g/m*3 0.8 C 0 km/h
1165 01-02-2010 16:58:03 1 C 4 g/m*3 1 C 0 km/h
1166 01-02-2010 17:10:03 0.8 C 4.04 g/m*3 0.8 C 0 km/h
1167 01-02-2010 17:22:02 0.4 C 4.13 g/m*3 0.4 C 0 km/h
1168 01-02-2010 17:34:03 0.4 C 4.28 g/m*3 0.4 C 0 km/h
1169 01-02-2010 17:46:01 0.4 C 4.33 g/m*3 0.4 C 0 km/h
1170 01-02-2010 17:58:01 0.3 C 4.3 g/m*3 0.3 C 0 km/h
1171 01-02-2010 18:10:02 0.2 C 4.32 g/m*3 0.2 C 0 km/h
1172 01-02-2010 18:22:02 0.2 C 4.37 g/m*3 0.2 C 0 km/h
1173 01-02-2010 18:34:02 0.2 C 4.42 g/m*3 0.2 C 0 km/h
1174 01-02-2010 18:46:02 0.2 C 4.47 g/m*3 0.2 C 0 km/h
1175 01-02-2010 18:58:02 0.2 C 4.52 g/m*3 0.2 C 0 km/h
Sensor: Nr:Datum:Temp:Abs-Feuchte:Windchill:Wind:
Aussen-T/F 1176 01-02-2010 19:10:02 0.3 C 4.55 g/m*3 0.3 C 0 km/h
1177 01-02-2010 19:22:02 0.3 C 4.55 g/m*3 0.3 C 0 km/h
1178 01-02-2010 19:34:01 0.3 C 4.5 g/m*3 0.3 C 0 km/h
1179 01-02-2010 19:46:02 0.3 C 4.5 g/m*3 0.3 C 0 km/h
1180 01-02-2010 19:58:02 0.5 C 4.56 g/m*3 0.5 C 0 km/h
1181 01-02-2010 20:10:01 0.5 C 4.51 g/m*3 0.5 C 0 km/h
1182 01-02-2010 20:22:02 0.5 C 4.46 g/m*3 0.5 C 0 km/h
1183 01-02-2010 20:34:01 0.5 C 4.41 g/m*3 0.5 C 0 km/h
1184 01-02-2010 20:46:02 0.3 C 4.35 g/m*3 0.3 C 0 km/h
1185 01-02-2010 20:58:02 0.3 C 4.35 g/m*3 0.3 C 0 km/h
1186 01-02-2010 21:10:01 0.2 C 4.32 g/m*3 0.2 C 0 km/h
1187 01-02-2010 21:22:02 0.3 C 4.35 g/m*3 0.3 C 0 km/h
1188 01-02-2010 21:34:01 0.3 C 4.35 g/m*3 0.3 C 0 km/h
1189 01-02-2010 21:46:03 0.2 C 4.32 g/m*3 0.2 C 0 km/h
1190 01-02-2010 21:58:03 0.2 C 4.32 g/m*3 0.2 C 0 km/h
1191 01-02-2010 22:10:02 0.2 C 4.37 g/m*3 0.2 C 0 km/h
1192 01-02-2010 22:23:02 0.2 C 4.37 g/m*3 0.2 C 0 km/h
1193 01-02-2010 22:35:02 0.5 C 4.51 g/m*3 0.5 C 0 km/h
1194 01-02-2010 22:47:02 0.5 C 4.46 g/m*3 0.5 C 0 km/h
1195 01-02-2010 22:59:02 0.5 C 4.46 g/m*3 0.5 C 0 km/h
1196 01-02-2010 23:11:02 0.4 C 4.33 g/m*3 0.4 C 0 km/h
1197 01-02-2010 23:23:03 0.4 C 4.28 g/m*3 0.4 C 0 km/h
1198 01-02-2010 23:35:03 0.3 C 4.25 g/m*3 0.3 C 0 km/h
1199 01-02-2010 23:47:03 0.3 C 4.3 g/m*3 0.3 C 0 km/h
1200 01-02-2010 23:59:03 0.3 C 4.3 g/m*3 0.3 C 0 km/h
Sensor: Nr:Datum:Temp:Abs-Feuchte:Windchill:Wind:
Aussen-T/F 1201 02-02-2010 00:11:03 0.3 C 4.11 g/m*3 0.3 C 0 km/h
1202 02-02-2010 00:23:03 0.4 C 3.84 g/m*3 0.4 C 0 km/h
1203 02-02-2010 00:35:03 0.2 C 3.68 g/m*3 0.2 C 0 km/h
1204 02-02-2010 00:47:03 0.1 C 3.66 g/m*3 0.1 C 0 km/h
1205 02-02-2010 00:59:03 -0.1 C 3.56 g/m*3 -0.1 C 0 km/h
1206 02-02-2010 01:11:03 -0.3 C 3.51 g/m*3 -0.3 C 0 km/h
1207 02-02-2010 01:23:03 -0.5 C 3.51 g/m*3 -0.5 C 0 km/h
1208 02-02-2010 01:35:03 -0.8 C 3.48 g/m*3 -0.8 C 0 km/h
1209 02-02-2010 01:47:03 -0.7 C 3.6 g/m*3 -0.7 C 0 km/h
1210 02-02-2010 01:59:03 -0.6 C 3.63 g/m*3 -0.6 C 0 km/h
1211 02-02-2010 02:11:03 -0.6 C 3.53 g/m*3 -0.6 C 0 km/h
1212 02-02-2010 02:23:03 -0.7 C 3.46 g/m*3 -0.7 C 0 km/h
1213 02-02-2010 02:35:03 -1 C 3.3 g/m*3 -1 C 0 km/h
1214 02-02-2010 02:47:03 -1.6 C 3.25 g/m*3 -1.6 C 0 km/h
1215 02-02-2010 02:59:03 -2.1 C 3.22 g/m*3 -2.1 C 0 km/h
1216 02-02-2010 03:11:03 -2.5 C 3.17 g/m*3 -2.5 C 0 km/h
1217 02-02-2010 03:23:03 -2.8 C 3.15 g/m*3 -2.8 C 0 km/h
1218 02-02-2010 03:35:03 -3 C 3.14 g/m*3 -3 C 0 km/h
1219 02-02-2010 03:47:04 -3 C 3.18 g/m*3 -3 C 0 km/h
1220 02-02-2010 03:59:04 -3 C 3.22 g/m*3 -3 C 0 km/h
1221 02-02-2010 04:11:04 -3.1 C 3.24 g/m*3 -3.1 C 0 km/h
1222 02-02-2010 04:23:04 -3 C 3.3 g/m*3 -3 C 0 km/h
1223 02-02-2010 04:35:04 -2.9 C 3.36 g/m*3 -2.9 C 0 km/h
1224 02-02-2010 04:47:04 -2.7 C 3.45 g/m*3 -2.7 C 0 km/h
1225 02-02-2010 04:59:04 -2.6 C 3.48 g/m*3 -2.6 C 0 km/h
Sensor: Nr:Datum:Temp:Abs-Feuchte:Windchill:Wind:
Aussen-T/F 1226 02-02-2010 05:11:04 -2.4 C 3.57 g/m*3 -2.4 C 0 km/h
1227 02-02-2010 05:23:04 -2.2 C 3.62 g/m*3 -2.2 C 0 km/h
1228 02-02-2010 05:35:04 -2.3 C 3.59 g/m*3 -2.3 C 0 km/h
1229 02-02-2010 05:47:04 -2.4 C 3.52 g/m*3 -2.4 C 0 km/h
1230 02-02-2010 05:59:04 -2.4 C 3.52 g/m*3 -2.4 C 0 km/h
1231 02-02-2010 06:11:04 -2.3 C 3.55 g/m*3 -2.3 C 0 km/h
1232 02-02-2010 06:23:04 -1.7 C 3.75 g/m*3 -1.7 C 0 km/h
1233 02-02-2010 06:35:04 -1.2 C 3.74 g/m*3 -1.2 C 0 km/h
1234 02-02-2010 06:47:04 -1.2 C 3.66 g/m*3 -1.2 C 0 km/h
1235 02-02-2010 06:59:04 -1.3 C 3.59 g/m*3 -1.3 C 0 km/h
1236 02-02-2010 07:11:02 -1.3 C 3.59 g/m*3 -1.3 C 0 km/h
1237 02-02-2010 07:23:02 -1.6 C 3.47 g/m*3 -1.6 C 0 km/h
1238 02-02-2010 07:35:02 -1.8 C 3.46 g/m*3 -1.8 C 0 km/h
1239 02-02-2010 07:47:02 -1.7 C 3.49 g/m*3 -1.7 C 0 km/h
1240 02-02-2010 07:59:02 -1.5 C 3.49 g/m*3 -1.5 C 0 km/h
1241 02-02-2010 08:11:03 -1.4 C 3.52 g/m*3 -1.4 C 0 km/h
1242 02-02-2010 08:23:02 -1.3 C 3.5 g/m*3 -1.3 C 0 km/h
1243 02-02-2010 08:35:02 -1.2 C 3.48 g/m*3 -1.2 C 0 km/h
1244 02-02-2010 08:47:02 -1.1 C 3.5 g/m*3 -1.1 C 0 km/h
1245 02-02-2010 08:59:02 -0.8 C 3.53 g/m*3 -0.8 C 0 km/h
1246 02-02-2010 09:11:02 -0.7 C 3.55 g/m*3 -0.7 C 0 km/h
1247 02-02-2010 09:23:02 -0.6 C 3.63 g/m*3 -0.6 C 0 km/h
1248 02-02-2010 09:35:02 -0.3 C 3.7 g/m*3 -0.3 C 0 km/h
1249 02-02-2010 09:47:02 -0.1 C 3.75 g/m*3 -0.1 C 0 km/h
1250 02-02-2010 09:59:02 0.1 C 3.81 g/m*3 0.1 C 0 km/h
Sensor: Nr:Datum:Temp:Abs-Feuchte:Windchill:Wind:
Aussen-T/F 1251 02-02-2010 10:11:02 0.4 C 3.88 g/m*3 0.4 C 0 km/h
1252 02-02-2010 10:23:02 0.6 C 3.89 g/m*3 0.6 C 0 km/h
1253 02-02-2010 10:35:01 0.8 C 3.89 g/m*3 0.8 C 0 km/h
1254 02-02-2010 10:47:02 1 C 3.89 g/m*3 1 C 0 km/h
1255 02-02-2010 10:59:02 1.1 C 3.92 g/m*3 1.1 C 0 km/h
1256 02-02-2010 11:11:01 1.3 C 3.92 g/m*3 1.3 C 0 km/h
1257 02-02-2010 11:23:02 1.5 C 3.97 g/m*3 1.5 C 0 km/h
1258 02-02-2010 11:35:01 1.5 C 3.97 g/m*3 1.5 C 0 km/h
1259 02-02-2010 11:47:03 1.5 C 3.97 g/m*3 1.5 C 0 km/h
1260 02-02-2010 11:59:03 1.6 C 4.06 g/m*3 1.6 C 0 km/h
1261 02-02-2010 12:11:02 1.8 C 4.11 g/m*3 1.8 C 0 km/h
1262 02-02-2010 12:23:03 1.9 C 4.14 g/m*3 1.9 C 0 km/h
1263 02-02-2010 12:35:02 2 C 4.11 g/m*3 2 C 0 km/h
1264 02-02-2010 12:47:02 2.1 C 4.14 g/m*3 2.1 C 0 km/h
1265 02-02-2010 12:59:02 2.2 C 4.22 g/m*3 2.2 C 0 km/h
1266 02-02-2010 13:11:02 2.2 C 4.22 g/m*3 2.2 C 0 km/h
1267 02-02-2010 13:23:02 2.4 C 4.23 g/m*3 2.4 C 0 km/h
1268 02-02-2010 13:35:02 2.6 C 4.22 g/m*3 2.6 C 0 km/h
1269 02-02-2010 13:47:02 2.6 C 4.17 g/m*3 2.6 C 0 km/h
1270 02-02-2010 13:59:02 2.8 C 4.22 g/m*3 2.8 C 0 km/h
1271 02-02-2010 14:11:02 2.8 C 4.22 g/m*3 2.8 C 0 km/h
1272 02-02-2010 14:23:02 2.9 C 4.25 g/m*3 2.9 C 0 km/h
1273 02-02-2010 14:35:01 2.9 C 4.25 g/m*3 2.9 C 0 km/h
1274 02-02-2010 14:47:02 2.9 C 4.19 g/m*3 2.9 C 0 km/h
1275 02-02-2010 14:59:02 2.7 C 4.2 g/m*3 2.7 C 0 km/h
Sensor: Nr:Datum:Temp:Abs-Feuchte:Windchill:Wind:
Aussen-T/F 1276 02-02-2010 15:11:01 2.7 C 4.31 g/m*3 2.7 C 0 km/h
1277 02-02-2010 15:23:02 2.7 C 4.37 g/m*3 2.7 C 0 km/h
1278 02-02-2010 15:35:01 2.7 C 4.37 g/m*3 2.7 C 0 km/h
1279 02-02-2010 15:47:03 2.6 C 4.4 g/m*3 2.6 C 0 km/h
1280 02-02-2010 15:59:03 2.6 C 4.4 g/m*3 2.6 C 0 km/h
1281 02-02-2010 16:11:02 2.5 C 4.37 g/m*3 2.5 C 0 km/h
1282 02-02-2010 16:23:03 2.4 C 4.4 g/m*3 2.4 C 0 km/h
1283 02-02-2010 16:35:02 2.4 C 4.45 g/m*3 2.4 C 0 km/h
1284 02-02-2010 16:47:03 2.3 C 4.48 g/m*3 2.3 C 0 km/h
1285 02-02-2010 16:59:03 2.2 C 4.45 g/m*3 2.2 C 0 km/h
1286 02-02-2010 17:11:02 2.1 C 4.48 g/m*3 2.1 C 0 km/h
1287 02-02-2010 17:23:02 2.1 C 4.48 g/m*3 2.1 C 0 km/h
1288 02-02-2010 17:35:02 2.1 C 4.48 g/m*3 2.1 C 0 km/h
1289 02-02-2010 17:47:02 2.2 C 4.45 g/m*3 2.2 C 0 km/h
1290 02-02-2010 17:59:02 2.2 C 4.45 g/m*3 2.2 C 0 km/h
1291 02-02-2010 18:11:02 2.3 C 4.48 g/m*3 2.3 C 0 km/h
1292 02-02-2010 18:23:02 2.2 C 4.45 g/m*3 2.2 C 0 km/h
1293 02-02-2010 18:35:01 2.2 C 4.45 g/m*3 2.2 C 0 km/h
1294 02-02-2010 18:47:02 2.2 C 4.39 g/m*3 2.2 C 0 km/h
1295 02-02-2010 18:59:02 2.2 C 4.39 g/m*3 2.2 C 0 km/h
1296 02-02-2010 19:11:01 2.3 C 4.42 g/m*3 2.3 C 0 km/h
1297 02-02-2010 19:23:02 2.2 C 4.45 g/m*3 2.2 C 0 km/h
1298 02-02-2010 19:35:01 2.1 C 4.48 g/m*3 2.1 C 0 km/h
1299 02-02-2010 19:47:02 2.1 C 4.53 g/m*3 2.1 C 0 km/h
1300 02-02-2010 19:59:02 2.2 C 4.56 g/m*3 2.2 C 0 km/h
Sensor: Nr:Datum:Temp:Abs-Feuchte:Windchill:Wind:
Aussen-T/F 1301 02-02-2010 20:11:01 2.2 C 4.56 g/m*3 2.2 C 0 km/h
1302 02-02-2010 20:23:02 2.4 C 4.62 g/m*3 2.4 C 0 km/h
1303 02-02-2010 20:35:01 2.5 C 4.6 g/m*3 2.5 C 0 km/h
1304 02-02-2010 20:47:02 2.4 C 4.57 g/m*3 2.4 C 0 km/h
1305 02-02-2010 20:59:02 2.5 C 4.6 g/m*3 2.5 C 0 km/h
1306 02-02-2010 21:11:02 2.6 C 4.57 g/m*3 2.6 C 0 km/h
1307 02-02-2010 21:23:02 2.6 C 4.57 g/m*3 2.6 C 0 km/h
1308 02-02-2010 21:35:02 2.6 C 4.57 g/m*3 2.6 C 0 km/h
1309 02-02-2010 21:48:03 2.6 C 4.63 g/m*3 2.6 C 0 km/h
1310 02-02-2010 22:00:03 2.7 C 4.66 g/m*3 2.7 C 0 km/h
1311 02-02-2010 22:12:03 2.6 C 4.69 g/m*3 2.6 C 0 km/h
1312 02-02-2010 22:24:03 2.5 C 4.77 g/m*3 2.5 C 0 km/h
1313 02-02-2010 22:36:03 2.4 C 4.8 g/m*3 2.4 C 0 km/h
1314 02-02-2010 22:48:03 2.4 C 4.8 g/m*3 2.4 C 0 km/h
1315 02-02-2010 23:00:03 2.5 C 4.83 g/m*3 2.5 C 0 km/h
1316 02-02-2010 23:12:03 2.7 C 4.84 g/m*3 2.7 C 0 km/h
1317 02-02-2010 23:24:03 2.7 C 4.78 g/m*3 2.7 C 0 km/h
1318 02-02-2010 23:36:03 2.8 C 4.81 g/m*3 2.8 C 0 km/h
1319 02-02-2010 23:48:04 2.9 C 4.84 g/m*3 2.9 C 0 km/h
1320 03-02-2010 00:00:04 2.8 C 4.81 g/m*3 2.8 C 0 km/h
1321 03-02-2010 00:12:04 3.3 C 4.91 g/m*3 3.3 C 0 km/h
1322 03-02-2010 00:24:04 3.6 C 4.89 g/m*3 3.6 C 0 km/h
1323 03-02-2010 00:36:04 3.7 C 4.92 g/m*3 3.7 C 0 km/h
1324 03-02-2010 00:48:04 4 C 4.96 g/m*3 4 C 0 km/h
1325 03-02-2010 01:00:04 4 C 4.9 g/m*3 4 C 0 km/h
Sensor: Nr:Datum:Temp:Abs-Feuchte:Windchill:Wind:
Aussen-T/F 1326 03-02-2010 01:12:04 4 C 4.9 g/m*3 4 C 0 km/h
1327 03-02-2010 01:24:04 4 C 4.96 g/m*3 4 C 0 km/h
1328 03-02-2010 01:36:04 4.3 C 5.06 g/m*3 4.3 C 0 km/h
1329 03-02-2010 01:48:04 4.4 C 5.09 g/m*3 4.4 C 0 km/h
1330 03-02-2010 02:00:04 4.6 C 5.16 g/m*3 4.6 C 0 km/h
1331 03-02-2010 02:12:04 4.8 C 5.16 g/m*3 4.8 C 0 km/h
1332 03-02-2010 02:24:04 4.7 C 5.13 g/m*3 4.7 C 0 km/h
1333 03-02-2010 02:36:04 2.9 C 4.78 g/m*3 2.9 C 0 km/h
1334 03-02-2010 02:48:04 2.4 C 4.8 g/m*3 2.4 C 0 km/h
1335 03-02-2010 03:00:04 2.1 C 4.81 g/m*3 2.1 C 0 km/h
1336 03-02-2010 03:12:04 1.9 C 4.86 g/m*3 1.9 C 0 km/h
1337 03-02-2010 03:24:04 1.7 C 4.85 g/m*3 1.7 C 0 km/h
1338 03-02-2010 03:36:04 1.6 C 4.87 g/m*3 1.6 C 0 km/h
1339 03-02-2010 03:48:04 1.6 C 4.87 g/m*3 1.6 C 0 km/h
1340 03-02-2010 04:00:05 1.5 C 4.89 g/m*3 1.5 C 0 km/h
1341 03-02-2010 04:12:05 1.2 C 4.79 g/m*3 1.2 C 0 km/h
1342 03-02-2010 04:24:05 0.9 C 4.69 g/m*3 0.9 C 0 km/h
1343 03-02-2010 04:36:05 0.8 C 4.66 g/m*3 0.8 C 0 km/h
1344 03-02-2010 04:48:05 1 C 4.72 g/m*3 1 C 0 km/h
1345 03-02-2010 05:00:05 1.1 C 4.81 g/m*3 1.1 C 0 km/h
1346 03-02-2010 05:12:05 1.1 C 4.81 g/m*3 1.1 C 0 km/h
1347 03-02-2010 05:24:05 1.1 C 4.86 g/m*3 1.1 C 0 km/h
1348 03-02-2010 05:36:05 1.1 C 4.86 g/m*3 1.1 C 0 km/h
1349 03-02-2010 05:48:05 1.2 C 4.89 g/m*3 1.2 C 0 km/h
1350 03-02-2010 06:00:05 1.1 C 4.91 g/m*3 1.1 C 0 km/h
Sensor: Nr:Datum:Temp:Abs-Feuchte:Windchill:Wind:
Aussen-T/F 1351 03-02-2010 06:12:05 1.1 C 4.91 g/m*3 1.1 C 0 km/h
1352 03-02-2010 06:24:05 1.1 C 4.91 g/m*3 1.1 C 0 km/h
1353 03-02-2010 06:36:05 1 C 4.88 g/m*3 1 C 0 km/h
1354 03-02-2010 06:48:05 1.1 C 4.91 g/m*3 1.1 C 0 km/h
1355 03-02-2010 07:00:05 1 C 4.88 g/m*3 1 C 0 km/h
1356 03-02-2010 07:12:03 0.9 C 4.9 g/m*3 0.9 C 0 km/h
1357 03-02-2010 07:24:02 1 C 4.88 g/m*3 1 C 0 km/h
1358 03-02-2010 07:36:03 1 C 4.93 g/m*3 1 C 0 km/h
1359 03-02-2010 07:48:02 1 C 4.93 g/m*3 1 C 0 km/h
1360 03-02-2010 08:00:02 1 C 4.93 g/m*3 1 C 0 km/h
1361 03-02-2010 08:12:01 1 C 4.93 g/m*3 1 C 0 km/h
1362 03-02-2010 08:24:02 1 C 4.93 g/m*3 1 C 0 km/h
1363 03-02-2010 08:36:02 1.1 C 4.96 g/m*3 1.1 C 0 km/h
1364 03-02-2010 08:48:02 1.2 C 5 g/m*3 1.2 C 0 km/h
1365 03-02-2010 09:00:02 1.2 C 5 g/m*3 1.2 C 0 km/h
1366 03-02-2010 09:12:03 1.3 C 5.03 g/m*3 1.3 C 0 km/h
1367 03-02-2010 09:24:02 1.5 C 5.1 g/m*3 1.5 C 0 km/h
1368 03-02-2010 09:36:02 1.5 C 5.1 g/m*3 1.5 C 0 km/h
1369 03-02-2010 09:48:02 1.7 C 5.17 g/m*3 1.7 C 0 km/h
1370 03-02-2010 10:00:02 2 C 5.22 g/m*3 2 C 0 km/h
1371 03-02-2010 10:12:01 2.2 C 5.29 g/m*3 2.2 C 0 km/h
1372 03-02-2010 10:24:02 2.3 C 5.27 g/m*3 2.3 C 0 km/h
1373 03-02-2010 10:36:02 2.7 C 5.36 g/m*3 2.7 C 0 km/h
1374 03-02-2010 10:48:02 3.1 C 5.45 g/m*3 3.1 C 0 km/h
1375 03-02-2010 11:00:02 3.1 C 5.33 g/m*3 3.1 C 0 km/h
Sensor: Nr:Datum:Temp:Abs-Feuchte:Windchill:Wind:
Aussen-T/F 1376 03-02-2010 11:12:02 3 C 5.11 g/m*3 3 C 0 km/h
1377 03-02-2010 11:24:02 3.3 C 5.22 g/m*3 3.3 C 0 km/h
1378 03-02-2010 11:36:02 3.3 C 5.1 g/m*3 3.3 C 0 km/h
1379 03-02-2010 11:48:02 3.1 C 4.97 g/m*3 3.1 C 0 km/h
1380 03-02-2010 12:00:02 3.2 C 5.06 g/m*3 3.2 C 0 km/h
1381 03-02-2010 12:12:01 3.1 C 5.03 g/m*3 3.1 C 0 km/h
1382 03-02-2010 12:24:02 3 C 5.05 g/m*3 3 C 0 km/h
1383 03-02-2010 12:36:02 3 C 5.11 g/m*3 3 C 0 km/h
1384 03-02-2010 12:48:02 3.1 C 5.15 g/m*3 3.1 C 0 km/h
1385 03-02-2010 13:00:02 3.1 C 5.21 g/m*3 3.1 C 0 km/h
1386 03-02-2010 13:12:02 3.1 C 5.21 g/m*3 3.1 C 0 km/h
1387 03-02-2010 13:24:02 3.3 C 5.28 g/m*3 3.3 C 0 km/h
1388 03-02-2010 13:36:02 3.2 C 5.24 g/m*3 3.2 C 0 km/h
1389 03-02-2010 13:48:02 3.3 C 5.28 g/m*3 3.3 C 0 km/h
1390 03-02-2010 14:00:02 3.3 C 5.28 g/m*3 3.3 C 0 km/h
1391 03-02-2010 14:12:02 3.3 C 5.28 g/m*3 3.3 C 0 km/h
1392 03-02-2010 14:24:02 3.3 C 5.28 g/m*3 3.3 C 0 km/h
1393 03-02-2010 14:36:02 3.3 C 5.28 g/m*3 3.3 C 0 km/h
1394 03-02-2010 14:48:02 3.2 C 5.24 g/m*3 3.2 C 0 km/h
1395 03-02-2010 15:00:02 3.2 C 5.24 g/m*3 3.2 C 0 km/h
1396 03-02-2010 15:12:02 3.1 C 5.27 g/m*3 3.1 C 0 km/h
1397 03-02-2010 15:24:02 2.9 C 5.2 g/m*3 2.9 C 0 km/h
1398 03-02-2010 15:36:02 3 C 5.23 g/m*3 3 C 0 km/h
1399 03-02-2010 15:48:02 2.9 C 5.26 g/m*3 2.9 C 0 km/h
1400 03-02-2010 16:00:02 2.8 C 5.22 g/m*3 2.8 C 0 km/h
Sensor: Nr:Datum:Temp:Abs-Feuchte:Windchill:Wind:
Aussen-T/F 1401 03-02-2010 16:12:02 2.6 C 5.15 g/m*3 2.6 C 0 km/h
1402 03-02-2010 16:24:02 2.6 C 5.15 g/m*3 2.6 C 0 km/h
1403 03-02-2010 16:36:02 2.5 C 5.12 g/m*3 2.5 C 0 km/h
1404 03-02-2010 16:48:02 2.4 C 5.08 g/m*3 2.4 C 0 km/h
1405 03-02-2010 17:00:02 2.4 C 5.14 g/m*3 2.4 C 0 km/h
1406 03-02-2010 17:12:02 2.3 C 5.1 g/m*3 2.3 C 0 km/h
1407 03-02-2010 17:24:02 2.2 C 5.07 g/m*3 2.2 C 0 km/h
1408 03-02-2010 17:36:02 2.1 C 5.04 g/m*3 2.1 C 0 km/h
1409 03-02-2010 17:48:01 1.9 C 5.02 g/m*3 1.9 C 0 km/h
1410 03-02-2010 18:00:01 1.9 C 5.02 g/m*3 1.9 C 0 km/h
1411 03-02-2010 18:12:02 1.9 C 5.02 g/m*3 1.9 C 0 km/h
1412 03-02-2010 18:24:01 1.9 C 5.08 g/m*3 1.9 C 0 km/h
1413 03-02-2010 18:36:01 1.9 C 5.08 g/m*3 1.9 C 0 km/h
1414 03-02-2010 18:48:01 1.8 C 5.04 g/m*3 1.8 C 0 km/h
1415 03-02-2010 19:00:01 1.8 C 5.04 g/m*3 1.8 C 0 km/h
1416 03-02-2010 19:12:02 1.7 C 5.01 g/m*3 1.7 C 0 km/h
1417 03-02-2010 19:20:01 1.7 C 5.01 g/m*3 1.7 C 0 km/h
1418 03-02-2010 19:45:01 1.8 C 5.04 g/m*3 1.8 C 0 km/h
1419 03-02-2010 20:10:02 1.9 C 5.13 g/m*3 1.9 C 0 km/h
1420 03-02-2010 20:35:01 1.8 C 5.1 g/m*3 1.8 C 0 km/h
1421 03-02-2010 21:00:01 1.7 C 5.06 g/m*3 1.7 C 0 km/h
1422 03-02-2010 21:25:01 1.7 C 5.06 g/m*3 1.7 C 0 km/h
1423 03-02-2010 21:50:02 1.8 C 5.1 g/m*3 1.8 C 0 km/h
1424 03-02-2010 22:15:03 1.8 C 5.1 g/m*3 1.8 C 0 km/h
1425 03-02-2010 22:40:02 1.8 C 5.1 g/m*3 1.8 C 0 km/h
Sensor: Nr:Datum:Temp:Abs-Feuchte:Windchill:Wind:
Aussen-T/F 1426 03-02-2010 23:05:02 1.8 C 5.1 g/m*3 1.8 C 0 km/h
1427 03-02-2010 23:30:02 1.8 C 5.1 g/m*3 1.8 C 0 km/h
1428 03-02-2010 23:55:02 2 C 5.17 g/m*3 2 C 0 km/h
1429 04-02-2010 00:20:02 2 C 5.17 g/m*3 2 C 0 km/h
1430 04-02-2010 00:45:02 2 C 5.17 g/m*3 2 C 0 km/h
1431 04-02-2010 01:10:02 2 C 5.17 g/m*3 2 C 0 km/h
1432 04-02-2010 01:35:02 2 C 5.22 g/m*3 2 C 0 km/h
1433 04-02-2010 02:00:02 2.1 C 5.26 g/m*3 2.1 C 0 km/h
1434 04-02-2010 02:25:03 2.2 C 5.29 g/m*3 2.2 C 0 km/h
1435 04-02-2010 02:51:03 2.1 C 5.26 g/m*3 2.1 C 0 km/h
1436 04-02-2010 03:16:04 2.2 C 5.29 g/m*3 2.2 C 0 km/h
1437 04-02-2010 03:41:01 2.3 C 5.33 g/m*3 2.3 C 0 km/h
1438 04-02-2010 04:06:02 2.3 C 5.33 g/m*3 2.3 C 0 km/h
1439 04-02-2010 04:31:02 2.3 C 5.33 g/m*3 2.3 C 0 km/h
1440 04-02-2010 04:56:01 2.4 C 5.37 g/m*3 2.4 C 0 km/h
1441 04-02-2010 05:21:02 2.5 C 5.46 g/m*3 2.5 C 0 km/h
1442 04-02-2010 05:46:02 2.7 C 5.54 g/m*3 2.7 C 0 km/h
1443 04-02-2010 06:11:01 3 C 5.65 g/m*3 3 C 0 km/h
1444 04-02-2010 06:51:02 3.6 C 5.88 g/m*3 3.6 C 0 km/h
1445 04-02-2010 07:16:02 3.4 C 5.8 g/m*3 3.4 C 0 km/h
1446 04-02-2010 07:41:02 3.2 C 5.72 g/m*3 3.2 C 0 km/h
1447 04-02-2010 08:06:02 3.3 C 5.76 g/m*3 3.3 C 0 km/h
1448 04-02-2010 08:31:02 3.2 C 5.72 g/m*3 3.2 C 0 km/h
1449 04-02-2010 08:56:02 3.3 C 5.76 g/m*3 3.3 C 0 km/h
1450 04-02-2010 09:21:02 3.7 C 5.92 g/m*3 3.7 C 0 km/h
Sensor: Nr:Datum:Temp:Abs-Feuchte:Windchill:Wind:
Aussen-T/F 1451 04-02-2010 09:46:02 4.5 C 6.24 g/m*3 4.5 C 0 km/h
1452 04-02-2010 10:11:02 4.7 C 6.19 g/m*3 4.7 C 0 km/h
1453 04-02-2010 10:36:02 5.2 C 6.13 g/m*3 5.2 C 0 km/h
1454 04-02-2010 11:01:02 5.7 C 6.19 g/m*3 5.7 C 0 km/h
1455 04-02-2010 11:26:02 6.3 C 6.07 g/m*3 6.3 C 0 km/h
1456 04-02-2010 11:51:02 6.9 C 6 g/m*3 6.9 C 0 km/h
1457 04-02-2010 12:16:02 7.1 C 5.85 g/m*3 7.1 C 0 km/h
1458 04-02-2010 12:41:02 7.5 C 5.92 g/m*3 7.5 C 0 km/h
1459 04-02-2010 13:06:02 8 C 5.95 g/m*3 8 C 0 km/h
1460 04-02-2010 13:31:02 8.5 C 5.98 g/m*3 8.5 C 0 km/h
1461 04-02-2010 13:56:02 8.7 C 5.88 g/m*3 8.7 C 0 km/h
1462 04-02-2010 14:21:02 8.5 C 5.81 g/m*3 8.5 C 0 km/h
1463 04-02-2010 14:46:03 8.2 C 5.61 g/m*3 8.2 C 0 km/h
1464 04-02-2010 15:11:03 8.8 C 5.92 g/m*3 8.8 C 0 km/h
1465 04-02-2010 15:36:03 8.8 C 5.74 g/m*3 8.8 C 0 km/h
1466 04-02-2010 16:01:03 7.8 C 5.55 g/m*3 7.8 C 0 km/h
1467 04-02-2010 16:26:03 7.5 C 5.52 g/m*3 7.5 C 0 km/h
1468 04-02-2010 16:51:03 6.2 C 5.37 g/m*3 6.2 C 0 km/h
1469 04-02-2010 17:16:03 5.7 C 5.48 g/m*3 5.7 C 0 km/h
1470 04-02-2010 17:41:03 5 C 5.37 g/m*3 5 C 0 km/h
1471 04-02-2010 18:06:03 4.4 C 5.29 g/m*3 4.4 C 0 km/h
1472 04-02-2010 18:31:03 4 C 5.28 g/m*3 4 C 0 km/h
1473 04-02-2010 18:56:03 3.6 C 5.2 g/m*3 3.6 C 0 km/h
1474 04-02-2010 19:21:03 3.3 C 5.16 g/m*3 3.3 C 0 km/h
1475 04-02-2010 19:46:03 3 C 5.11 g/m*3 3 C 0 km/h
Sensor: Nr:Datum:Temp:Abs-Feuchte:Windchill:Wind:
Aussen-T/F 1476 04-02-2010 20:11:03 2.7 C 5.13 g/m*3 2.7 C 0 km/h
1477 04-02-2010 20:36:03 2.5 C 5.12 g/m*3 2.5 C 0 km/h
1478 04-02-2010 21:01:03 2.5 C 5.17 g/m*3 2.5 C 0 km/h
1479 04-02-2010 21:26:03 2.6 C 5.27 g/m*3 2.6 C 0 km/h
1480 04-02-2010 21:51:03 2.1 C 5.04 g/m*3 2.1 C 0 km/h
1481 04-02-2010 22:16:03 2.2 C 5.18 g/m*3 2.2 C 0 km/h
1482 04-02-2010 22:41:03 1.8 C 5.04 g/m*3 1.8 C 0 km/h
1483 04-02-2010 23:06:03 1.8 C 5.1 g/m*3 1.8 C 0 km/h
1484 04-02-2010 23:31:03 1.7 C 5.06 g/m*3 1.7 C 0 km/h
1485 04-02-2010 23:56:04 2.1 C 5.2 g/m*3 2.1 C 0 km/h
1486 05-02-2010 00:21:04 2.6 C 5.44 g/m*3 2.6 C 0 km/h
1487 05-02-2010 00:46:04 2.2 C 5.24 g/m*3 2.2 C 0 km/h
1488 05-02-2010 01:11:04 2 C 5.17 g/m*3 2 C 0 km/h
1489 05-02-2010 01:36:04 1.7 C 5.12 g/m*3 1.7 C 0 km/h
1490 05-02-2010 02:01:04 2.2 C 5.24 g/m*3 2.2 C 0 km/h
1491 05-02-2010 02:26:04 2.6 C 5.38 g/m*3 2.6 C 0 km/h
1492 05-02-2010 02:51:04 2.7 C 5.3 g/m*3 2.7 C 0 km/h
1493 05-02-2010 03:16:04 2.7 C 5.19 g/m*3 2.7 C 0 km/h
1494 05-02-2010 03:41:04 2.8 C 5.04 g/m*3 2.8 C 0 km/h
1495 05-02-2010 04:06:04 2.8 C 5.04 g/m*3 2.8 C 0 km/h
1496 05-02-2010 04:31:04 2.8 C 4.93 g/m*3 2.8 C 0 km/h
1497 05-02-2010 04:56:04 2.8 C 4.93 g/m*3 2.8 C 0 km/h
1498 05-02-2010 05:21:04 2.7 C 4.89 g/m*3 2.7 C 0 km/h
1499 05-02-2010 05:46:04 2.7 C 4.84 g/m*3 2.7 C 0 km/h
1500 05-02-2010 06:11:04 2.8 C 4.87 g/m*3 2.8 C 0 km/h
Sensor: Nr:Datum:Temp:Abs-Feuchte:Windchill:Wind:
Aussen-T/F 1501 05-02-2010 06:36:04 2.7 C 4.84 g/m*3 2.7 C 0 km/h
1502 05-02-2010 07:01:04 2.4 C 4.74 g/m*3 2.4 C 0 km/h
1503 05-02-2010 07:26:04 2.5 C 4.89 g/m*3 2.5 C 0 km/h
1504 05-02-2010 07:51:04 2.8 C 4.99 g/m*3 2.8 C 0 km/h
1505 05-02-2010 08:16:04 3.2 C 4.88 g/m*3 3.2 C 0 km/h
1506 05-02-2010 08:41:05 3.4 C 4.89 g/m*3 3.4 C 0 km/h
1507 05-02-2010 09:06:05 3.6 C 4.89 g/m*3 3.6 C 0 km/h
1508 05-02-2010 09:31:05 3.8 C 4.83 g/m*3 3.8 C 0 km/h
1509 05-02-2010 09:56:05 4.1 C 4.67 g/m*3 4.1 C 0 km/h
1510 05-02-2010 10:21:05 4.1 C 4.54 g/m*3 4.1 C 0 km/h
1511 05-02-2010 10:46:05 4 C 4.51 g/m*3 4 C 0 km/h
1512 05-02-2010 11:11:05 4.3 C 4.54 g/m*3 4.3 C 0 km/h
1513 05-02-2010 11:36:05 4.3 C 4.41 g/m*3 4.3 C 0 km/h
1514 05-02-2010 12:01:05 4.4 C 4.37 g/m*3 4.4 C 0 km/h
1515 05-02-2010 12:26:05 4.4 C 4.31 g/m*3 4.4 C 0 km/h
1516 05-02-2010 12:51:05 4.3 C 4.28 g/m*3 4.3 C 0 km/h
1517 05-02-2010 13:16:05 4.5 C 4.4 g/m*3 4.5 C 0 km/h
1518 05-02-2010 13:41:05 4.9 C 4.52 g/m*3 4.9 C 0 km/h
1519 05-02-2010 14:06:05 5.1 C 4.38 g/m*3 5.1 C 0 km/h
1520 05-02-2010 14:31:05 4.8 C 4.36 g/m*3 4.8 C 0 km/h
1521 05-02-2010 14:56:05 4.6 C 4.37 g/m*3 4.6 C 0 km/h
1522 05-02-2010 15:21:05 4.5 C 4.4 g/m*3 4.5 C 0 km/h
1523 05-02-2010 15:46:05 4.2 C 4.38 g/m*3 4.2 C 0 km/h
1524 05-02-2010 16:11:05 3.8 C 4.64 g/m*3 3.8 C 0 km/h
1525 05-02-2010 16:36:05 3.6 C 4.7 g/m*3 3.6 C 0 km/h
Sensor: Nr:Datum:Temp:Abs-Feuchte:Windchill:Wind:
Aussen-T/F 1526 05-02-2010 17:01:05 3.4 C 4.83 g/m*3 3.4 C 0 km/h
1527 05-02-2010 17:26:05 3.4 C 4.95 g/m*3 3.4 C 0 km/h
1528 05-02-2010 17:51:06 3.2 C 4.94 g/m*3 3.2 C 0 km/h
1529 05-02-2010 18:16:06 3.3 C 5.04 g/m*3 3.3 C 0 km/h
1530 05-02-2010 18:41:06 3.1 C 5.03 g/m*3 3.1 C 0 km/h
1531 05-02-2010 19:06:06 3.2 C 5.12 g/m*3 3.2 C 0 km/h
1532 05-02-2010 19:31:06 3 C 5.05 g/m*3 3 C 0 km/h
1533 05-02-2010 19:56:06 3.1 C 5.09 g/m*3 3.1 C 0 km/h
1534 05-02-2010 20:21:06 3 C 5.11 g/m*3 3 C 0 km/h
1535 05-02-2010 20:46:06 2.8 C 5.1 g/m*3 2.8 C 0 km/h
1536 05-02-2010 21:11:06 2.8 C 5.16 g/m*3 2.8 C 0 km/h
1537 05-02-2010 21:36:06 2.6 C 5.09 g/m*3 2.6 C 0 km/h
1538 05-02-2010 22:01:06 2.7 C 5.19 g/m*3 2.7 C 0 km/h
1539 05-02-2010 22:26:06 2.9 C 5.26 g/m*3 2.9 C 0 km/h
1540 05-02-2010 22:51:06 3 C 5.23 g/m*3 3 C 0 km/h
1541 05-02-2010 23:16:06 3 C 5.23 g/m*3 3 C 0 km/h
1542 05-02-2010 23:41:06 3 C 5.23 g/m*3 3 C 0 km/h
1543 06-02-2010 00:06:06 2.8 C 5.22 g/m*3 2.8 C 0 km/h
1544 06-02-2010 00:31:06 2.8 C 5.22 g/m*3 2.8 C 0 km/h
1545 06-02-2010 00:56:06 2.7 C 5.19 g/m*3 2.7 C 0 km/h
1546 06-02-2010 01:21:06 2.4 C 5.08 g/m*3 2.4 C 0 km/h
1547 06-02-2010 01:46:06 2.1 C 4.98 g/m*3 2.1 C 0 km/h
1548 06-02-2010 02:11:06 2.4 C 5.14 g/m*3 2.4 C 0 km/h
1549 06-02-2010 02:36:06 2.7 C 5.24 g/m*3 2.7 C 0 km/h
1550 06-02-2010 03:01:07 2.8 C 5.28 g/m*3 2.8 C 0 km/h
Sensor: Nr:Datum:Temp:Abs-Feuchte:Windchill:Wind:
Aussen-T/F 1551 06-02-2010 03:26:07 2.5 C 5.17 g/m*3 2.5 C 0 km/h
1552 06-02-2010 03:51:07 2.4 C 5.14 g/m*3 2.4 C 0 km/h
1553 06-02-2010 04:16:07 2.6 C 5.27 g/m*3 2.6 C 0 km/h
1554 06-02-2010 04:41:07 2.8 C 5.34 g/m*3 2.8 C 0 km/h
1555 06-02-2010 05:06:07 3 C 5.41 g/m*3 3 C 0 km/h
1556 06-02-2010 05:31:07 3 C 5.41 g/m*3 3 C 0 km/h
1557 06-02-2010 05:56:07 3 C 5.41 g/m*3 3 C 0 km/h
1558 06-02-2010 06:21:07 3.2 C 5.48 g/m*3 3.2 C 0 km/h
1559 06-02-2010 06:46:07 3 C 5.41 g/m*3 3 C 0 km/h
1560 06-02-2010 07:11:07 3 C 5.41 g/m*3 3 C 0 km/h
1561 06-02-2010 07:36:07 3.1 C 5.45 g/m*3 3.1 C 0 km/h
1562 06-02-2010 08:01:07 3.1 C 5.45 g/m*3 3.1 C 0 km/h
1563 06-02-2010 08:26:07 3.2 C 5.48 g/m*3 3.2 C 0 km/h
1564 06-02-2010 08:51:07 3.4 C 5.56 g/m*3 3.4 C 0 km/h
1565 06-02-2010 09:16:07 3.7 C 5.67 g/m*3 3.7 C 0 km/h
1566 06-02-2010 09:41:07 4 C 5.72 g/m*3 4 C 0 km/h
1567 06-02-2010 10:06:07 4.6 C 5.89 g/m*3 4.6 C 0 km/h
1568 06-02-2010 10:31:07 5.1 C 5.95 g/m*3 5.1 C 0 km/h
1569 06-02-2010 10:56:07 5.6 C 6.01 g/m*3 5.6 C 0 km/h
1570 06-02-2010 11:21:07 5.7 C 5.84 g/m*3 5.7 C 0 km/h
1571 06-02-2010 11:46:07 6.3 C 5.85 g/m*3 6.3 C 0 km/h
1572 06-02-2010 12:11:07 6.7 C 5.93 g/m*3 6.7 C 0 km/h
1573 06-02-2010 12:36:08 6.9 C 6 g/m*3 6.9 C 0 km/h
1574 06-02-2010 13:01:08 7.3 C 5.69 g/m*3 7.3 C 0 km/h
1575 06-02-2010 13:26:08 7.4 C 5.65 g/m*3 7.4 C 0 km/h
Sensor: Nr:Datum:Temp:Abs-Feuchte:Windchill:Wind:
Aussen-T/F 1576 06-02-2010 13:51:08 7.3 C 5.29 g/m*3 7.3 C 0 km/h
1577 06-02-2010 14:16:08 7.1 C 5.23 g/m*3 7.1 C 0 km/h
1578 06-02-2010 14:41:08 7 C 5.27 g/m*3 7 C 0 km/h
1579 06-02-2010 15:06:08 6.7 C 5.39 g/m*3 6.7 C 0 km/h
1580 06-02-2010 15:31:08 6.5 C 5.47 g/m*3 6.5 C 0 km/h
1581 06-02-2010 15:56:08 6.4 C 5.36 g/m*3 6.4 C 0 km/h
1582 06-02-2010 16:21:08 6.2 C 5.44 g/m*3 6.2 C 0 km/h
1583 06-02-2010 16:46:08 6 C 5.37 g/m*3 6 C 0 km/h
1584 06-02-2010 17:11:08 5.8 C 5.44 g/m*3 5.8 C 0 km/h
1585 06-02-2010 17:36:08 5.7 C 5.48 g/m*3 5.7 C 0 km/h
1586 06-02-2010 18:01:08 5.5 C 5.41 g/m*3 5.5 C 0 km/h
1587 06-02-2010 18:26:08 5.3 C 5.41 g/m*3 5.3 C 0 km/h
1588 06-02-2010 18:51:08 5.2 C 5.37 g/m*3 5.2 C 0 km/h
1589 06-02-2010 19:16:08 5.1 C 5.4 g/m*3 5.1 C 0 km/h
1590 06-02-2010 19:41:08 5.1 C 5.4 g/m*3 5.1 C 0 km/h
1591 06-02-2010 20:06:08 5 C 5.37 g/m*3 5 C 0 km/h
1592 06-02-2010 20:31:08 4.9 C 5.4 g/m*3 4.9 C 0 km/h
1593 06-02-2010 20:56:08 4.9 C 5.47 g/m*3 4.9 C 0 km/h
1594 06-02-2010 21:21:09 4.8 C 5.43 g/m*3 4.8 C 0 km/h
1595 06-02-2010 21:46:09 4.8 C 5.43 g/m*3 4.8 C 0 km/h
1596 06-02-2010 22:11:09 4.8 C 5.5 g/m*3 4.8 C 0 km/h
1597 06-02-2010 22:36:09 4.7 C 5.46 g/m*3 4.7 C 0 km/h
1598 06-02-2010 23:01:09 4.7 C 5.46 g/m*3 4.7 C 0 km/h
1599 06-02-2010 23:26:09 4.6 C 5.43 g/m*3 4.6 C 0 km/h
1600 06-02-2010 23:51:09 4.6 C 5.43 g/m*3 4.6 C 0 km/h
Sensor: Nr:Datum:Temp:Abs-Feuchte:Windchill:Wind:
Aussen-T/F 1601 07-02-2010 00:16:09 4.5 C 5.46 g/m*3 4.5 C 0 km/h
1602 07-02-2010 00:41:09 4.5 C 5.46 g/m*3 4.5 C 0 km/h
1603 07-02-2010 01:06:09 4.5 C 5.46 g/m*3 4.5 C 0 km/h
1604 07-02-2010 01:31:09 4.6 C 5.49 g/m*3 4.6 C 0 km/h
1605 07-02-2010 01:56:09 4.4 C 5.42 g/m*3 4.4 C 0 km/h
1606 07-02-2010 02:21:09 4.2 C 5.41 g/m*3 4.2 C 0 km/h
1607 07-02-2010 02:46:09 4.1 C 5.38 g/m*3 4.1 C 0 km/h
1608 07-02-2010 03:11:09 4.1 C 5.5 g/m*3 4.1 C 0 km/h
1609 07-02-2010 03:36:09 4.1 C 5.5 g/m*3 4.1 C 0 km/h
1610 07-02-2010 04:01:09 4.1 C 5.57 g/m*3 4.1 C 0 km/h
1611 07-02-2010 04:26:09 4 C 5.59 g/m*3 4 C 0 km/h
1612 07-02-2010 04:51:09 4 C 5.59 g/m*3 4 C 0 km/h
1613 07-02-2010 05:16:09 4.1 C 5.7 g/m*3 4.1 C 0 km/h
1614 07-02-2010 05:41:09 3.8 C 5.58 g/m*3 3.8 C 0 km/h
1615 07-02-2010 06:06:10 3.8 C 5.65 g/m*3 3.8 C 0 km/h
1616 07-02-2010 06:31:10 3.8 C 5.65 g/m*3 3.8 C 0 km/h
1617 07-02-2010 06:56:10 3.8 C 5.65 g/m*3 3.8 C 0 km/h
1618 07-02-2010 07:21:10 3.7 C 5.61 g/m*3 3.7 C 0 km/h
1619 07-02-2010 07:46:10 3.7 C 5.67 g/m*3 3.7 C 0 km/h
1620 07-02-2010 08:11:10 3.8 C 5.71 g/m*3 3.8 C 0 km/h
1621 07-02-2010 08:36:10 3.7 C 5.67 g/m*3 3.7 C 0 km/h
1622 07-02-2010 09:01:10 3.8 C 5.71 g/m*3 3.8 C 0 km/h
1623 07-02-2010 09:26:10 3.9 C 5.75 g/m*3 3.9 C 0 km/h
1624 07-02-2010 09:51:10 4.1 C 5.76 g/m*3 4.1 C 0 km/h
1625 07-02-2010 10:16:10 4.1 C 5.7 g/m*3 4.1 C 0 km/h
Sensor: Nr:Datum:Temp:Abs-Feuchte:Windchill:Wind:
Aussen-T/F 1626 07-02-2010 10:41:10 4.5 C 5.72 g/m*3 4.5 C 0 km/h
1627 07-02-2010 11:06:10 4.9 C 5.6 g/m*3 4.9 C 0 km/h
1628 07-02-2010 11:31:10 4.7 C 5.13 g/m*3 4.7 C 0 km/h
1629 07-02-2010 11:56:10 4.5 C 4.93 g/m*3 4.5 C 0 km/h
1630 07-02-2010 12:21:10 5.3 C 5.06 g/m*3 5.3 C 0 km/h
1631 07-02-2010 12:46:10 5.7 C 4.84 g/m*3 5.7 C 0 km/h
1632 07-02-2010 13:11:10 5.6 C 4.67 g/m*3 5.6 C 0 km/h
1633 07-02-2010 13:36:10 5.8 C 4.66 g/m*3 5.8 C 0 km/h
1634 07-02-2010 14:01:10 6 C 4.57 g/m*3 6 C 0 km/h
1635 07-02-2010 14:26:10 6.1 C 4.53 g/m*3 6.1 C 0 km/h
1636 07-02-2010 14:51:10 5.7 C 4.41 g/m*3 5.7 C 0 km/h
1637 07-02-2010 15:16:11 5.5 C 4.49 g/m*3 5.5 C 0 km/h
1638 07-02-2010 15:41:11 5.4 C 4.47 g/m*3 5.4 C 0 km/h
1639 07-02-2010 16:06:11 5 C 4.62 g/m*3 5 C 0 km/h
1640 07-02-2010 16:31:11 4.8 C 4.76 g/m*3 4.8 C 0 km/h
1641 07-02-2010 16:56:11 4.6 C 4.83 g/m*3 4.6 C 0 km/h
1642 07-02-2010 17:21:11 4.7 C 4.93 g/m*3 4.7 C 0 km/h
1643 07-02-2010 17:46:11 4.5 C 4.93 g/m*3 4.5 C 0 km/h
1644 07-02-2010 18:11:11 4.4 C 4.96 g/m*3 4.4 C 0 km/h
1645 07-02-2010 18:36:11 4.2 C 4.96 g/m*3 4.2 C 0 km/h
1646 07-02-2010 19:01:11 4.1 C 4.86 g/m*3 4.1 C 0 km/h
1647 07-02-2010 19:26:11 3.7 C 4.49 g/m*3 3.7 C 0 km/h
1648 07-02-2010 19:51:11 3.7 C 4.42 g/m*3 3.7 C 0 km/h
1649 07-02-2010 20:16:11 3.5 C 4.37 g/m*3 3.5 C 0 km/h
1650 07-02-2010 20:41:11 3.3 C 4.37 g/m*3 3.3 C 0 km/h
Sensor: Nr:Datum:Temp:Abs-Feuchte:Windchill:Wind:
Aussen-T/F 1651 07-02-2010 21:06:11 3 C 4.22 g/m*3 3 C 0 km/h
1652 07-02-2010 21:31:11 2.7 C 4.08 g/m*3 2.7 C 0 km/h
1653 07-02-2010 21:56:11 2.5 C 3.97 g/m*3 2.5 C 0 km/h
1654 07-02-2010 22:21:11 2.4 C 3.83 g/m*3 2.4 C 0 km/h
1655 07-02-2010 22:46:11 2 C 3.56 g/m*3 2 C 0 km/h
1656 07-02-2010 23:11:11 2 C 3.67 g/m*3 2 C 0 km/h
1657 07-02-2010 23:36:12 1.7 C 3.65 g/m*3 1.7 C 0 km/h
1658 08-02-2010 00:01:12 1.4 C 3.52 g/m*3 1.4 C 0 km/h
1659 08-02-2010 00:26:12 1.6 C 3.68 g/m*3 1.6 C 0 km/h
1660 08-02-2010 00:51:12 1.4 C 3.47 g/m*3 1.4 C 0 km/h
1661 08-02-2010 01:16:12 1.2 C 3.42 g/m*3 1.2 C 0 km/h
1662 08-02-2010 01:41:12 1 C 3.43 g/m*3 1 C 0 km/h
1663 08-02-2010 02:06:12 0.8 C 3.48 g/m*3 0.8 C 0 km/h
1664 08-02-2010 02:31:12 0.8 C 3.48 g/m*3 0.8 C 0 km/h
1665 08-02-2010 02:56:12 0.7 C 3.46 g/m*3 0.7 C 0 km/h
1666 08-02-2010 03:21:12 0.5 C 3.41 g/m*3 0.5 C 0 km/h
1667 08-02-2010 03:46:12 0.5 C 3.41 g/m*3 0.5 C 0 km/h
1668 08-02-2010 04:11:12 0.3 C 3.31 g/m*3 0.3 C 0 km/h
1669 08-02-2010 04:36:12 0.3 C 3.31 g/m*3 0.3 C 0 km/h
1670 08-02-2010 05:01:12 0.2 C 3.24 g/m*3 0.2 C 0 km/h
1671 08-02-2010 05:26:12 -0.1 C 3.22 g/m*3 -0.1 C 0 km/h
1672 08-02-2010 05:51:12 -0.3 C 3.23 g/m*3 -0.3 C 0 km/h
1673 08-02-2010 06:16:12 -0.4 C 3.25 g/m*3 -0.4 C 0 km/h
1674 08-02-2010 06:41:12 -0.3 C 3.23 g/m*3 -0.3 C 0 km/h
1675 08-02-2010 07:06:12 -0.5 C 3.18 g/m*3 -0.5 C 0 km/h
Sensor: Nr:Datum:Temp:Abs-Feuchte:Windchill:Wind:
Aussen-T/F 1676 08-02-2010 07:31:12 -0.6 C 3.16 g/m*3 -0.6 C 0 km/h
1677 08-02-2010 07:56:12 -0.8 C 3.07 g/m*3 -0.8 C 0 km/h
1678 08-02-2010 08:21:13 -0.9 C 3.05 g/m*3 -0.9 C 0 km/h
1679 08-02-2010 08:46:13 -0.9 C 3 g/m*3 -0.9 C 0 km/h
1680 08-02-2010 09:11:13 -0.7 C 3 g/m*3 -0.7 C 0 km/h
1681 08-02-2010 09:36:13 -0.8 C 2.93 g/m*3 -0.8 C 0 km/h
1682 08-02-2010 10:01:13 -0.6 C 2.93 g/m*3 -0.6 C 0 km/h
1683 08-02-2010 10:26:13 -0.6 C 2.88 g/m*3 -0.6 C 0 km/h
1684 08-02-2010 10:51:13 -0.5 C 2.9 g/m*3 -0.5 C 0 km/h
1685 08-02-2010 11:16:13 -0.5 C 2.86 g/m*3 -0.5 C 0 km/h
1686 08-02-2010 11:41:13 -0.2 C 2.72 g/m*3 -0.2 C 0 km/h
1687 08-02-2010 12:06:13 -0.3 C 2.66 g/m*3 -0.3 C 0 km/h
1688 08-02-2010 12:31:13 -0.4 C 2.5 g/m*3 -0.4 C 0 km/h
1689 08-02-2010 12:56:13 0.3 C 2.57 g/m*3 0.3 C 0 km/h
1690 08-02-2010 13:21:13 0.5 C 2.56 g/m*3 0.5 C 0 km/h
1691 08-02-2010 13:46:13 0.8 C 2.66 g/m*3 0.8 C 0 km/h
1692 08-02-2010 14:11:13 0.6 C 2.63 g/m*3 0.6 C 0 km/h
1693 08-02-2010 14:36:13 0.5 C 2.66 g/m*3 0.5 C 0 km/h
1694 08-02-2010 15:01:13 -0.2 C 2.63 g/m*3 -0.2 C 0 km/h
1695 08-02-2010 15:26:13 -0.6 C 2.6 g/m*3 -0.6 C 0 km/h
1696 08-02-2010 15:51:13 -1.1 C 2.51 g/m*3 -1.1 C 0 km/h
1697 08-02-2010 16:16:13 -1.1 C 2.6 g/m*3 -1.1 C 0 km/h
1698 08-02-2010 16:41:13 -1.4 C 2.55 g/m*3 -1.4 C 0 km/h
1699 08-02-2010 17:06:13 -1.9 C 2.55 g/m*3 -1.9 C 0 km/h
1700 08-02-2010 17:31:14 -2.1 C 2.51 g/m*3 -2.1 C 0 km/h
Sensor: Nr:Datum:Temp:Abs-Feuchte:Windchill:Wind:
Aussen-T/F 1701 08-02-2010 17:56:14 -2.3 C 2.48 g/m*3 -2.3 C 0 km/h
1702 08-02-2010 18:21:14 -2.3 C 2.52 g/m*3 -2.3 C 0 km/h
1703 08-02-2010 18:46:14 -2.4 C 2.5 g/m*3 -2.4 C 0 km/h
1704 08-02-2010 19:11:14 -2.4 C 2.5 g/m*3 -2.4 C 0 km/h
1705 08-02-2010 19:36:14 -2.5 C 2.48 g/m*3 -2.5 C 0 km/h
1706 08-02-2010 20:01:14 -2.6 C 2.46 g/m*3 -2.6 C 0 km/h
1707 08-02-2010 20:26:14 -2.6 C 2.46 g/m*3 -2.6 C 0 km/h
1708 08-02-2010 20:51:14 -2.6 C 2.51 g/m*3 -2.6 C 0 km/h
1709 08-02-2010 21:16:14 -2.6 C 2.51 g/m*3 -2.6 C 0 km/h
1710 08-02-2010 21:41:14 -2.6 C 2.51 g/m*3 -2.6 C 0 km/h
1711 08-02-2010 22:06:14 -2.5 C 2.52 g/m*3 -2.5 C 0 km/h
1712 08-02-2010 22:31:14 -2.7 C 2.45 g/m*3 -2.7 C 0 km/h
1713 08-02-2010 22:56:14 -2.8 C 2.39 g/m*3 -2.8 C 0 km/h
1714 08-02-2010 23:21:14 -3.1 C 2.34 g/m*3 -3.1 C 0 km/h
1715 08-02-2010 23:46:14 -3.1 C 2.34 g/m*3 -3.1 C 0 km/h
1716 09-02-2010 00:11:14 -3.3 C 2.31 g/m*3 -3.3 C 0 km/h
1717 09-02-2010 00:36:14 -3.4 C 2.33 g/m*3 -3.4 C 0 km/h
1718 09-02-2010 01:01:14 -3.3 C 2.38 g/m*3 -3.3 C 0 km/h
1719 09-02-2010 01:26:14 -3.2 C 2.36 g/m*3 -3.2 C 0 km/h
1720 09-02-2010 01:51:14 -3.3 C 2.35 g/m*3 -3.3 C 0 km/h
1721 09-02-2010 02:16:14 -3.2 C 2.36 g/m*3 -3.2 C 0 km/h
1722 09-02-2010 02:41:15 -3.2 C 2.32 g/m*3 -3.2 C 0 km/h
1723 09-02-2010 03:06:15 -3.2 C 2.32 g/m*3 -3.2 C 0 km/h
1724 09-02-2010 03:31:15 -3.4 C 2.29 g/m*3 -3.4 C 0 km/h
1725 09-02-2010 03:56:15 -3.4 C 2.29 g/m*3 -3.4 C 0 km/h
Sensor: Nr:Datum:Temp:Abs-Feuchte:Windchill:Wind:
Aussen-T/F 1726 09-02-2010 04:21:15 -3.4 C 2.29 g/m*3 -3.4 C 0 km/h
1727 09-02-2010 04:46:15 -3.5 C 2.27 g/m*3 -3.5 C 0 km/h
1728 09-02-2010 05:11:15 -3.5 C 2.27 g/m*3 -3.5 C 0 km/h
1729 09-02-2010 05:36:15 -3.5 C 2.27 g/m*3 -3.5 C 0 km/h
1730 09-02-2010 06:01:15 -3.7 C 2.28 g/m*3 -3.7 C 0 km/h
1731 09-02-2010 06:26:15 -3.7 C 2.32 g/m*3 -3.7 C 0 km/h
1732 09-02-2010 06:51:15 -3.7 C 2.32 g/m*3 -3.7 C 0 km/h
1733 09-02-2010 07:16:15 -3.8 C 2.26 g/m*3 -3.8 C 0 km/h
1734 09-02-2010 07:41:15 -3.8 C 2.3 g/m*3 -3.8 C 0 km/h
1735 09-02-2010 08:06:15 -3.9 C 2.28 g/m*3 -3.9 C 0 km/h
1736 09-02-2010 08:31:15 -3.9 C 2.28 g/m*3 -3.9 C 0 km/h
1737 09-02-2010 08:56:15 -4.1 C 2.25 g/m*3 -4.1 C 0 km/h
1738 09-02-2010 09:21:15 -4 C 2.27 g/m*3 -4 C 0 km/h
1739 09-02-2010 09:46:15 -3.9 C 2.32 g/m*3 -3.9 C 0 km/h
1740 09-02-2010 10:11:15 -4 C 2.38 g/m*3 -4 C 0 km/h
1741 09-02-2010 10:36:15 -3.6 C 2.52 g/m*3 -3.6 C 0 km/h
1742 09-02-2010 11:01:15 -3.2 C 2.56 g/m*3 -3.2 C 0 km/h
1743 09-02-2010 11:26:15 -3.4 C 2.37 g/m*3 -3.4 C 0 km/h
1744 09-02-2010 11:51:16 -3.5 C 2.35 g/m*3 -3.5 C 0 km/h
1745 09-02-2010 12:16:16 -3.4 C 2.25 g/m*3 -3.4 C 0 km/h
1746 09-02-2010 12:41:16 -3.1 C 2.18 g/m*3 -3.1 C 0 km/h
1747 09-02-2010 13:06:16 -2.8 C 2.23 g/m*3 -2.8 C 0 km/h
1748 09-02-2010 13:31:16 -2.8 C 2.11 g/m*3 -2.8 C 0 km/h
1749 09-02-2010 13:56:16 -3 C 2.04 g/m*3 -3 C 0 km/h
1750 09-02-2010 14:21:16 -3.4 C 2.02 g/m*3 -3.4 C 0 km/h
Sensor: Nr:Datum:Temp:Abs-Feuchte:Windchill:Wind:
Aussen-T/F 1751 09-02-2010 14:46:16 -3.5 C 2.01 g/m*3 -3.5 C 0 km/h
1752 09-02-2010 15:11:16 -3.5 C 1.97 g/m*3 -3.5 C 0 km/h
1753 09-02-2010 15:36:16 -3.6 C 2 g/m*3 -3.6 C 0 km/h
1754 09-02-2010 16:01:16 -3.8 C 1.97 g/m*3 -3.8 C 0 km/h
1755 09-02-2010 16:26:16 -3.6 C 2 g/m*3 -3.6 C 0 km/h
1756 09-02-2010 16:51:16 -3.5 C 1.97 g/m*3 -3.5 C 0 km/h
1757 09-02-2010 17:16:16 -3.9 C 2.03 g/m*3 -3.9 C 0 km/h
1758 09-02-2010 17:41:16 -4 C 2.09 g/m*3 -4 C 0 km/h
1759 09-02-2010 18:06:16 -4.1 C 2.14 g/m*3 -4.1 C 0 km/h
1760 09-02-2010 18:31:16 -4.1 C 2.14 g/m*3 -4.1 C 0 km/h
1761 09-02-2010 18:56:16 -4.2 C 2.09 g/m*3 -4.2 C 0 km/h
1762 09-02-2010 19:21:16 -4.1 C 2.18 g/m*3 -4.1 C 0 km/h
1763 09-02-2010 19:46:16 -4.1 C 2.18 g/m*3 -4.1 C 0 km/h
1764 09-02-2010 20:11:16 -4.5 C 2.08 g/m*3 -4.5 C 0 km/h
1765 09-02-2010 20:36:16 -4.6 C 2.1 g/m*3 -4.6 C 0 km/h
1766 09-02-2010 21:01:17 -4.6 C 1.93 g/m*3 -4.6 C 0 km/h
1767 09-02-2010 21:26:17 -4.6 C 1.75 g/m*3 -4.6 C 0 km/h
1768 09-02-2010 21:51:17 -4.7 C 1.77 g/m*3 -4.7 C 0 km/h
1769 09-02-2010 22:16:17 -4.6 C 1.82 g/m*3 -4.6 C 0 km/h
1770 09-02-2010 22:41:17 -4.5 C 1.87 g/m*3 -4.5 C 0 km/h
1771 09-02-2010 23:06:17 -4.6 C 1.93 g/m*3 -4.6 C 0 km/h
1772 09-02-2010 23:31:17 -4.5 C 1.94 g/m*3 -4.5 C 0 km/h
1773 09-02-2010 23:56:17 -4.5 C 1.94 g/m*3 -4.5 C 0 km/h
1774 10-02-2010 00:21:17 -4.6 C 2.07 g/m*3 -4.6 C 0 km/h
1775 10-02-2010 00:46:17 -4.7 C 2.12 g/m*3 -4.7 C 0 km/h
Sensor: Nr:Datum:Temp:Abs-Feuchte:Windchill:Wind:
Aussen-T/F 1776 10-02-2010 01:11:17 -4.7 C 2.12 g/m*3 -4.7 C 0 km/h
1777 10-02-2010 01:36:17 -4.7 C 2.16 g/m*3 -4.7 C 0 km/h
1778 10-02-2010 02:01:17 -4.7 C 2.23 g/m*3 -4.7 C 0 km/h
1779 10-02-2010 02:26:17 -4.6 C 2.28 g/m*3 -4.6 C 0 km/h
1780 10-02-2010 02:51:17 -4.7 C 2.3 g/m*3 -4.7 C 0 km/h
1781 10-02-2010 03:16:17 -4.7 C 2.33 g/m*3 -4.7 C 0 km/h
1782 10-02-2010 03:41:17 -4.9 C 2.33 g/m*3 -4.9 C 0 km/h
1783 10-02-2010 04:06:17 -4.9 C 2.3 g/m*3 -4.9 C 0 km/h
1784 10-02-2010 04:31:17 -5 C 2.32 g/m*3 -5 C 0 km/h
1785 10-02-2010 04:56:17 -5 C 2.35 g/m*3 -5 C 0 km/h
1786 10-02-2010 05:21:17 -5 C 2.38 g/m*3 -5 C 0 km/h
1787 10-02-2010 05:46:17 -5 C 2.35 g/m*3 -5 C 0 km/h
1788 10-02-2010 06:11:18 -5 C 2.35 g/m*3 -5 C 0 km/h
1789 10-02-2010 06:36:18 -5.2 C 2.32 g/m*3 -5.2 C 0 km/h
1790 10-02-2010 07:01:18 -5.4 C 2.28 g/m*3 -5.4 C 0 km/h
1791 10-02-2010 07:26:18 -5.6 C 2.31 g/m*3 -5.6 C 0 km/h
1792 10-02-2010 07:51:18 -5.4 C 2.38 g/m*3 -5.4 C 0 km/h
1793 10-02-2010 08:16:18 -5.5 C 2.36 g/m*3 -5.5 C 0 km/h
1794 10-02-2010 08:41:18 -5.3 C 2.33 g/m*3 -5.3 C 0 km/h
1795 10-02-2010 09:06:18 -5 C 2.42 g/m*3 -5 C 0 km/h
1796 10-02-2010 09:31:18 -4.7 C 2.4 g/m*3 -4.7 C 0 km/h
1797 10-02-2010 09:56:18 -4.7 C 2.4 g/m*3 -4.7 C 0 km/h
1798 10-02-2010 10:21:18 -4.4 C 2.45 g/m*3 -4.4 C 0 km/h
1799 10-02-2010 10:46:18 -4.4 C 2.35 g/m*3 -4.4 C 0 km/h
1800 10-02-2010 11:11:18 -4 C 2.41 g/m*3 -4 C 0 km/h
Sensor: Nr:Datum:Temp:Abs-Feuchte:Windchill:Wind:
Aussen-T/F 1801 10-02-2010 11:36:18 -3.7 C 2.35 g/m*3 -3.7 C 0 km/h
1802 10-02-2010 12:01:18 -3.7 C 2.39 g/m*3 -3.7 C 0 km/h
1803 10-02-2010 12:26:18 -3.2 C 2.32 g/m*3 -3.2 C 0 km/h
1804 10-02-2010 12:51:18 -3.4 C 2.37 g/m*3 -3.4 C 0 km/h
1805 10-02-2010 13:16:18 -3.2 C 2.52 g/m*3 -3.2 C 0 km/h
1806 10-02-2010 13:41:18 -2.6 C 2.26 g/m*3 -2.6 C 0 km/h
1807 10-02-2010 14:06:18 -3.2 C 2.21 g/m*3 -3.2 C 0 km/h
1808 10-02-2010 14:31:18 -3.3 C 2.27 g/m*3 -3.3 C 0 km/h
1809 10-02-2010 14:56:18 -3.2 C 2.25 g/m*3 -3.2 C 0 km/h
1810 10-02-2010 15:21:18 -3.3 C 2.42 g/m*3 -3.3 C 0 km/h
1811 10-02-2010 15:46:19 -3 C 2.24 g/m*3 -3 C 0 km/h
1812 10-02-2010 16:11:19 -3.4 C 2.29 g/m*3 -3.4 C 0 km/h
1813 10-02-2010 16:36:19 -3.5 C 2.27 g/m*3 -3.5 C 0 km/h
1814 10-02-2010 17:01:19 -3.4 C 2.29 g/m*3 -3.4 C 0 km/h
1815 10-02-2010 17:26:19 -3.8 C 2.3 g/m*3 -3.8 C 0 km/h
1816 10-02-2010 17:51:19 -4.4 C 2.42 g/m*3 -4.4 C 0 km/h
1817 10-02-2010 18:16:19 -5.2 C 2.32 g/m*3 -5.2 C 0 km/h
1818 10-02-2010 18:41:19 -5.2 C 2.45 g/m*3 -5.2 C 0 km/h
1819 10-02-2010 19:06:19 -5.3 C 2.37 g/m*3 -5.3 C 0 km/h
1820 10-02-2010 19:31:19 -6 C 2.28 g/m*3 -6 C 0 km/h
1821 10-02-2010 19:56:19 -6.2 C 2.31 g/m*3 -6.2 C 0 km/h
1822 10-02-2010 20:21:19 -6.5 C 2.29 g/m*3 -6.5 C 0 km/h
1823 10-02-2010 20:46:19 -6.3 C 2.35 g/m*3 -6.3 C 0 km/h
1824 10-02-2010 21:11:19 -6.1 C 2.39 g/m*3 -6.1 C 0 km/h
1825 10-02-2010 21:36:19 -6.6 C 2.27 g/m*3 -6.6 C 0 km/h
Sensor: Nr:Datum:Temp:Abs-Feuchte:Windchill:Wind:
Aussen-T/F 1826 10-02-2010 22:01:19 -6.3 C 2.35 g/m*3 -6.3 C 0 km/h
1827 10-02-2010 22:26:19 -6.5 C 2.26 g/m*3 -6.5 C 0 km/h
1828 10-02-2010 22:51:19 -6.9 C 2.16 g/m*3 -6.9 C 0 km/h
1829 10-02-2010 23:16:19 -7.4 C 2.09 g/m*3 -7.4 C 0 km/h
1830 10-02-2010 23:41:19 -7 C 2.18 g/m*3 -7 C 0 km/h
1831 11-02-2010 00:06:20 -6.5 C 2.29 g/m*3 -6.5 C 0 km/h
1832 11-02-2010 00:31:20 -6.5 C 2.17 g/m*3 -6.5 C 0 km/h
1833 11-02-2010 00:56:20 -6.6 C 2.12 g/m*3 -6.6 C 0 km/h
1834 11-02-2010 01:21:20 -7.5 C 1.96 g/m*3 -7.5 C 0 km/h
1835 11-02-2010 01:46:20 -8.1 C 1.9 g/m*3 -8.1 C 0 km/h
1836 11-02-2010 02:11:20 -7.7 C 2.04 g/m*3 -7.7 C 0 km/h
1837 11-02-2010 02:36:20 -7.4 C 2.09 g/m*3 -7.4 C 0 km/h
1838 11-02-2010 03:01:20 -7.2 C 2.12 g/m*3 -7.2 C 0 km/h
1839 11-02-2010 03:26:20 -6.9 C 2.14 g/m*3 -6.9 C 0 km/h
1840 11-02-2010 03:51:20 -6.8 C 2.12 g/m*3 -6.8 C 0 km/h
1841 11-02-2010 04:16:20 -6.8 C 2.09 g/m*3 -6.8 C 0 km/h
1842 11-02-2010 04:41:20 -6.4 C 2.18 g/m*3 -6.4 C 0 km/h
1843 11-02-2010 05:06:20 -6.2 C 2.18 g/m*3 -6.2 C 0 km/h
1844 11-02-2010 05:31:20 -6.1 C 2.23 g/m*3 -6.1 C 0 km/h
1845 11-02-2010 05:56:20 -6 C 2.31 g/m*3 -6 C 0 km/h
1846 11-02-2010 06:21:20 -5.9 C 2.36 g/m*3 -5.9 C 0 km/h
1847 11-02-2010 06:46:20 -5.8 C 2.44 g/m*3 -5.8 C 0 km/h
1848 11-02-2010 07:11:20 -5.7 C 2.46 g/m*3 -5.7 C 0 km/h
1849 11-02-2010 07:36:20 -5.6 C 2.51 g/m*3 -5.6 C 0 km/h
1850 11-02-2010 08:01:20 -5.5 C 2.56 g/m*3 -5.5 C 0 km/h
Sensor: Nr:Datum:Temp:Abs-Feuchte:Windchill:Wind:
Aussen-T/F 1851 11-02-2010 08:26:20 -5.4 C 2.58 g/m*3 -5.4 C 0 km/h
1852 11-02-2010 08:51:20 -5.2 C 2.62 g/m*3 -5.2 C 0 km/h
1853 11-02-2010 09:16:20 -4.9 C 2.64 g/m*3 -4.9 C 0 km/h
1854 11-02-2010 09:41:21 -4.5 C 2.68 g/m*3 -4.5 C 0 km/h
1855 11-02-2010 10:06:21 -4 C 2.74 g/m*3 -4 C 0 km/h
1856 11-02-2010 10:31:21 -3.7 C 2.77 g/m*3 -3.7 C 0 km/h
1857 11-02-2010 10:56:21 -3.3 C 2.77 g/m*3 -3.3 C 0 km/h
1858 11-02-2010 11:21:21 -2.9 C 2.77 g/m*3 -2.9 C 0 km/h
1859 11-02-2010 11:46:21 -2.7 C 2.81 g/m*3 -2.7 C 0 km/h
1860 11-02-2010 12:11:21 -2.5 C 2.89 g/m*3 -2.5 C 0 km/h
1861 11-02-2010 12:36:21 -2 C 2.99 g/m*3 -2 C 0 km/h
1862 11-02-2010 13:01:21 -1.5 C 3.1 g/m*3 -1.5 C 0 km/h
1863 11-02-2010 13:26:21 -1.1 C 3.05 g/m*3 -1.1 C 0 km/h
1864 11-02-2010 13:51:21 -1.3 C 2.92 g/m*3 -1.3 C 0 km/h
1865 11-02-2010 14:16:21 -1.1 C 3.1 g/m*3 -1.1 C 0 km/h
1866 11-02-2010 14:41:21 -1.2 C 2.94 g/m*3 -1.2 C 0 km/h
1867 11-02-2010 15:06:21 -1.2 C 2.9 g/m*3 -1.2 C 0 km/h
1868 11-02-2010 15:31:21 -1.6 C 2.86 g/m*3 -1.6 C 0 km/h
1869 11-02-2010 15:56:21 -1.3 C 2.88 g/m*3 -1.3 C 0 km/h
1870 11-02-2010 16:21:21 -1.4 C 2.9 g/m*3 -1.4 C 0 km/h
1871 11-02-2010 16:46:21 -1.6 C 2.9 g/m*3 -1.6 C 0 km/h
1872 11-02-2010 17:11:21 -1.7 C 2.84 g/m*3 -1.7 C 0 km/h
1873 11-02-2010 17:36:21 -1.7 C 2.76 g/m*3 -1.7 C 0 km/h
1874 11-02-2010 18:01:21 -1.8 C 2.74 g/m*3 -1.8 C 0 km/h
1875 11-02-2010 18:26:21 -1.8 C 2.74 g/m*3 -1.8 C 0 km/h
Sensor: Nr:Datum:Temp:Abs-Feuchte:Windchill:Wind:
Aussen-T/F 1876 11-02-2010 18:51:22 -1.8 C 2.69 g/m*3 -1.8 C 0 km/h
1877 11-02-2010 19:16:22 -1.8 C 2.65 g/m*3 -1.8 C 0 km/h
1878 11-02-2010 19:41:22 -1.8 C 2.65 g/m*3 -1.8 C 0 km/h
1879 11-02-2010 20:06:22 -1.8 C 2.65 g/m*3 -1.8 C 0 km/h
1880 11-02-2010 20:31:22 -1.8 C 2.69 g/m*3 -1.8 C 0 km/h
1881 11-02-2010 20:56:22 -1.8 C 2.74 g/m*3 -1.8 C 0 km/h
1882 11-02-2010 21:21:22 -2.1 C 2.85 g/m*3 -2.1 C 0 km/h
1883 11-02-2010 21:46:22 -2.2 C 2.95 g/m*3 -2.2 C 0 km/h
1884 11-02-2010 22:11:22 -2.5 C 3.05 g/m*3 -2.5 C 0 km/h
1885 11-02-2010 22:36:22 -2.5 C 3.09 g/m*3 -2.5 C 0 km/h
1886 11-02-2010 23:01:22 -2.5 C 3.13 g/m*3 -2.5 C 0 km/h
1887 11-02-2010 23:26:22 -2.6 C 3.15 g/m*3 -2.6 C 0 km/h
1888 11-02-2010 23:51:22 -2.5 C 3.17 g/m*3 -2.5 C 0 km/h
1889 12-02-2010 00:16:22 -2.6 C 3.19 g/m*3 -2.6 C 0 km/h
1890 12-02-2010 00:41:22 -2.7 C 3.21 g/m*3 -2.7 C 0 km/h
1891 12-02-2010 01:06:22 -2.7 C 3.21 g/m*3 -2.7 C 0 km/h
1892 12-02-2010 01:31:22 -2.7 C 3.21 g/m*3 -2.7 C 0 km/h
1893 12-02-2010 01:56:22 -2.6 C 3.19 g/m*3 -2.6 C 0 km/h
1894 12-02-2010 02:21:22 -2.6 C 3.19 g/m*3 -2.6 C 0 km/h
1895 12-02-2010 02:46:22 -2.6 C 3.15 g/m*3 -2.6 C 0 km/h
1896 12-02-2010 03:11:22 -2.6 C 3.19 g/m*3 -2.6 C 0 km/h
1897 12-02-2010 03:36:22 -2.7 C 3.17 g/m*3 -2.7 C 0 km/h
1898 12-02-2010 04:01:23 -2.6 C 3.23 g/m*3 -2.6 C 0 km/h
1899 12-02-2010 04:26:23 -2.6 C 3.19 g/m*3 -2.6 C 0 km/h
1900 12-02-2010 04:51:23 -2.6 C 3.19 g/m*3 -2.6 C 0 km/h
Sensor: Nr:Datum:Temp:Abs-Feuchte:Windchill:Wind:
Aussen-T/F 1901 12-02-2010 05:16:23 -2.6 C 3.19 g/m*3 -2.6 C 0 km/h
1902 12-02-2010 05:41:23 -2.5 C 3.21 g/m*3 -2.5 C 0 km/h
1903 12-02-2010 06:06:23 -2.6 C 3.15 g/m*3 -2.6 C 0 km/h
1904 12-02-2010 06:31:23 -2.5 C 3.17 g/m*3 -2.5 C 0 km/h
1905 12-02-2010 06:56:23 -2.6 C 3.19 g/m*3 -2.6 C 0 km/h
1906 12-02-2010 07:21:23 -2.7 C 3.17 g/m*3 -2.7 C 0 km/h
1907 12-02-2010 07:46:23 -2.8 C 3.07 g/m*3 -2.8 C 0 km/h
1908 12-02-2010 08:11:23 -2.7 C 3.01 g/m*3 -2.7 C 0 km/h
1909 12-02-2010 08:36:23 -2.6 C 3.03 g/m*3 -2.6 C 0 km/h
1910 12-02-2010 09:01:23 -2.6 C 3.03 g/m*3 -2.6 C 0 km/h
1911 12-02-2010 09:26:23 -2.5 C 3.01 g/m*3 -2.5 C 0 km/h
1912 12-02-2010 09:51:23 -2.3 C 2.97 g/m*3 -2.3 C 0 km/h
1913 12-02-2010 10:16:23 -2.1 C 2.93 g/m*3 -2.1 C 0 km/h
1914 12-02-2010 10:41:23 -1.9 C 2.84 g/m*3 -1.9 C 0 km/h
1915 12-02-2010 11:06:23 -1.2 C 2.9 g/m*3 -1.2 C 0 km/h
1916 12-02-2010 11:31:23 -1.3 C 2.74 g/m*3 -1.3 C 0 km/h
1917 12-02-2010 11:56:23 -1 C 2.71 g/m*3 -1 C 0 km/h
1918 12-02-2010 12:21:23 -1.1 C 2.69 g/m*3 -1.1 C 0 km/h
1919 12-02-2010 12:46:23 -1.4 C 2.77 g/m*3 -1.4 C 0 km/h
1920 12-02-2010 13:11:24 -1.2 C 2.85 g/m*3 -1.2 C 0 km/h
1921 12-02-2010 13:36:24 -1.2 C 2.9 g/m*3 -1.2 C 0 km/h
1922 12-02-2010 14:01:24 -1.1 C 2.92 g/m*3 -1.1 C 0 km/h
1923 12-02-2010 14:26:24 -0.7 C 2.95 g/m*3 -0.7 C 0 km/h
1924 12-02-2010 14:51:24 -0.5 C 2.95 g/m*3 -0.5 C 0 km/h
1925 12-02-2010 15:16:24 -0.8 C 2.84 g/m*3 -0.8 C 0 km/h
Sensor: Nr:Datum:Temp:Abs-Feuchte:Windchill:Wind:
Aussen-T/F 1926 12-02-2010 15:41:24 -0.8 C 2.89 g/m*3 -0.8 C 0 km/h
1927 12-02-2010 16:06:24 -0.9 C 2.91 g/m*3 -0.9 C 0 km/h
1928 12-02-2010 16:31:24 -1.2 C 2.85 g/m*3 -1.2 C 0 km/h
1929 12-02-2010 16:56:24 -1.2 C 2.76 g/m*3 -1.2 C 0 km/h
1930 12-02-2010 17:21:24 -1.4 C 2.73 g/m*3 -1.4 C 0 km/h
1931 12-02-2010 17:46:24 -1.9 C 2.76 g/m*3 -1.9 C 0 km/h
1932 12-02-2010 18:11:24 -2.1 C 2.72 g/m*3 -2.1 C 0 km/h
1933 12-02-2010 18:36:24 -2.2 C 2.78 g/m*3 -2.2 C 0 km/h
1934 12-02-2010 19:01:24 -2.4 C 2.66 g/m*3 -2.4 C 0 km/h
1935 12-02-2010 19:26:24 -2.5 C 2.69 g/m*3 -2.5 C 0 km/h
1936 12-02-2010 19:51:24 -2.5 C 2.73 g/m*3 -2.5 C 0 km/h
1937 12-02-2010 20:16:24 -2.6 C 2.71 g/m*3 -2.6 C 0 km/h
1938 12-02-2010 20:41:24 -2.6 C 2.75 g/m*3 -2.6 C 0 km/h
1939 12-02-2010 21:06:24 -2.6 C 2.71 g/m*3 -2.6 C 0 km/h
1940 12-02-2010 21:31:24 -2.7 C 2.73 g/m*3 -2.7 C 0 km/h
1941 12-02-2010 21:56:25 -2.8 C 2.71 g/m*3 -2.8 C 0 km/h
1942 12-02-2010 22:21:25 -2.8 C 2.75 g/m*3 -2.8 C 0 km/h
1943 12-02-2010 22:46:25 -2.9 C 2.73 g/m*3 -2.9 C 0 km/h
1944 12-02-2010 23:11:25 -3 C 2.71 g/m*3 -3 C 0 km/h
1945 12-02-2010 23:36:25 -3.2 C 2.67 g/m*3 -3.2 C 0 km/h
1946 13-02-2010 00:01:25 -3.2 C 2.71 g/m*3 -3.2 C 0 km/h
1947 13-02-2010 00:26:25 -3.4 C 2.75 g/m*3 -3.4 C 0 km/h
1948 13-02-2010 00:51:25 -3.7 C 2.73 g/m*3 -3.7 C 0 km/h
1949 13-02-2010 01:16:25 -3.9 C 2.76 g/m*3 -3.9 C 0 km/h
1950 13-02-2010 01:41:25 -4 C 2.78 g/m*3 -4 C 0 km/h
Sensor: Nr:Datum:Temp:Abs-Feuchte:Windchill:Wind:
Aussen-T/F 1951 13-02-2010 02:06:25 -3.9 C 2.8 g/m*3 -3.9 C 0 km/h
1952 13-02-2010 02:31:25 -4 C 2.74 g/m*3 -4 C 0 km/h
1953 13-02-2010 02:56:25 -4.1 C 2.69 g/m*3 -4.1 C 0 km/h
1954 13-02-2010 03:21:25 -4.2 C 2.7 g/m*3 -4.2 C 0 km/h
1955 13-02-2010 03:46:25 -4.2 C 2.74 g/m*3 -4.2 C 0 km/h
1956 13-02-2010 04:11:25 -4.2 C 2.74 g/m*3 -4.2 C 0 km/h
1957 13-02-2010 04:36:25 -4.1 C 2.8 g/m*3 -4.1 C 0 km/h
1958 13-02-2010 05:01:25 -4.1 C 2.8 g/m*3 -4.1 C 0 km/h
1959 13-02-2010 05:26:25 -4 C 2.82 g/m*3 -4 C 0 km/h
1960 13-02-2010 05:51:25 -3.8 C 2.86 g/m*3 -3.8 C 0 km/h
1961 13-02-2010 06:16:26 -3.9 C 2.84 g/m*3 -3.9 C 0 km/h
1962 13-02-2010 06:41:26 -3.8 C 2.86 g/m*3 -3.8 C 0 km/h
1963 13-02-2010 07:06:26 -3.7 C 2.84 g/m*3 -3.7 C 0 km/h
1964 13-02-2010 07:31:26 -3.8 C 2.78 g/m*3 -3.8 C 0 km/h
1965 13-02-2010 07:56:26 -3.8 C 2.82 g/m*3 -3.8 C 0 km/h
1966 13-02-2010 08:21:26 -3.6 C 2.86 g/m*3 -3.6 C 0 km/h
1967 13-02-2010 08:46:26 -3.2 C 2.9 g/m*3 -3.2 C 0 km/h
1968 13-02-2010 09:11:26 -2.9 C 2.89 g/m*3 -2.9 C 0 km/h
1969 13-02-2010 09:36:26 -2.6 C 2.91 g/m*3 -2.6 C 0 km/h
1970 13-02-2010 10:01:26 -2.7 C 2.73 g/m*3 -2.7 C 0 km/h
1971 13-02-2010 10:26:26 -2.4 C 2.7 g/m*3 -2.4 C 0 km/h
1972 13-02-2010 10:51:26 -2.3 C 2.64 g/m*3 -2.3 C 0 km/h
1973 13-02-2010 11:16:26 -1.9 C 2.76 g/m*3 -1.9 C 0 km/h
1974 13-02-2010 11:41:26 -1.5 C 2.66 g/m*3 -1.5 C 0 km/h
1975 13-02-2010 12:06:26 -1.3 C 2.7 g/m*3 -1.3 C 0 km/h
Sensor: Nr:Datum:Temp:Abs-Feuchte:Windchill:Wind:
Aussen-T/F 1976 13-02-2010 12:31:26 -0.5 C 2.86 g/m*3 -0.5 C 0 km/h
1977 13-02-2010 12:56:26 -1.2 C 2.67 g/m*3 -1.2 C 0 km/h
1978 13-02-2010 13:21:26 -1.4 C 2.73 g/m*3 -1.4 C 0 km/h
1979 13-02-2010 13:46:26 -1 C 2.76 g/m*3 -1 C 0 km/h
1980 13-02-2010 14:11:26 -1.1 C 2.51 g/m*3 -1.1 C 0 km/h
1981 13-02-2010 14:36:26 0 C 2.76 g/m*3 0 C 0 km/h
1982 13-02-2010 15:01:27 -0.3 C 2.56 g/m*3 -0.3 C 0 km/h
1983 13-02-2010 15:26:27 -0.5 C 2.57 g/m*3 -0.5 C 0 km/h
1984 13-02-2010 15:51:27 -0.7 C 2.54 g/m*3 -0.7 C 0 km/h
1985 13-02-2010 16:16:27 -0.9 C 2.55 g/m*3 -0.9 C 0 km/h
1986 13-02-2010 16:41:27 -1 C 2.58 g/m*3 -1 C 0 km/h
1987 13-02-2010 17:06:27 -1.4 C 2.68 g/m*3 -1.4 C 0 km/h
1988 13-02-2010 17:31:27 -1.9 C 2.8 g/m*3 -1.9 C 0 km/h
1989 13-02-2010 17:56:27 -2 C 2.91 g/m*3 -2 C 0 km/h
1990 13-02-2010 18:21:27 -2 C 2.95 g/m*3 -2 C 0 km/h
1991 13-02-2010 18:46:27 -2.1 C 2.97 g/m*3 -2.1 C 0 km/h
1992 13-02-2010 19:11:27 -2.2 C 2.99 g/m*3 -2.2 C 0 km/h
1993 13-02-2010 19:36:27 -2.1 C 3.01 g/m*3 -2.1 C 0 km/h
1994 13-02-2010 20:01:27 -2.2 C 2.99 g/m*3 -2.2 C 0 km/h
1995 13-02-2010 20:26:27 -2.3 C 3.01 g/m*3 -2.3 C 0 km/h
1996 13-02-2010 20:51:27 -2.4 C 2.99 g/m*3 -2.4 C 0 km/h
1997 13-02-2010 21:16:27 -2.4 C 2.99 g/m*3 -2.4 C 0 km/h
1998 13-02-2010 21:41:27 -2.4 C 2.99 g/m*3 -2.4 C 0 km/h
1999 13-02-2010 22:06:27 -2.5 C 2.97 g/m*3 -2.5 C 0 km/h
2000 13-02-2010 22:31:27 -2.6 C 2.99 g/m*3 -2.6 C 0 km/h
Sensor: Nr:Datum:Temp:Abs-Feuchte:Windchill:Wind:
Aussen-T/F 2001 13-02-2010 22:56:27 -2.5 C 3.05 g/m*3 -2.5 C 0 km/h
2002 13-02-2010 23:21:28 -2.7 C 3.05 g/m*3 -2.7 C 0 km/h
2003 13-02-2010 23:46:28 -2.8 C 3.03 g/m*3 -2.8 C 0 km/h
2004 14-02-2010 00:11:28 -2.9 C 3.01 g/m*3 -2.9 C 0 km/h
2005 14-02-2010 00:36:28 -3.1 C 3 g/m*3 -3.1 C 0 km/h
2006 14-02-2010 01:01:28 -3.2 C 2.98 g/m*3 -3.2 C 0 km/h
2007 14-02-2010 01:26:28 -3.3 C 2.96 g/m*3 -3.3 C 0 km/h
2008 14-02-2010 01:51:28 -3.4 C 2.94 g/m*3 -3.4 C 0 km/h
2009 14-02-2010 02:16:28 -3.4 C 2.98 g/m*3 -3.4 C 0 km/h
2010 14-02-2010 02:41:28 -3.4 C 2.98 g/m*3 -3.4 C 0 km/h
2011 14-02-2010 03:06:28 -3.4 C 3.02 g/m*3 -3.4 C 0 km/h
2012 14-02-2010 03:31:28 -3.4 C 3.02 g/m*3 -3.4 C 0 km/h
2013 14-02-2010 03:56:28 -3.6 C 2.97 g/m*3 -3.6 C 0 km/h
2014 14-02-2010 04:21:28 -3.5 C 2.99 g/m*3 -3.5 C 0 km/h
2015 14-02-2010 04:46:28 -3.6 C 2.97 g/m*3 -3.6 C 0 km/h
2016 14-02-2010 05:11:28 -3.7 C 2.95 g/m*3 -3.7 C 0 km/h
2017 14-02-2010 05:36:28 -3.6 C 3.01 g/m*3 -3.6 C 0 km/h
2018 14-02-2010 06:01:28 -3.7 C 2.99 g/m*3 -3.7 C 0 km/h
2019 14-02-2010 06:26:28 -3.7 C 2.99 g/m*3 -3.7 C 0 km/h
2020 14-02-2010 06:51:28 -3.7 C 2.99 g/m*3 -3.7 C 0 km/h
2021 14-02-2010 07:16:28 -3.4 C 3.05 g/m*3 -3.4 C 0 km/h
2022 14-02-2010 07:41:28 -3.6 C 3.01 g/m*3 -3.6 C 0 km/h
2023 14-02-2010 08:06:29 -3.5 C 3.03 g/m*3 -3.5 C 0 km/h
2024 14-02-2010 08:31:29 -3.5 C 3.03 g/m*3 -3.5 C 0 km/h
2025 14-02-2010 08:56:29 -3.3 C 3.08 g/m*3 -3.3 C 0 km/h
Sensor: Nr:Datum:Temp:Abs-Feuchte:Windchill:Wind:
Aussen-T/F 2026 14-02-2010 09:21:29 -3.2 C 3.1 g/m*3 -3.2 C 0 km/h
2027 14-02-2010 09:46:29 -3.1 C 3.12 g/m*3 -3.1 C 0 km/h
2028 14-02-2010 10:11:29 -2.8 C 3.19 g/m*3 -2.8 C 0 km/h
2029 14-02-2010 10:36:29 -2.4 C 3.24 g/m*3 -2.4 C 0 km/h
2030 14-02-2010 11:01:29 -2.1 C 3.22 g/m*3 -2.1 C 0 km/h
2031 14-02-2010 11:26:29 -1.9 C 3.23 g/m*3 -1.9 C 0 km/h
2032 14-02-2010 11:51:29 -1.5 C 3.23 g/m*3 -1.5 C 0 km/h
2033 14-02-2010 12:16:29 -1.1 C 3.19 g/m*3 -1.1 C 0 km/h
2034 14-02-2010 12:41:29 -0.6 C 3.07 g/m*3 -0.6 C 0 km/h
2035 14-02-2010 13:06:29 0.2 C 3.14 g/m*3 0.2 C 0 km/h
2036 14-02-2010 13:31:29 0.6 C 3.03 g/m*3 0.6 C 0 km/h
2037 14-02-2010 13:56:29 1 C 3.01 g/m*3 1 C 0 km/h
2038 14-02-2010 14:21:29 1.4 C 3.09 g/m*3 1.4 C 0 km/h
2039 14-02-2010 14:46:29 1.4 C 3.04 g/m*3 1.4 C 0 km/h
2040 14-02-2010 15:11:29 0.8 C 2.92 g/m*3 0.8 C 0 km/h
2041 14-02-2010 15:36:29 0.7 C 3 g/m*3 0.7 C 0 km/h
2042 14-02-2010 16:01:29 0.1 C 2.98 g/m*3 0.1 C 0 km/h
2043 14-02-2010 16:26:30 -0.3 C 2.99 g/m*3 -0.3 C 0 km/h
2044 14-02-2010 16:51:30 -0.5 C 3.09 g/m*3 -0.5 C 0 km/h
2045 14-02-2010 17:16:30 -0.7 C 3.14 g/m*3 -0.7 C 0 km/h
2046 14-02-2010 17:41:30 -0.9 C 3.19 g/m*3 -0.9 C 0 km/h
2047 14-02-2010 18:06:30 -1.1 C 3.23 g/m*3 -1.1 C 0 km/h
2048 14-02-2010 18:31:30 -1.3 C 3.23 g/m*3 -1.3 C 0 km/h
2049 14-02-2010 18:56:30 -1.5 C 3.27 g/m*3 -1.5 C 0 km/h
2050 14-02-2010 19:21:30 -1.7 C 3.27 g/m*3 -1.7 C 0 km/h
Sensor: Nr:Datum:Temp:Abs-Feuchte:Windchill:Wind:
Aussen-T/F 2051 14-02-2010 19:46:30 -1.8 C 3.29 g/m*3 -1.8 C 0 km/h
2052 14-02-2010 20:11:30 -1.7 C 3.36 g/m*3 -1.7 C 0 km/h
2053 14-02-2010 20:36:30 -1.9 C 3.31 g/m*3 -1.9 C 0 km/h
2054 14-02-2010 21:01:30 -2.2 C 3.24 g/m*3 -2.2 C 0 km/h
2055 14-02-2010 21:26:30 -2.4 C 3.16 g/m*3 -2.4 C 0 km/h
2056 14-02-2010 21:51:30 -2.6 C 3.11 g/m*3 -2.6 C 0 km/h
2057 14-02-2010 22:16:30 -2.9 C 3.01 g/m*3 -2.9 C 0 km/h
2058 14-02-2010 22:41:30 -3 C 3.02 g/m*3 -3 C 0 km/h
2059 14-02-2010 23:06:30 -3 C 2.99 g/m*3 -3 C 0 km/h
2060 14-02-2010 23:31:30 -3 C 2.99 g/m*3 -3 C 0 km/h
2061 14-02-2010 23:56:30 -3 C 2.99 g/m*3 -3 C 0 km/h
2062 15-02-2010 00:21:30 -3 C 2.99 g/m*3 -3 C 0 km/h
2063 15-02-2010 00:46:30 -3 C 2.99 g/m*3 -3 C 0 km/h
2064 15-02-2010 01:11:31 -3 C 2.99 g/m*3 -3 C 0 km/h
2065 15-02-2010 01:36:31 -2.9 C 2.97 g/m*3 -2.9 C 0 km/h
2066 15-02-2010 02:01:31 -2.8 C 2.99 g/m*3 -2.8 C 0 km/h
2067 15-02-2010 02:26:31 -2.7 C 3.01 g/m*3 -2.7 C 0 km/h
2068 15-02-2010 02:51:31 -2.6 C 3.03 g/m*3 -2.6 C 0 km/h
2069 15-02-2010 03:16:31 -2.6 C 2.99 g/m*3 -2.6 C 0 km/h
2070 15-02-2010 03:41:31 -2.6 C 2.99 g/m*3 -2.6 C 0 km/h
2071 15-02-2010 04:06:31 -2.6 C 2.99 g/m*3 -2.6 C 0 km/h
2072 15-02-2010 04:31:31 -2.6 C 3.03 g/m*3 -2.6 C 0 km/h
2073 15-02-2010 04:56:31 -2.6 C 3.03 g/m*3 -2.6 C 0 km/h
2074 15-02-2010 05:21:31 -2.6 C 3.07 g/m*3 -2.6 C 0 km/h
2075 15-02-2010 05:46:31 -2.6 C 3.11 g/m*3 -2.6 C 0 km/h
Sensor: Nr:Datum:Temp:Abs-Feuchte:Windchill:Wind:
Aussen-T/F 2076 15-02-2010 06:11:31 -2.7 C 3.05 g/m*3 -2.7 C 0 km/h
2077 15-02-2010 06:36:31 -2.8 C 3.03 g/m*3 -2.8 C 0 km/h
2078 15-02-2010 07:01:31 -2.9 C 3.01 g/m*3 -2.9 C 0 km/h
2079 15-02-2010 07:26:31 -3.2 C 2.9 g/m*3 -3.2 C 0 km/h
2080 15-02-2010 07:51:31 -3.1 C 2.96 g/m*3 -3.1 C 0 km/h
2081 15-02-2010 08:16:31 -3.1 C 2.96 g/m*3 -3.1 C 0 km/h
2082 15-02-2010 08:41:31 -3 C 2.91 g/m*3 -3 C 0 km/h
2083 15-02-2010 09:06:31 -2.7 C 2.93 g/m*3 -2.7 C 0 km/h
2084 15-02-2010 09:31:31 -2.3 C 2.97 g/m*3 -2.3 C 0 km/h
2085 15-02-2010 09:56:32 -1.8 C 3.04 g/m*3 -1.8 C 0 km/h
2086 15-02-2010 10:21:32 -1.4 C 3.03 g/m*3 -1.4 C 0 km/h
2087 15-02-2010 10:46:32 -0.2 C 3.11 g/m*3 -0.2 C 0 km/h
2088 15-02-2010 11:11:32 -0.3 C 3.04 g/m*3 -0.3 C 0 km/h
2089 15-02-2010 11:36:32 -0.2 C 3.11 g/m*3 -0.2 C 0 km/h
2090 15-02-2010 12:01:32 0.3 C 3.07 g/m*3 0.3 C 0 km/h
2091 15-02-2010 12:26:32 0.9 C 3.2 g/m*3 0.9 C 0 km/h
2092 15-02-2010 12:51:32 1.2 C 3.21 g/m*3 1.2 C 0 km/h
2093 15-02-2010 13:16:32 1.6 C 3.24 g/m*3 1.6 C 0 km/h
2094 15-02-2010 13:41:32 1.8 C 3.29 g/m*3 1.8 C 0 km/h
2095 15-02-2010 14:06:32 2.2 C 3.21 g/m*3 2.2 C 0 km/h
2096 15-02-2010 14:31:32 1.4 C 3.2 g/m*3 1.4 C 0 km/h
2097 15-02-2010 14:56:32 1.6 C 3.41 g/m*3 1.6 C 0 km/h
2098 15-02-2010 15:21:32 1.8 C 3.45 g/m*3 1.8 C 0 km/h
2099 15-02-2010 15:46:32 1.8 C 3.4 g/m*3 1.8 C 0 km/h
2100 15-02-2010 16:11:32 1.5 C 3.38 g/m*3 1.5 C 0 km/h
Sensor: Nr:Datum:Temp:Abs-Feuchte:Windchill:Wind:
Aussen-T/F 2101 15-02-2010 16:36:32 1.3 C 3.44 g/m*3 1.3 C 0 km/h
2102 15-02-2010 17:01:32 0.7 C 3.46 g/m*3 0.7 C 0 km/h
2103 15-02-2010 17:26:32 0.3 C 3.46 g/m*3 0.3 C 0 km/h
2104 15-02-2010 17:51:32 -0.2 C 3.39 g/m*3 -0.2 C 0 km/h
2105 15-02-2010 18:16:33 -0.4 C 3.44 g/m*3 -0.4 C 0 km/h
2106 15-02-2010 18:41:33 -0.6 C 3.44 g/m*3 -0.6 C 0 km/h
2107 15-02-2010 19:06:33 -0.9 C 3.46 g/m*3 -0.9 C 0 km/h
2108 15-02-2010 19:31:33 -1 C 3.44 g/m*3 -1 C 0 km/h
2109 15-02-2010 19:56:33 -1 C 3.48 g/m*3 -1 C 0 km/h
2110 15-02-2010 20:21:33 -1.2 C 3.43 g/m*3 -1.2 C 0 km/h
2111 15-02-2010 20:46:33 -1.3 C 3.41 g/m*3 -1.3 C 0 km/h
2112 15-02-2010 21:11:33 -1.2 C 3.43 g/m*3 -1.2 C 0 km/h
2113 15-02-2010 21:36:33 -1.2 C 3.48 g/m*3 -1.2 C 0 km/h
2114 15-02-2010 22:01:33 -1 C 3.57 g/m*3 -1 C 0 km/h
2115 15-02-2010 22:26:33 -1 C 3.53 g/m*3 -1 C 0 km/h
2116 15-02-2010 22:51:33 -1.2 C 3.48 g/m*3 -1.2 C 0 km/h
2117 15-02-2010 23:16:33 -1.2 C 3.48 g/m*3 -1.2 C 0 km/h
2118 15-02-2010 23:41:33 -1.3 C 3.45 g/m*3 -1.3 C 0 km/h
2119 16-02-2010 00:06:33 -1.4 C 3.43 g/m*3 -1.4 C 0 km/h
2120 16-02-2010 00:31:33 -2.1 C 3.22 g/m*3 -2.1 C 0 km/h
2121 16-02-2010 00:56:33 -2.7 C 3.13 g/m*3 -2.7 C 0 km/h
2122 16-02-2010 01:21:33 -2.9 C 3.13 g/m*3 -2.9 C 0 km/h
2123 16-02-2010 01:46:33 -2.9 C 3.16 g/m*3 -2.9 C 0 km/h
2124 16-02-2010 02:11:33 -2.9 C 3.16 g/m*3 -2.9 C 0 km/h
2125 16-02-2010 02:36:33 -3.2 C 3.1 g/m*3 -3.2 C 0 km/h
Sensor: Nr:Datum:Temp:Abs-Feuchte:Windchill:Wind:
Aussen-T/F 2126 16-02-2010 03:01:34 -3.3 C 3.08 g/m*3 -3.3 C 0 km/h
2127 16-02-2010 03:26:34 -3.4 C 3.09 g/m*3 -3.4 C 0 km/h
2128 16-02-2010 03:51:34 -3.1 C 3.16 g/m*3 -3.1 C 0 km/h
2129 16-02-2010 04:16:34 -2.9 C 3.2 g/m*3 -2.9 C 0 km/h
2130 16-02-2010 04:41:34 -2.7 C 3.29 g/m*3 -2.7 C 0 km/h
2131 16-02-2010 05:06:34 -2.7 C 3.25 g/m*3 -2.7 C 0 km/h
2132 16-02-2010 05:31:34 -2.7 C 3.25 g/m*3 -2.7 C 0 km/h
2133 16-02-2010 05:56:34 -2.6 C 3.27 g/m*3 -2.6 C 0 km/h
2134 16-02-2010 06:21:34 -2.3 C 3.34 g/m*3 -2.3 C 0 km/h
2135 16-02-2010 06:46:34 -2.3 C 3.3 g/m*3 -2.3 C 0 km/h
2136 16-02-2010 07:11:34 -2.5 C 3.26 g/m*3 -2.5 C 0 km/h
2137 16-02-2010 07:36:34 -2.8 C 3.19 g/m*3 -2.8 C 0 km/h
2138 16-02-2010 08:01:34 -2.8 C 3.19 g/m*3 -2.8 C 0 km/h
2139 16-02-2010 08:26:34 -2.5 C 3.3 g/m*3 -2.5 C 0 km/h
2140 16-02-2010 08:51:34 -1.9 C 3.4 g/m*3 -1.9 C 0 km/h
2141 16-02-2010 09:16:34 -1.4 C 3.47 g/m*3 -1.4 C 0 km/h
2142 16-02-2010 09:41:34 -0.7 C 3.51 g/m*3 -0.7 C 0 km/h
2143 16-02-2010 10:06:34 -0.6 C 3.35 g/m*3 -0.6 C 0 km/h
2144 16-02-2010 10:31:34 0.1 C 3.42 g/m*3 0.1 C 0 km/h
2145 16-02-2010 10:56:34 -0.1 C 3.27 g/m*3 -0.1 C 0 km/h
2146 16-02-2010 11:21:34 0.3 C 3.31 g/m*3 0.3 C 0 km/h
2147 16-02-2010 11:46:35 0.4 C 3.19 g/m*3 0.4 C 0 km/h
2148 16-02-2010 12:11:35 1.2 C 3.31 g/m*3 1.2 C 0 km/h
2149 16-02-2010 12:36:35 2.4 C 2.91 g/m*3 2.4 C 0 km/h
2150 16-02-2010 13:01:35 2.8 C 2.76 g/m*3 2.8 C 0 km/h
Sensor: Nr:Datum:Temp:Abs-Feuchte:Windchill:Wind:
Aussen-T/F 2151 16-02-2010 13:26:35 2.9 C 2.6 g/m*3 2.9 C 0 km/h
2152 16-02-2010 13:51:35 2.8 C 2.7 g/m*3 2.8 C 0 km/h
2153 16-02-2010 14:16:35 3.5 C 2.64 g/m*3 3.5 C 0 km/h
2154 16-02-2010 14:41:35 3.4 C 2.57 g/m*3 3.4 C 0 km/h
2155 16-02-2010 15:06:35 3.2 C 2.53 g/m*3 3.2 C 0 km/h
2156 16-02-2010 15:31:35 3.9 C 2.4 g/m*3 3.9 C 0 km/h
2157 16-02-2010 15:56:35 4.5 C 2.43 g/m*3 4.5 C 0 km/h
2158 16-02-2010 16:21:35 4.4 C 2.42 g/m*3 4.4 C 0 km/h
2159 16-02-2010 16:46:35 4.1 C 2.43 g/m*3 4.1 C 0 km/h
2160 16-02-2010 17:11:35 2.8 C 2.58 g/m*3 2.8 C 0 km/h
2161 16-02-2010 17:36:35 1.1 C 2.61 g/m*3 1.1 C 0 km/h
2162 16-02-2010 18:01:35 -0.2 C 2.63 g/m*3 -0.2 C 0 km/h
2163 16-02-2010 18:26:35 -1.4 C 2.73 g/m*3 -1.4 C 0 km/h
2164 16-02-2010 18:51:35 -2 C 2.74 g/m*3 -2 C 0 km/h
2165 16-02-2010 19:16:35 -2.5 C 2.73 g/m*3 -2.5 C 0 km/h
2166 16-02-2010 19:41:35 -2.7 C 2.77 g/m*3 -2.7 C 0 km/h
2167 16-02-2010 20:06:36 -3 C 2.75 g/m*3 -3 C 0 km/h
2168 16-02-2010 20:31:36 -3.2 C 2.75 g/m*3 -3.2 C 0 km/h
2169 16-02-2010 20:56:36 -3.6 C 2.67 g/m*3 -3.6 C 0 km/h
2170 16-02-2010 21:21:36 -3.8 C 2.67 g/m*3 -3.8 C 0 km/h
2171 16-02-2010 21:46:36 -4.1 C 2.62 g/m*3 -4.1 C 0 km/h
2172 16-02-2010 22:11:36 -4.2 C 2.63 g/m*3 -4.2 C 0 km/h
2173 16-02-2010 22:36:36 -4.5 C 2.58 g/m*3 -4.5 C 0 km/h
2174 16-02-2010 23:01:36 -4.7 C 2.54 g/m*3 -4.7 C 0 km/h
2175 16-02-2010 23:26:36 -4.9 C 2.5 g/m*3 -4.9 C 0 km/h
Sensor: Nr:Datum:Temp:Abs-Feuchte:Windchill:Wind:
Aussen-T/F 2176 16-02-2010 23:51:36 -5.1 C 2.47 g/m*3 -5.1 C 0 km/h
2177 17-02-2010 00:16:36 -5.4 C 2.41 g/m*3 -5.4 C 0 km/h
2178 17-02-2010 00:41:36 -5.7 C 2.36 g/m*3 -5.7 C 0 km/h
2179 17-02-2010 01:06:36 -6 C 2.34 g/m*3 -6 C 0 km/h
2180 17-02-2010 01:31:36 -6.2 C 2.31 g/m*3 -6.2 C 0 km/h
2181 17-02-2010 01:56:36 -6.5 C 2.26 g/m*3 -6.5 C 0 km/h
2182 17-02-2010 02:21:36 -6.6 C 2.27 g/m*3 -6.6 C 0 km/h
2183 17-02-2010 02:46:36 -6.8 C 2.24 g/m*3 -6.8 C 0 km/h
2184 17-02-2010 03:11:36 -6.9 C 2.22 g/m*3 -6.9 C 0 km/h
2185 17-02-2010 03:36:36 -6.2 C 2.37 g/m*3 -6.2 C 0 km/h
2186 17-02-2010 04:01:36 -5.8 C 2.44 g/m*3 -5.8 C 0 km/h
2187 17-02-2010 04:26:36 -5.5 C 2.5 g/m*3 -5.5 C 0 km/h
2188 17-02-2010 04:51:37 -5.3 C 2.5 g/m*3 -5.3 C 0 km/h
2189 17-02-2010 05:16:37 -5.2 C 2.48 g/m*3 -5.2 C 0 km/h
2190 17-02-2010 05:41:37 -4.9 C 2.54 g/m*3 -4.9 C 0 km/h
2191 17-02-2010 06:06:37 -4.9 C 2.54 g/m*3 -4.9 C 0 km/h
2192 17-02-2010 06:31:37 -4.7 C 2.57 g/m*3 -4.7 C 0 km/h
2193 17-02-2010 06:56:37 -4.5 C 2.61 g/m*3 -4.5 C 0 km/h
2194 17-02-2010 07:21:37 -4.4 C 2.6 g/m*3 -4.4 C 0 km/h
2195 17-02-2010 07:46:37 -4.1 C 2.62 g/m*3 -4.1 C 0 km/h
2196 17-02-2010 08:11:37 -3.8 C 2.67 g/m*3 -3.8 C 0 km/h
2197 17-02-2010 08:36:37 -3.4 C 2.71 g/m*3 -3.4 C 0 km/h
2198 17-02-2010 09:01:37 -3.1 C 2.65 g/m*3 -3.1 C 0 km/h
2199 17-02-2010 09:26:37 -2.9 C 2.49 g/m*3 -2.9 C 0 km/h
2200 17-02-2010 09:51:37 -2.7 C 2.53 g/m*3 -2.7 C 0 km/h
Sensor: Nr:Datum:Temp:Abs-Feuchte:Windchill:Wind:
Aussen-T/F 2201 17-02-2010 10:16:37 -2.7 C 2.53 g/m*3 -2.7 C 0 km/h
2202 17-02-2010 10:41:37 -2.2 C 2.54 g/m*3 -2.2 C 0 km/h
2203 17-02-2010 11:06:37 -1.4 C 2.73 g/m*3 -1.4 C 0 km/h
2204 17-02-2010 11:31:37 -0.6 C 2.79 g/m*3 -0.6 C 0 km/h
2205 17-02-2010 11:56:37 1 C 2.91 g/m*3 1 C 0 km/h
2206 17-02-2010 12:21:37 2.7 C 2.8 g/m*3 2.7 C 0 km/h
2207 17-02-2010 12:46:37 3.5 C 2.71 g/m*3 3.5 C 0 km/h
2208 17-02-2010 13:11:38 2.9 C 2.72 g/m*3 2.9 C 0 km/h
2209 17-02-2010 13:36:38 2.8 C 2.7 g/m*3 2.8 C 0 km/h
2210 17-02-2010 14:01:38 2.7 C 2.97 g/m*3 2.7 C 0 km/h
2211 17-02-2010 14:26:38 2.1 C 3.3 g/m*3 2.1 C 0 km/h
2212 17-02-2010 14:51:38 2.1 C 3.58 g/m*3 2.1 C 0 km/h
2213 17-02-2010 15:16:38 1.3 C 3.81 g/m*3 1.3 C 0 km/h
2214 17-02-2010 15:41:38 1.2 C 4 g/m*3 1.2 C 0 km/h
2215 17-02-2010 16:06:38 1.3 C 4.13 g/m*3 1.3 C 0 km/h
2216 17-02-2010 16:31:38 1 C 4.15 g/m*3 1 C 0 km/h
2217 17-02-2010 16:56:38 0.9 C 4.23 g/m*3 0.9 C 0 km/h
2218 17-02-2010 17:21:38 0.7 C 4.17 g/m*3 0.7 C 0 km/h
2219 17-02-2010 17:46:38 0.6 C 4.19 g/m*3 0.6 C 0 km/h
2220 17-02-2010 18:11:38 0.5 C 4.21 g/m*3 0.5 C 0 km/h
2221 17-02-2010 18:36:38 0.5 C 4.31 g/m*3 0.5 C 0 km/h
2222 17-02-2010 19:01:38 0.5 C 4.36 g/m*3 0.5 C 0 km/h
2223 17-02-2010 19:26:38 0.5 C 4.36 g/m*3 0.5 C 0 km/h
2224 17-02-2010 19:51:38 0.5 C 4.41 g/m*3 0.5 C 0 km/h
2225 17-02-2010 20:16:38 0.7 C 4.53 g/m*3 0.7 C 0 km/h
Sensor: Nr:Datum:Temp:Abs-Feuchte:Windchill:Wind:
Aussen-T/F 2226 17-02-2010 20:41:38 0.7 C 4.53 g/m*3 0.7 C 0 km/h
2227 17-02-2010 21:06:38 0.7 C 4.53 g/m*3 0.7 C 0 km/h
2228 17-02-2010 21:31:38 0.8 C 4.51 g/m*3 0.8 C 0 km/h
2229 17-02-2010 21:56:39 0.8 C 4.56 g/m*3 0.8 C 0 km/h
2230 17-02-2010 22:21:39 0.8 C 4.51 g/m*3 0.8 C 0 km/h
2231 17-02-2010 22:46:39 0.8 C 4.51 g/m*3 0.8 C 0 km/h
2232 17-02-2010 23:11:39 0.8 C 4.51 g/m*3 0.8 C 0 km/h
2233 17-02-2010 23:36:39 0.8 C 4.51 g/m*3 0.8 C 0 km/h
2234 18-02-2010 00:01:39 0.8 C 4.51 g/m*3 0.8 C 0 km/h
2235 18-02-2010 00:26:39 0.9 C 4.54 g/m*3 0.9 C 0 km/h
2236 18-02-2010 00:51:39 0.9 C 4.54 g/m*3 0.9 C 0 km/h
2237 18-02-2010 01:16:39 1 C 4.57 g/m*3 1 C 0 km/h
2238 18-02-2010 01:41:39 1 C 4.57 g/m*3 1 C 0 km/h
2239 18-02-2010 02:06:39 1 C 4.57 g/m*3 1 C 0 km/h
2240 18-02-2010 02:31:39 1.2 C 4.63 g/m*3 1.2 C 0 km/h
2241 18-02-2010 02:56:39 1 C 4.57 g/m*3 1 C 0 km/h
2242 18-02-2010 03:21:39 1.2 C 4.63 g/m*3 1.2 C 0 km/h
2243 18-02-2010 03:46:39 1 C 4.57 g/m*3 1 C 0 km/h
2244 18-02-2010 04:11:39 1 C 4.62 g/m*3 1 C 0 km/h
2245 18-02-2010 04:36:39 1 C 4.62 g/m*3 1 C 0 km/h
2246 18-02-2010 05:01:39 1.2 C 4.68 g/m*3 1.2 C 0 km/h
2247 18-02-2010 05:26:39 1 C 4.62 g/m*3 1 C 0 km/h
2248 18-02-2010 05:51:39 1.1 C 4.65 g/m*3 1.1 C 0 km/h
2249 18-02-2010 06:16:40 1.1 C 4.65 g/m*3 1.1 C 0 km/h
2250 18-02-2010 06:41:40 1.2 C 4.74 g/m*3 1.2 C 0 km/h
Sensor: Nr:Datum:Temp:Abs-Feuchte:Windchill:Wind:
Aussen-T/F 2251 18-02-2010 07:06:40 1.1 C 4.7 g/m*3 1.1 C 0 km/h
2252 18-02-2010 07:31:40 1.1 C 4.7 g/m*3 1.1 C 0 km/h
2253 18-02-2010 07:56:40 1.1 C 4.7 g/m*3 1.1 C 0 km/h
2254 18-02-2010 08:21:40 1.1 C 4.76 g/m*3 1.1 C 0 km/h
2255 18-02-2010 08:46:40 1.4 C 4.85 g/m*3 1.4 C 0 km/h
2256 18-02-2010 09:11:40 1.7 C 5.01 g/m*3 1.7 C 0 km/h
2257 18-02-2010 09:36:40 2 C 5.06 g/m*3 2 C 0 km/h
2258 18-02-2010 10:01:40 2.6 C 5.32 g/m*3 2.6 C 0 km/h
2259 18-02-2010 10:26:40 3.6 C 5.63 g/m*3 3.6 C 0 km/h
2260 18-02-2010 10:51:40 3.8 C 5.58 g/m*3 3.8 C 0 km/h
2261 18-02-2010 11:16:40 4.1 C 5.25 g/m*3 4.1 C 0 km/h
2262 18-02-2010 11:41:40 4.4 C 5.03 g/m*3 4.4 C 0 km/h
2263 18-02-2010 12:06:40 4.7 C 4.86 g/m*3 4.7 C 0 km/h
2264 18-02-2010 12:31:40 5.1 C 4.65 g/m*3 5.1 C 0 km/h
2265 18-02-2010 12:56:40 5.8 C 4.58 g/m*3 5.8 C 0 km/h
2266 18-02-2010 13:21:40 6.8 C 4.36 g/m*3 6.8 C 0 km/h
2267 18-02-2010 13:46:40 7.4 C 4.14 g/m*3 7.4 C 0 km/h
2268 18-02-2010 14:11:40 8 C 4.13 g/m*3 8 C 0 km/h
2269 18-02-2010 14:36:41 8.5 C 4.1 g/m*3 8.5 C 0 km/h
2270 18-02-2010 15:01:41 9.1 C 3.73 g/m*3 9.1 C 0 km/h
2271 18-02-2010 15:26:41 9.5 C 3.64 g/m*3 9.5 C 0 km/h
2272 18-02-2010 15:51:41 10.1 C 3.59 g/m*3 10.1 C 0 km/h
2273 18-02-2010 16:16:41 9.6 C 3.57 g/m*3 9.6 C 0 km/h
2274 18-02-2010 16:41:41 9.3 C 3.59 g/m*3 9.3 C 0 km/h
2275 18-02-2010 17:06:41 7.5 C 3.36 g/m*3 7.5 C 0 km/h
Sensor: Nr:Datum:Temp:Abs-Feuchte:Windchill:Wind:
Aussen-T/F 2276 18-02-2010 17:31:41 6.3 C 3.55 g/m*3 6.3 C 0 km/h
2277 18-02-2010 17:56:41 5.6 C 3.68 g/m*3 5.6 C 0 km/h
2278 18-02-2010 18:21:41 4 C 3.88 g/m*3 4 C 0 km/h
2279 18-02-2010 18:46:41 3.2 C 3.98 g/m*3 3.2 C 0 km/h
2280 18-02-2010 19:11:41 2.6 C 4.11 g/m*3 2.6 C 0 km/h
2281 18-02-2010 19:36:41 2.5 C 4.2 g/m*3 2.5 C 0 km/h
2282 18-02-2010 20:01:41 2.1 C 4.08 g/m*3 2.1 C 0 km/h
2283 18-02-2010 20:26:41 2 C 4.17 g/m*3 2 C 0 km/h
2284 18-02-2010 20:51:41 1.6 C 4.16 g/m*3 1.6 C 0 km/h
2285 18-02-2010 21:16:41 1.4 C 4.21 g/m*3 1.4 C 0 km/h
2286 18-02-2010 21:41:41 1.4 C 4.21 g/m*3 1.4 C 0 km/h
2287 18-02-2010 22:06:41 1.7 C 4.3 g/m*3 1.7 C 0 km/h
2288 18-02-2010 22:31:41 2 C 4.33 g/m*3 2 C 0 km/h
2289 18-02-2010 22:56:42 1.9 C 4.36 g/m*3 1.9 C 0 km/h
2290 18-02-2010 23:21:42 1.7 C 4.3 g/m*3 1.7 C 0 km/h
2291 18-02-2010 23:46:42 1.9 C 4.53 g/m*3 1.9 C 0 km/h
2292 19-02-2010 00:11:42 2.1 C 4.59 g/m*3 2.1 C 0 km/h
2293 19-02-2010 00:36:42 1.8 C 4.55 g/m*3 1.8 C 0 km/h
2294 19-02-2010 01:01:42 2 C 4.67 g/m*3 2 C 0 km/h
2295 19-02-2010 01:26:42 2 C 4.67 g/m*3 2 C 0 km/h
2296 19-02-2010 01:51:42 2.1 C 4.76 g/m*3 2.1 C 0 km/h
2297 19-02-2010 02:16:42 2.1 C 4.7 g/m*3 2.1 C 0 km/h
2298 19-02-2010 02:41:42 2 C 4.67 g/m*3 2 C 0 km/h
2299 19-02-2010 03:06:42 1.8 C 4.66 g/m*3 1.8 C 0 km/h
2300 19-02-2010 03:31:42 1.8 C 4.71 g/m*3 1.8 C 0 km/h
Sensor: Nr:Datum:Temp:Abs-Feuchte:Windchill:Wind:
Aussen-T/F 2301 19-02-2010 03:56:42 1.6 C 4.7 g/m*3 1.6 C 0 km/h
2302 19-02-2010 04:21:42 1.6 C 4.7 g/m*3 1.6 C 0 km/h
2303 19-02-2010 04:46:42 1.6 C 4.7 g/m*3 1.6 C 0 km/h
2304 19-02-2010 05:11:42 1.7 C 4.79 g/m*3 1.7 C 0 km/h
2305 19-02-2010 05:36:42 1.8 C 4.77 g/m*3 1.8 C 0 km/h
2306 19-02-2010 06:01:42 1.9 C 4.8 g/m*3 1.9 C 0 km/h
2307 19-02-2010 06:26:42 2.1 C 4.76 g/m*3 2.1 C 0 km/h
2308 19-02-2010 06:51:42 2 C 4.67 g/m*3 2 C 0 km/h
2309 19-02-2010 07:16:42 1.7 C 4.63 g/m*3 1.7 C 0 km/h
2310 19-02-2010 07:41:43 1.5 C 4.57 g/m*3 1.5 C 0 km/h
2311 19-02-2010 08:06:43 1.5 C 4.62 g/m*3 1.5 C 0 km/h
2312 19-02-2010 08:31:43 1.6 C 4.65 g/m*3 1.6 C 0 km/h
2313 19-02-2010 08:56:43 2.1 C 4.81 g/m*3 2.1 C 0 km/h
2314 19-02-2010 09:21:43 2.5 C 4.83 g/m*3 2.5 C 0 km/h
2315 19-02-2010 09:46:43 3.1 C 4.91 g/m*3 3.1 C 0 km/h
2316 19-02-2010 10:11:43 3.7 C 5.05 g/m*3 3.7 C 0 km/h
2317 19-02-2010 10:36:02 4.6 C 5.1 g/m*3 4.6 C 0 km/h
2318 19-02-2010 11:01:02 5.3 C 5.06 g/m*3 5.3 C 0 km/h
2319 19-02-2010 11:26:01 6 C 4.79 g/m*3 6 C 0 km/h
2320 19-02-2010 11:51:02 6.5 C 4.72 g/m*3 6.5 C 0 km/h
2321 19-02-2010 12:16:02 7 C 4.49 g/m*3 7 C 0 km/h
2322 19-02-2010 12:41:02 7.6 C 4.27 g/m*3 7.6 C 0 km/h
2323 19-02-2010 13:06:02 7.6 C 4.11 g/m*3 7.6 C 0 km/h
2324 19-02-2010 13:31:02 7.7 C 4.05 g/m*3 7.7 C 0 km/h
2325 19-02-2010 13:56:02 7.6 C 3.95 g/m*3 7.6 C 0 km/h
Sensor: Nr:Datum:Temp:Abs-Feuchte:Windchill:Wind:
Aussen-T/F 2326 19-02-2010 14:21:01 7.5 C 4 g/m*3 7.5 C 0 km/h
2327 19-02-2010 14:46:02 7.5 C 3.92 g/m*3 7.5 C 0 km/h
2328 19-02-2010 15:11:03 7.8 C 3.67 g/m*3 7.8 C 0 km/h
2329 19-02-2010 15:36:02 7.2 C 3.53 g/m*3 7.2 C 0 km/h
2330 19-02-2010 16:01:02 6.3 C 3.33 g/m*3 6.3 C 0 km/h
2331 19-02-2010 16:26:01 6.1 C 3.29 g/m*3 6.1 C 0 km/h
2332 19-02-2010 16:51:01 5.5 C 3.23 g/m*3 5.5 C 0 km/h
2333 19-02-2010 17:16:02 5 C 3.06 g/m*3 5 C 0 km/h
2334 19-02-2010 17:41:02 5.1 C 3.01 g/m*3 5.1 C 0 km/h
2335 19-02-2010 18:06:02 4.5 C 3.02 g/m*3 4.5 C 0 km/h
2336 19-02-2010 18:31:02 4.1 C 3.07 g/m*3 4.1 C 0 km/h
2337 19-02-2010 18:56:01 3.7 C 3.18 g/m*3 3.7 C 0 km/h
2338 19-02-2010 19:21:01 3.6 C 3.22 g/m*3 3.6 C 0 km/h
2339 19-02-2010 19:46:02 3.6 C 3.28 g/m*3 3.6 C 0 km/h
2340 19-02-2010 20:11:02 3.3 C 3.34 g/m*3 3.3 C 0 km/h
2341 19-02-2010 20:36:02 3.3 C 3.46 g/m*3 3.3 C 0 km/h
2342 19-02-2010 21:14:02 3.3 C 3.52 g/m*3 3.3 C 0 km/h
2343 19-02-2010 21:26:02 3.2 C 3.56 g/m*3 3.2 C 0 km/h
2344 19-02-2010 21:38:01 3.2 C 3.5 g/m*3 3.2 C 0 km/h
2345 19-02-2010 21:50:01 3.1 C 3.53 g/m*3 3.1 C 0 km/h
2346 19-02-2010 22:02:02 2.8 C 3.52 g/m*3 2.8 C 0 km/h
2347 19-02-2010 22:14:02 2.6 C 3.53 g/m*3 2.6 C 0 km/h
2348 19-02-2010 22:26:01 2.6 C 3.47 g/m*3 2.6 C 0 km/h
2349 19-02-2010 22:38:02 2.4 C 3.43 g/m*3 2.4 C 0 km/h
2350 19-02-2010 22:50:01 2.2 C 3.38 g/m*3 2.2 C 0 km/h
Sensor: Nr:Datum:Temp:Abs-Feuchte:Windchill:Wind:
Aussen-T/F 2351 19-02-2010 23:02:02 2.1 C 3.36 g/m*3 2.1 C 0 km/h
2352 19-02-2010 23:14:02 2.5 C 3.22 g/m*3 2.5 C 0 km/h
2353 19-02-2010 23:26:01 2.5 C 3.16 g/m*3 2.5 C 0 km/h
2354 19-02-2010 23:38:02 2.2 C 3.21 g/m*3 2.2 C 0 km/h
2355 19-02-2010 23:50:01 1.6 C 3.24 g/m*3 1.6 C 0 km/h
2356 20-02-2010 00:02:02 1.5 C 3.33 g/m*3 1.5 C 0 km/h
2357 20-02-2010 00:14:02 1.4 C 3.31 g/m*3 1.4 C 0 km/h
2358 20-02-2010 00:26:02 1.2 C 3.37 g/m*3 1.2 C 0 km/h
2359 20-02-2010 00:38:01 1.1 C 3.4 g/m*3 1.1 C 0 km/h
2360 20-02-2010 00:50:02 0.7 C 3.41 g/m*3 0.7 C 0 km/h
2361 20-02-2010 01:02:01 0.4 C 3.39 g/m*3 0.4 C 0 km/h
2362 20-02-2010 01:14:01 0.1 C 3.42 g/m*3 0.1 C 0 km/h
2363 20-02-2010 01:26:01 -0.1 C 3.46 g/m*3 -0.1 C 0 km/h
2364 20-02-2010 01:38:02 -0.1 C 3.51 g/m*3 -0.1 C 0 km/h
2365 20-02-2010 01:50:02 -0.1 C 3.56 g/m*3 -0.1 C 0 km/h
2366 20-02-2010 02:02:02 -0.2 C 3.58 g/m*3 -0.2 C 0 km/h
2367 20-02-2010 02:14:02 -0.3 C 3.56 g/m*3 -0.3 C 0 km/h
2368 20-02-2010 02:26:02 -0.3 C 3.61 g/m*3 -0.3 C 0 km/h
2369 20-02-2010 02:38:02 -0.4 C 3.58 g/m*3 -0.4 C 0 km/h
2370 20-02-2010 02:50:01 -0.4 C 3.58 g/m*3 -0.4 C 0 km/h
2371 20-02-2010 03:02:01 -0.4 C 3.58 g/m*3 -0.4 C 0 km/h
2372 20-02-2010 03:14:01 -0.7 C 3.46 g/m*3 -0.7 C 0 km/h
2373 20-02-2010 03:26:01 -0.7 C 3.51 g/m*3 -0.7 C 0 km/h
2374 20-02-2010 03:38:02 -0.8 C 3.48 g/m*3 -0.8 C 0 km/h
2375 20-02-2010 03:50:02 -1 C 3.44 g/m*3 -1 C 0 km/h
Sensor: Nr:Datum:Temp:Abs-Feuchte:Windchill:Wind:
Aussen-T/F 2376 20-02-2010 04:02:01 -0.9 C 3.51 g/m*3 -0.9 C 0 km/h
2377 20-02-2010 04:14:01 -0.7 C 3.55 g/m*3 -0.7 C 0 km/h
2378 20-02-2010 04:26:01 -0.7 C 3.51 g/m*3 -0.7 C 0 km/h
2379 20-02-2010 04:38:02 -0.4 C 3.58 g/m*3 -0.4 C 0 km/h
2380 20-02-2010 04:50:01 -0.2 C 3.58 g/m*3 -0.2 C 0 km/h
2381 20-02-2010 05:02:01 -0.1 C 3.61 g/m*3 -0.1 C 0 km/h
2382 20-02-2010 05:14:01 -0.2 C 3.54 g/m*3 -0.2 C 0 km/h
2383 20-02-2010 05:26:01 -0.2 C 3.58 g/m*3 -0.2 C 0 km/h
2384 20-02-2010 05:38:02 -0.2 C 3.58 g/m*3 -0.2 C 0 km/h
2385 20-02-2010 05:50:01 0 C 3.63 g/m*3 0 C 0 km/h
2386 20-02-2010 06:02:02 -0.2 C 3.58 g/m*3 -0.2 C 0 km/h
2387 20-02-2010 06:14:02 0.1 C 3.71 g/m*3 0.1 C 0 km/h
2388 20-02-2010 06:26:01 0.4 C 3.79 g/m*3 0.4 C 0 km/h
2389 20-02-2010 06:38:01 0.3 C 3.76 g/m*3 0.3 C 0 km/h
2390 20-02-2010 06:50:01 0 C 3.68 g/m*3 0 C 0 km/h
2391 20-02-2010 07:02:01 -0.2 C 3.68 g/m*3 -0.2 C 0 km/h
2392 20-02-2010 07:14:02 -0.5 C 3.65 g/m*3 -0.5 C 0 km/h
2393 20-02-2010 07:26:01 -0.6 C 3.67 g/m*3 -0.6 C 0 km/h
2394 20-02-2010 07:38:01 -0.6 C 3.72 g/m*3 -0.6 C 0 km/h
2395 20-02-2010 07:50:01 -0.6 C 3.76 g/m*3 -0.6 C 0 km/h
2396 20-02-2010 08:02:02 -0.2 C 3.92 g/m*3 -0.2 C 0 km/h
2397 20-02-2010 08:14:02 0.1 C 3.95 g/m*3 0.1 C 0 km/h
2398 20-02-2010 08:26:01 0.4 C 3.98 g/m*3 0.4 C 0 km/h
2399 20-02-2010 08:38:01 0.7 C 3.97 g/m*3 0.7 C 0 km/h
2400 20-02-2010 08:50:01 1 C 3.94 g/m*3 1 C 0 km/h
Sensor: Nr:Datum:Temp:Abs-Feuchte:Windchill:Wind:
Aussen-T/F 2401 20-02-2010 09:02:02 1.2 C 3.95 g/m*3 1.2 C 0 km/h
2402 20-02-2010 09:14:02 1.4 C 3.89 g/m*3 1.4 C 0 km/h
2403 20-02-2010 09:26:01 1.5 C 3.87 g/m*3 1.5 C 0 km/h
2404 20-02-2010 09:38:01 1.2 C 3.79 g/m*3 1.2 C 0 km/h
2405 20-02-2010 09:50:01 1.2 C 3.74 g/m*3 1.2 C 0 km/h
2406 20-02-2010 10:02:01 1.3 C 3.76 g/m*3 1.3 C 0 km/h
2407 20-02-2010 10:14:01 1.4 C 3.73 g/m*3 1.4 C 0 km/h
2408 20-02-2010 10:26:01 1.5 C 3.71 g/m*3 1.5 C 0 km/h
2409 20-02-2010 10:38:01 1.7 C 3.76 g/m*3 1.7 C 0 km/h
2410 20-02-2010 10:50:01 1.8 C 3.73 g/m*3 1.8 C 0 km/h
2411 20-02-2010 11:02:01 2.1 C 3.75 g/m*3 2.1 C 0 km/h
2412 20-02-2010 11:14:01 3 C 3.63 g/m*3 3 C 0 km/h
2413 20-02-2010 11:26:01 3.3 C 3.58 g/m*3 3.3 C 0 km/h
2414 20-02-2010 11:38:01 3.7 C 3.61 g/m*3 3.7 C 0 km/h
2415 20-02-2010 11:50:01 4.1 C 3.46 g/m*3 4.1 C 0 km/h
2416 20-02-2010 12:02:01 4.1 C 3.33 g/m*3 4.1 C 0 km/h
2417 20-02-2010 12:14:01 3.9 C 3.47 g/m*3 3.9 C 0 km/h
2418 20-02-2010 12:26:02 4.1 C 3.39 g/m*3 4.1 C 0 km/h
2419 20-02-2010 12:38:01 3.8 C 3.45 g/m*3 3.8 C 0 km/h
2420 20-02-2010 12:50:01 4.2 C 3.41 g/m*3 4.2 C 0 km/h
2421 20-02-2010 13:02:01 4.2 C 3.22 g/m*3 4.2 C 0 km/h
2422 20-02-2010 13:14:01 4.3 C 3.18 g/m*3 4.3 C 0 km/h
2423 20-02-2010 13:26:02 4.5 C 3.22 g/m*3 4.5 C 0 km/h
2424 20-02-2010 13:38:01 4.5 C 3.16 g/m*3 4.5 C 0 km/h
2425 20-02-2010 13:50:02 4.3 C 3.11 g/m*3 4.3 C 0 km/h
Sensor: Nr:Datum:Temp:Abs-Feuchte:Windchill:Wind:
Aussen-T/F 2426 20-02-2010 14:02:01 4.2 C 3.22 g/m*3 4.2 C 0 km/h
2427 20-02-2010 14:14:01 4.5 C 3.22 g/m*3 4.5 C 0 km/h
2428 20-02-2010 14:26:02 4.9 C 3.24 g/m*3 4.9 C 0 km/h
2429 20-02-2010 14:38:01 4.7 C 3.2 g/m*3 4.7 C 0 km/h
2430 20-02-2010 14:50:01 4.5 C 3.22 g/m*3 4.5 C 0 km/h
2431 20-02-2010 15:02:01 4.4 C 3.2 g/m*3 4.4 C 0 km/h
2432 20-02-2010 15:14:01 4.8 C 3.22 g/m*3 4.8 C 0 km/h
2433 20-02-2010 15:26:02 4.9 C 3.17 g/m*3 4.9 C 0 km/h
2434 20-02-2010 15:38:01 5.1 C 3.15 g/m*3 5.1 C 0 km/h
2435 20-02-2010 15:50:02 5.1 C 3.08 g/m*3 5.1 C 0 km/h
2436 20-02-2010 16:02:01 5 C 3.06 g/m*3 5 C 0 km/h
2437 20-02-2010 16:14:01 4.9 C 3.11 g/m*3 4.9 C 0 km/h
2438 20-02-2010 16:26:02 5 C 3.06 g/m*3 5 C 0 km/h
2439 20-02-2010 16:38:01 5.2 C 3.1 g/m*3 5.2 C 0 km/h
2440 20-02-2010 16:50:02 4.9 C 3.04 g/m*3 4.9 C 0 km/h
2441 20-02-2010 17:02:01 4.5 C 3.09 g/m*3 4.5 C 0 km/h
2442 20-02-2010 17:14:01 4.9 C 3.11 g/m*3 4.9 C 0 km/h
2443 20-02-2010 17:26:01 4.8 C 3.08 g/m*3 4.8 C 0 km/h
2444 20-02-2010 17:38:01 4.2 C 3.16 g/m*3 4.2 C 0 km/h
2445 20-02-2010 17:50:02 3.6 C 3.47 g/m*3 3.6 C 0 km/h
2446 20-02-2010 18:02:01 2.9 C 3.54 g/m*3 2.9 C 0 km/h
2447 20-02-2010 18:14:01 2.5 C 3.56 g/m*3 2.5 C 0 km/h
2448 20-02-2010 18:26:02 2.5 C 3.56 g/m*3 2.5 C 0 km/h
2449 20-02-2010 18:38:01 2.7 C 3.55 g/m*3 2.7 C 0 km/h
2450 20-02-2010 18:50:02 2.6 C 3.47 g/m*3 2.6 C 0 km/h
Sensor: Nr:Datum:Temp:Abs-Feuchte:Windchill:Wind:
Aussen-T/F 2451 20-02-2010 19:02:01 2.2 C 3.44 g/m*3 2.2 C 0 km/h
2452 20-02-2010 19:14:01 2 C 3.45 g/m*3 2 C 0 km/h
2453 20-02-2010 19:26:01 1.8 C 3.45 g/m*3 1.8 C 0 km/h
2454 20-02-2010 19:38:02 2 C 3.45 g/m*3 2 C 0 km/h
2455 20-02-2010 19:50:01 1.5 C 3.44 g/m*3 1.5 C 0 km/h
2456 20-02-2010 20:02:01 1.3 C 3.44 g/m*3 1.3 C 0 km/h
2457 20-02-2010 20:14:01 0.9 C 3.45 g/m*3 0.9 C 0 km/h
2458 20-02-2010 20:26:01 0.8 C 3.48 g/m*3 0.8 C 0 km/h
2459 20-02-2010 20:38:02 0.6 C 3.43 g/m*3 0.6 C 0 km/h
2460 20-02-2010 20:50:01 0.7 C 3.41 g/m*3 0.7 C 0 km/h
2461 20-02-2010 21:02:02 0.7 C 3.41 g/m*3 0.7 C 0 km/h
2462 20-02-2010 21:14:02 0.8 C 3.33 g/m*3 0.8 C 0 km/h
2463 20-02-2010 21:26:01 0.8 C 3.28 g/m*3 0.8 C 0 km/h
2464 20-02-2010 21:38:02 0.7 C 3.3 g/m*3 0.7 C 0 km/h
2465 20-02-2010 21:50:01 1 C 3.32 g/m*3 1 C 0 km/h
2466 20-02-2010 22:02:02 1.1 C 3.34 g/m*3 1.1 C 0 km/h
2467 20-02-2010 22:14:02 0.9 C 3.35 g/m*3 0.9 C 0 km/h
2468 20-02-2010 22:26:01 0.7 C 3.36 g/m*3 0.7 C 0 km/h
2469 20-02-2010 22:38:02 0.4 C 3.34 g/m*3 0.4 C 0 km/h
2470 20-02-2010 22:50:01 0.4 C 3.39 g/m*3 0.4 C 0 km/h
2471 20-02-2010 23:02:02 0.5 C 3.41 g/m*3 0.5 C 0 km/h
2472 20-02-2010 23:14:02 0.6 C 3.48 g/m*3 0.6 C 0 km/h
2473 20-02-2010 23:26:01 0.9 C 3.56 g/m*3 0.9 C 0 km/h
2474 20-02-2010 23:38:01 1.4 C 3.63 g/m*3 1.4 C 0 km/h
2475 20-02-2010 23:50:01 1.5 C 3.6 g/m*3 1.5 C 0 km/h
Sensor: Nr:Datum:Temp:Abs-Feuchte:Windchill:Wind:
Aussen-T/F 2476 21-02-2010 00:02:01 1.6 C 3.62 g/m*3 1.6 C 0 km/h
2477 21-02-2010 00:14:01 1.8 C 3.67 g/m*3 1.8 C 0 km/h
2478 21-02-2010 00:26:01 2.1 C 3.64 g/m*3 2.1 C 0 km/h
2479 21-02-2010 00:38:02 2.2 C 3.66 g/m*3 2.2 C 0 km/h
2480 21-02-2010 00:50:01 2.1 C 3.64 g/m*3 2.1 C 0 km/h
2481 21-02-2010 01:02:02 2.1 C 3.64 g/m*3 2.1 C 0 km/h
2482 21-02-2010 01:14:02 2 C 3.61 g/m*3 2 C 0 km/h
2483 21-02-2010 01:26:01 1.7 C 3.59 g/m*3 1.7 C 0 km/h
2484 21-02-2010 01:38:02 1.7 C 3.59 g/m*3 1.7 C 0 km/h
2485 21-02-2010 01:50:01 1.7 C 3.54 g/m*3 1.7 C 0 km/h
2486 21-02-2010 02:02:02 1.6 C 3.57 g/m*3 1.6 C 0 km/h
2487 21-02-2010 02:14:02 1.6 C 3.57 g/m*3 1.6 C 0 km/h
2488 21-02-2010 02:26:01 1.7 C 3.59 g/m*3 1.7 C 0 km/h
2489 21-02-2010 02:38:01 1.8 C 3.62 g/m*3 1.8 C 0 km/h
2490 21-02-2010 02:50:01 1.7 C 3.7 g/m*3 1.7 C 0 km/h
2491 21-02-2010 03:02:01 1.5 C 3.81 g/m*3 1.5 C 0 km/h
2492 21-02-2010 03:14:02 1.3 C 3.87 g/m*3 1.3 C 0 km/h
2493 21-02-2010 03:26:02 1 C 3.89 g/m*3 1 C 0 km/h
2494 21-02-2010 03:38:01 0.6 C 3.89 g/m*3 0.6 C 0 km/h
2495 21-02-2010 03:50:01 0.4 C 3.93 g/m*3 0.4 C 0 km/h
2496 21-02-2010 04:02:02 0.4 C 3.98 g/m*3 0.4 C 0 km/h
2497 21-02-2010 04:14:02 0.4 C 4.08 g/m*3 0.4 C 0 km/h
2498 21-02-2010 04:26:01 0.3 C 4.11 g/m*3 0.3 C 0 km/h
2499 21-02-2010 04:38:01 0.4 C 4.18 g/m*3 0.4 C 0 km/h
2500 21-02-2010 04:50:01 0.4 C 4.23 g/m*3 0.4 C 0 km/h
Sensor: Nr:Datum:Temp:Abs-Feuchte:Windchill:Wind:
Aussen-T/F 2501 21-02-2010 05:02:01 0.5 C 4.31 g/m*3 0.5 C 0 km/h
2502 21-02-2010 05:14:01 0.4 C 4.33 g/m*3 0.4 C 0 km/h
2503 21-02-2010 05:26:01 0.5 C 4.36 g/m*3 0.5 C 0 km/h
2504 21-02-2010 05:38:01 0.5 C 4.41 g/m*3 0.5 C 0 km/h
2505 21-02-2010 05:50:01 0.6 C 4.44 g/m*3 0.6 C 0 km/h
2506 21-02-2010 06:02:01 0.6 C 4.49 g/m*3 0.6 C 0 km/h
2507 21-02-2010 06:14:01 0.7 C 4.53 g/m*3 0.7 C 0 km/h
2508 21-02-2010 06:26:02 0.7 C 4.53 g/m*3 0.7 C 0 km/h
2509 21-02-2010 06:38:01 0.8 C 4.56 g/m*3 0.8 C 0 km/h
2510 21-02-2010 06:50:02 0.8 C 4.56 g/m*3 0.8 C 0 km/h
2511 21-02-2010 07:02:01 0.9 C 4.54 g/m*3 0.9 C 0 km/h
2512 21-02-2010 07:14:01 0.9 C 4.48 g/m*3 0.9 C 0 km/h
2513 21-02-2010 07:26:02 0.8 C 4.45 g/m*3 0.8 C 0 km/h
2514 21-02-2010 07:38:01 0.8 C 4.4 g/m*3 0.8 C 0 km/h
2515 21-02-2010 07:50:01 0.8 C 4.35 g/m*3 0.8 C 0 km/h
2516 21-02-2010 08:02:02 1.3 C 4.45 g/m*3 1.3 C 0 km/h
2517 21-02-2010 08:14:02 1.2 C 4.42 g/m*3 1.2 C 0 km/h
2518 21-02-2010 08:26:01 1.4 C 4.37 g/m*3 1.4 C 0 km/h
2519 21-02-2010 08:38:01 1.6 C 4.38 g/m*3 1.6 C 0 km/h
2520 21-02-2010 08:50:01 1.5 C 4.4 g/m*3 1.5 C 0 km/h
2521 21-02-2010 09:02:01 1.6 C 4.43 g/m*3 1.6 C 0 km/h
2522 21-02-2010 09:14:02 1.7 C 4.46 g/m*3 1.7 C 0 km/h
2523 21-02-2010 09:26:01 2 C 4.5 g/m*3 2 C 0 km/h
2524 21-02-2010 09:38:01 2.1 C 4.48 g/m*3 2.1 C 0 km/h
2525 21-02-2010 09:50:01 2.3 C 4.48 g/m*3 2.3 C 0 km/h
Sensor: Nr:Datum:Temp:Abs-Feuchte:Windchill:Wind:
Aussen-T/F 2526 21-02-2010 10:02:02 2.5 C 4.48 g/m*3 2.5 C 0 km/h
2527 21-02-2010 10:14:02 2.8 C 4.52 g/m*3 2.8 C 0 km/h
2528 21-02-2010 10:26:01 2.9 C 4.49 g/m*3 2.9 C 0 km/h
2529 21-02-2010 10:38:02 3 C 4.34 g/m*3 3 C 0 km/h
2530 21-02-2010 10:50:02 3.1 C 4.37 g/m*3 3.1 C 0 km/h
2531 21-02-2010 11:02:01 3.2 C 4.4 g/m*3 3.2 C 0 km/h
2532 21-02-2010 11:14:01 3.7 C 4.42 g/m*3 3.7 C 0 km/h
2533 21-02-2010 11:26:01 3.8 C 4.33 g/m*3 3.8 C 0 km/h
2534 21-02-2010 11:38:02 4 C 4.26 g/m*3 4 C 0 km/h
2535 21-02-2010 11:50:01 4.2 C 4.25 g/m*3 4.2 C 0 km/h
2536 21-02-2010 12:02:01 4.4 C 4.05 g/m*3 4.4 C 0 km/h
2537 21-02-2010 12:14:01 4.5 C 3.81 g/m*3 4.5 C 0 km/h
2538 21-02-2010 12:26:02 4.8 C 3.82 g/m*3 4.8 C 0 km/h
2539 21-02-2010 12:38:01 5 C 3.94 g/m*3 5 C 0 km/h
2540 21-02-2010 12:50:01 5.1 C 3.9 g/m*3 5.1 C 0 km/h
2541 21-02-2010 13:02:01 4.9 C 3.78 g/m*3 4.9 C 0 km/h
2542 21-02-2010 13:14:01 4.7 C 3.86 g/m*3 4.7 C 0 km/h
2543 21-02-2010 13:26:01 4.7 C 3.93 g/m*3 4.7 C 0 km/h
2544 21-02-2010 13:38:01 4.7 C 4.06 g/m*3 4.7 C 0 km/h
2545 21-02-2010 13:50:01 5.2 C 4.06 g/m*3 5.2 C 0 km/h
2546 21-02-2010 14:02:02 5.7 C 4.06 g/m*3 5.7 C 0 km/h
2547 21-02-2010 14:14:02 5.3 C 3.95 g/m*3 5.3 C 0 km/h
2548 21-02-2010 14:26:01 5.3 C 3.95 g/m*3 5.3 C 0 km/h
2549 21-02-2010 14:38:01 5.2 C 4.06 g/m*3 5.2 C 0 km/h
2550 21-02-2010 14:50:01 5.2 C 4.06 g/m*3 5.2 C 0 km/h
Sensor: Nr:Datum:Temp:Abs-Feuchte:Windchill:Wind:
Aussen-T/F 2551 21-02-2010 15:02:01 5.4 C 4.12 g/m*3 5.4 C 0 km/h
2552 21-02-2010 15:14:01 6.1 C 4.09 g/m*3 6.1 C 0 km/h
2553 21-02-2010 15:26:01 6.3 C 4.07 g/m*3 6.3 C 0 km/h
2554 21-02-2010 15:38:01 6.4 C 4.1 g/m*3 6.4 C 0 km/h
2555 21-02-2010 15:50:02 6.3 C 4.15 g/m*3 6.3 C 0 km/h
2556 21-02-2010 16:02:01 6.4 C 4.17 g/m*3 6.4 C 0 km/h
2557 21-02-2010 16:14:01 6.5 C 4.12 g/m*3 6.5 C 0 km/h
2558 21-02-2010 16:26:02 6.5 C 4.2 g/m*3 6.5 C 0 km/h
2559 21-02-2010 16:38:01 6.2 C 4.04 g/m*3 6.2 C 0 km/h
2560 21-02-2010 16:50:01 7.2 C 4.24 g/m*3 7.2 C 0 km/h
2561 21-02-2010 17:02:02 6.5 C 3.97 g/m*3 6.5 C 0 km/h
2562 21-02-2010 17:14:02 5.9 C 4.11 g/m*3 5.9 C 0 km/h
2563 21-02-2010 17:26:01 5.6 C 4.1 g/m*3 5.6 C 0 km/h
2564 21-02-2010 17:38:02 5.3 C 4.16 g/m*3 5.3 C 0 km/h
2565 21-02-2010 17:50:01 5.1 C 4.17 g/m*3 5.1 C 0 km/h
2566 21-02-2010 18:02:02 4.8 C 4.29 g/m*3 4.8 C 0 km/h
2567 21-02-2010 18:14:02 4.6 C 4.3 g/m*3 4.6 C 0 km/h
2568 21-02-2010 18:26:01 4.4 C 4.31 g/m*3 4.4 C 0 km/h
2569 21-02-2010 18:38:01 3.8 C 4.27 g/m*3 3.8 C 0 km/h
2570 21-02-2010 18:50:01 3.4 C 4.28 g/m*3 3.4 C 0 km/h
2571 21-02-2010 19:02:02 3 C 4.22 g/m*3 3 C 0 km/h
2572 21-02-2010 19:14:02 2.9 C 4.37 g/m*3 2.9 C 0 km/h
2573 21-02-2010 19:26:01 2.8 C 4.4 g/m*3 2.8 C 0 km/h
2574 21-02-2010 19:38:01 2.8 C 4.46 g/m*3 2.8 C 0 km/h
2575 21-02-2010 19:50:01 2.7 C 4.49 g/m*3 2.7 C 0 km/h
Sensor: Nr:Datum:Temp:Abs-Feuchte:Windchill:Wind:
Aussen-T/F 2576 21-02-2010 20:02:01 2.5 C 4.43 g/m*3 2.5 C 0 km/h
2577 21-02-2010 20:14:01 2.4 C 4.4 g/m*3 2.4 C 0 km/h
2578 21-02-2010 20:26:01 2.7 C 4.6 g/m*3 2.7 C 0 km/h
2579 21-02-2010 20:38:01 2.8 C 4.63 g/m*3 2.8 C 0 km/h
2580 21-02-2010 20:50:01 3 C 4.58 g/m*3 3 C 0 km/h
2581 21-02-2010 21:02:01 3 C 4.58 g/m*3 3 C 0 km/h
2582 21-02-2010 21:14:01 3 C 4.58 g/m*3 3 C 0 km/h
2583 21-02-2010 21:26:02 2.9 C 4.61 g/m*3 2.9 C 0 km/h
2584 21-02-2010 21:38:01 2.8 C 4.58 g/m*3 2.8 C 0 km/h
2585 21-02-2010 21:50:02 2.7 C 4.6 g/m*3 2.7 C 0 km/h
2586 21-02-2010 22:02:01 2.6 C 4.57 g/m*3 2.6 C 0 km/h
2587 21-02-2010 22:14:01 2.4 C 4.51 g/m*3 2.4 C 0 km/h
2588 21-02-2010 22:26:02 2.3 C 4.54 g/m*3 2.3 C 0 km/h
2589 21-02-2010 22:38:01 2.1 C 4.53 g/m*3 2.1 C 0 km/h
2590 21-02-2010 22:50:02 2.1 C 4.53 g/m*3 2.1 C 0 km/h
2591 21-02-2010 23:02:01 2.2 C 4.62 g/m*3 2.2 C 0 km/h
2592 21-02-2010 23:14:01 2.1 C 4.59 g/m*3 2.1 C 0 km/h
2593 21-02-2010 23:26:02 2 C 4.56 g/m*3 2 C 0 km/h
2594 21-02-2010 23:38:01 2 C 4.56 g/m*3 2 C 0 km/h
2595 21-02-2010 23:50:02 1.9 C 4.58 g/m*3 1.9 C 0 km/h
2596 22-02-2010 00:02:01 1.9 C 4.58 g/m*3 1.9 C 0 km/h
2597 22-02-2010 00:14:01 1.8 C 4.55 g/m*3 1.8 C 0 km/h
2598 22-02-2010 00:26:01 1.7 C 4.57 g/m*3 1.7 C 0 km/h
2599 22-02-2010 00:38:02 1.7 C 4.57 g/m*3 1.7 C 0 km/h
2600 22-02-2010 00:50:01 1.6 C 4.54 g/m*3 1.6 C 0 km/h
Sensor: Nr:Datum:Temp:Abs-Feuchte:Windchill:Wind:
Aussen-T/F 2601 22-02-2010 01:02:02 1.6 C 4.54 g/m*3 1.6 C 0 km/h
2602 22-02-2010 01:14:02 1.5 C 4.51 g/m*3 1.5 C 0 km/h
2603 22-02-2010 01:26:01 1.3 C 4.45 g/m*3 1.3 C 0 km/h
2604 22-02-2010 01:38:02 1.3 C 4.45 g/m*3 1.3 C 0 km/h
2605 22-02-2010 01:50:01 1.3 C 4.45 g/m*3 1.3 C 0 km/h
2606 22-02-2010 02:02:02 1.3 C 4.45 g/m*3 1.3 C 0 km/h
2607 22-02-2010 02:14:02 1.3 C 4.45 g/m*3 1.3 C 0 km/h
2608 22-02-2010 02:26:01 1 C 4.36 g/m*3 1 C 0 km/h
2609 22-02-2010 02:38:01 1 C 4.36 g/m*3 1 C 0 km/h
2610 22-02-2010 02:50:01 1 C 4.41 g/m*3 1 C 0 km/h
2611 22-02-2010 03:02:01 1.1 C 4.44 g/m*3 1.1 C 0 km/h
2612 22-02-2010 03:14:02 1.1 C 4.44 g/m*3 1.1 C 0 km/h
2613 22-02-2010 03:26:02 1 C 4.41 g/m*3 1 C 0 km/h
2614 22-02-2010 03:38:01 1.1 C 4.44 g/m*3 1.1 C 0 km/h
2615 22-02-2010 03:50:01 1.1 C 4.49 g/m*3 1.1 C 0 km/h
2616 22-02-2010 04:02:02 1.4 C 4.59 g/m*3 1.4 C 0 km/h
2617 22-02-2010 04:14:02 1.1 C 4.44 g/m*3 1.1 C 0 km/h
2618 22-02-2010 04:26:01 1 C 4.41 g/m*3 1 C 0 km/h
2619 22-02-2010 04:38:02 1.1 C 4.49 g/m*3 1.1 C 0 km/h
2620 22-02-2010 04:50:01 1.1 C 4.49 g/m*3 1.1 C 0 km/h
2621 22-02-2010 05:02:02 1.1 C 4.49 g/m*3 1.1 C 0 km/h
2622 22-02-2010 05:14:02 1.2 C 4.53 g/m*3 1.2 C 0 km/h
2623 22-02-2010 05:26:01 1.4 C 4.59 g/m*3 1.4 C 0 km/h
2624 22-02-2010 05:38:01 1.4 C 4.59 g/m*3 1.4 C 0 km/h
2625 22-02-2010 05:50:01 1.5 C 4.62 g/m*3 1.5 C 0 km/h
Sensor: Nr:Datum:Temp:Abs-Feuchte:Windchill:Wind:
Aussen-T/F 2626 22-02-2010 06:02:01 1.5 C 4.62 g/m*3 1.5 C 0 km/h
2627 22-02-2010 06:14:02 1.5 C 4.62 g/m*3 1.5 C 0 km/h
2628 22-02-2010 06:26:01 1.5 C 4.62 g/m*3 1.5 C 0 km/h
2629 22-02-2010 06:38:01 1.6 C 4.65 g/m*3 1.6 C 0 km/h
2630 22-02-2010 06:50:01 1.6 C 4.65 g/m*3 1.6 C 0 km/h
2631 22-02-2010 07:02:01 1.6 C 4.65 g/m*3 1.6 C 0 km/h
2632 22-02-2010 07:14:01 1.8 C 4.77 g/m*3 1.8 C 0 km/h
2633 22-02-2010 07:26:02 2.2 C 4.9 g/m*3 2.2 C 0 km/h
2634 22-02-2010 07:38:01 2.3 C 4.93 g/m*3 2.3 C 0 km/h
2635 22-02-2010 07:50:02 2.5 C 5 g/m*3 2.5 C 0 km/h
2636 22-02-2010 08:02:01 2.7 C 5.07 g/m*3 2.7 C 0 km/h
2637 22-02-2010 08:14:01 3 C 5.11 g/m*3 3 C 0 km/h
2638 22-02-2010 08:26:02 3.2 C 5.12 g/m*3 3.2 C 0 km/h
2639 22-02-2010 08:38:01 3.5 C 5.16 g/m*3 3.5 C 0 km/h
2640 22-02-2010 08:50:02 3.8 C 5.21 g/m*3 3.8 C 0 km/h
2641 22-02-2010 09:02:01 4.2 C 5.22 g/m*3 4.2 C 0 km/h
2642 22-02-2010 09:14:01 4.5 C 5.32 g/m*3 4.5 C 0 km/h
2643 22-02-2010 09:26:01 4.8 C 5.3 g/m*3 4.8 C 0 km/h
2644 22-02-2010 09:38:01 5.1 C 5.27 g/m*3 5.1 C 0 km/h
2645 22-02-2010 09:50:02 5.3 C 5.2 g/m*3 5.3 C 0 km/h
2646 22-02-2010 10:02:01 5.7 C 5.19 g/m*3 5.7 C 0 km/h
2647 22-02-2010 10:14:01 6.3 C 5.18 g/m*3 6.3 C 0 km/h
2648 22-02-2010 10:26:01 6.9 C 5.08 g/m*3 6.9 C 0 km/h
2649 22-02-2010 10:38:02 7.2 C 5.02 g/m*3 7.2 C 0 km/h
2650 22-02-2010 10:50:01 7.6 C 5.08 g/m*3 7.6 C 0 km/h
Sensor: Nr:Datum:Temp:Abs-Feuchte:Windchill:Wind:
Aussen-T/F 2651 22-02-2010 11:02:01 7.7 C 5.19 g/m*3 7.7 C 0 km/h
2652 22-02-2010 11:14:01 8 C 5.21 g/m*3 8 C 0 km/h
2653 22-02-2010 11:26:02 8.5 C 5.21 g/m*3 8.5 C 0 km/h
2654 22-02-2010 11:38:01 8.9 C 5.26 g/m*3 8.9 C 0 km/h
2655 22-02-2010 11:50:02 8.7 C 5.19 g/m*3 8.7 C 0 km/h
2656 22-02-2010 12:02:01 8.6 C 5.33 g/m*3 8.6 C 0 km/h
2657 22-02-2010 12:14:01 8.4 C 5.51 g/m*3 8.4 C 0 km/h
2658 22-02-2010 12:26:02 8.8 C 5.74 g/m*3 8.8 C 0 km/h
2659 22-02-2010 12:38:01 9.7 C 5.81 g/m*3 9.7 C 0 km/h
2660 22-02-2010 12:50:02 10.3 C 5.55 g/m*3 10.3 C 0 km/h
2661 22-02-2010 13:02:01 10.6 C 5.37 g/m*3 10.6 C 0 km/h
2662 22-02-2010 13:14:01 11.2 C 5.27 g/m*3 11.2 C 0 km/h
2663 22-02-2010 13:26:01 11.7 C 5.12 g/m*3 11.7 C 0 km/h
2664 22-02-2010 13:38:02 11.4 C 5.13 g/m*3 11.4 C 0 km/h
2665 22-02-2010 13:50:01 11.8 C 5.26 g/m*3 11.8 C 0 km/h
2666 22-02-2010 14:02:02 11.9 C 5.08 g/m*3 11.9 C 0 km/h
2667 22-02-2010 14:14:02 12.7 C 5.01 g/m*3 12.7 C 0 km/h
2668 22-02-2010 14:26:01 12.2 C 5.07 g/m*3 12.2 C 0 km/h
2669 22-02-2010 14:38:02 12.5 C 5.06 g/m*3 12.5 C 0 km/h
2670 22-02-2010 14:50:01 12.2 C 5.07 g/m*3 12.2 C 0 km/h
2671 22-02-2010 15:02:02 12.3 C 5.1 g/m*3 12.3 C 0 km/h
2672 22-02-2010 15:14:02 12.7 C 5.12 g/m*3 12.7 C 0 km/h
2673 22-02-2010 15:26:01 13.3 C 5.2 g/m*3 13.3 C 0 km/h
2674 22-02-2010 15:38:02 13.4 C 5 g/m*3 13.4 C 0 km/h
2675 22-02-2010 15:50:01 12.7 C 5.23 g/m*3 12.7 C 0 km/h
Sensor: Nr:Datum:Temp:Abs-Feuchte:Windchill:Wind:
Aussen-T/F 2676 22-02-2010 16:02:02 12.4 C 5.14 g/m*3 12.4 C 0 km/h
2677 22-02-2010 16:14:02 11.9 C 5.3 g/m*3 11.9 C 0 km/h
2678 22-02-2010 16:26:01 11.5 C 5.37 g/m*3 11.5 C 0 km/h
2679 22-02-2010 16:38:01 11.4 C 5.44 g/m*3 11.4 C 0 km/h
2680 22-02-2010 16:50:01 11.8 C 5.58 g/m*3 11.8 C 0 km/h
2681 22-02-2010 17:02:01 12.1 C 5.47 g/m*3 12.1 C 0 km/h
2682 22-02-2010 17:14:01 11.8 C 5.47 g/m*3 11.8 C 0 km/h
2683 22-02-2010 17:26:01 11.3 C 5.51 g/m*3 11.3 C 0 km/h
2684 22-02-2010 17:38:01 10.7 C 5.6 g/m*3 10.7 C 0 km/h
2685 22-02-2010 17:50:01 10.4 C 5.69 g/m*3 10.4 C 0 km/h
2686 22-02-2010 18:02:01 10.1 C 5.67 g/m*3 10.1 C 0 km/h
2687 22-02-2010 18:14:01 9.9 C 5.79 g/m*3 9.9 C 0 km/h
2688 22-02-2010 18:26:02 9.7 C 5.72 g/m*3 9.7 C 0 km/h
2689 22-02-2010 18:38:01 9.4 C 5.7 g/m*3 9.4 C 0 km/h
2690 22-02-2010 18:50:02 9.2 C 5.8 g/m*3 9.2 C 0 km/h
2691 22-02-2010 19:02:01 9 C 5.73 g/m*3 9 C 0 km/h
2692 22-02-2010 19:14:01 8.9 C 5.87 g/m*3 8.9 C 0 km/h
2693 22-02-2010 19:26:02 8.9 C 5.87 g/m*3 8.9 C 0 km/h
2694 22-02-2010 19:38:01 9 C 5.82 g/m*3 9 C 0 km/h
2695 22-02-2010 19:50:02 9.1 C 5.77 g/m*3 9.1 C 0 km/h
2696 22-02-2010 20:02:02 9.1 C 5.68 g/m*3 9.1 C 0 km/h
2697 22-02-2010 20:14:02 9.2 C 5.63 g/m*3 9.2 C 0 km/h
2698 22-02-2010 20:26:01 9.5 C 5.64 g/m*3 9.5 C 0 km/h
2699 22-02-2010 20:38:02 9.4 C 5.52 g/m*3 9.4 C 0 km/h
2700 22-02-2010 20:50:02 9 C 5.47 g/m*3 9 C 0 km/h
Sensor: Nr:Datum:Temp:Abs-Feuchte:Windchill:Wind:
Aussen-T/F 2701 22-02-2010 21:02:01 8.7 C 5.53 g/m*3 8.7 C 0 km/h
2702 22-02-2010 21:14:01 8.9 C 5.52 g/m*3 8.9 C 0 km/h
2703 22-02-2010 21:26:01 8.8 C 5.48 g/m*3 8.8 C 0 km/h
2704 22-02-2010 21:38:02 8.9 C 5.52 g/m*3 8.9 C 0 km/h
2705 22-02-2010 21:50:01 8.9 C 5.52 g/m*3 8.9 C 0 km/h
2706 22-02-2010 22:02:02 9.1 C 5.5 g/m*3 9.1 C 0 km/h
2707 22-02-2010 22:14:02 9.5 C 5.55 g/m*3 9.5 C 0 km/h
2708 22-02-2010 22:28:08 10.1 C 5.67 g/m*3 10.1 C 0 km/h
2709 22-02-2010 22:40:08 11.1 C 5.54 g/m*3 11.1 C 0 km/h
2710 22-02-2010 22:52:08 11.5 C 5.47 g/m*3 11.5 C 0 km/h
2711 22-02-2010 23:04:08 12 C 5.33 g/m*3 12 C 0 km/h
2712 22-02-2010 23:16:08 12.1 C 5.36 g/m*3 12.1 C 0 km/h
2713 22-02-2010 23:28:08 12.1 C 5.47 g/m*3 12.1 C 0 km/h
2714 22-02-2010 23:40:08 12 C 5.44 g/m*3 12 C 0 km/h
2715 22-02-2010 23:52:08 12.2 C 5.5 g/m*3 12.2 C 0 km/h
2716 23-02-2010 00:04:08 12.1 C 5.47 g/m*3 12.1 C 0 km/h
2717 23-02-2010 00:16:08 12.1 C 5.47 g/m*3 12.1 C 0 km/h
2718 23-02-2010 00:28:08 12.2 C 5.5 g/m*3 12.2 C 0 km/h
2719 23-02-2010 00:40:08 12.2 C 5.4 g/m*3 12.2 C 0 km/h
2720 23-02-2010 00:52:08 12.1 C 5.36 g/m*3 12.1 C 0 km/h
2721 23-02-2010 01:04:08 11.8 C 5.47 g/m*3 11.8 C 0 km/h
2722 23-02-2010 01:16:08 11.5 C 5.58 g/m*3 11.5 C 0 km/h
2723 23-02-2010 01:28:08 11.4 C 5.75 g/m*3 11.4 C 0 km/h
2724 23-02-2010 01:40:08 11.4 C 5.75 g/m*3 11.4 C 0 km/h
2725 23-02-2010 01:52:08 11.4 C 5.85 g/m*3 11.4 C 0 km/h
Sensor: Nr:Datum:Temp:Abs-Feuchte:Windchill:Wind:
Aussen-T/F 2726 23-02-2010 02:04:08 11.2 C 5.78 g/m*3 11.2 C 0 km/h
2727 23-02-2010 02:16:08 11.2 C 5.88 g/m*3 11.2 C 0 km/h
2728 23-02-2010 02:28:08 10.6 C 6.25 g/m*3 10.6 C 0 km/h
2729 23-02-2010 02:40:08 10.4 C 6.46 g/m*3 10.4 C 0 km/h
2730 23-02-2010 02:52:08 9.6 C 6.78 g/m*3 9.6 C 0 km/h
2731 23-02-2010 03:04:09 9.3 C 6.83 g/m*3 9.3 C 0 km/h
2732 23-02-2010 03:16:09 9.2 C 6.97 g/m*3 9.2 C 0 km/h
2733 23-02-2010 03:28:09 9.1 C 6.92 g/m*3 9.1 C 0 km/h
2734 23-02-2010 03:40:09 9.1 C 7.01 g/m*3 9.1 C 0 km/h
2735 23-02-2010 03:52:09 8.9 C 7.1 g/m*3 8.9 C 0 km/h
2736 23-02-2010 04:04:09 8.6 C 7.13 g/m*3 8.6 C 0 km/h
2737 23-02-2010 04:16:09 8.6 C 7.22 g/m*3 8.6 C 0 km/h
2738 23-02-2010 04:28:09 8.5 C 7.17 g/m*3 8.5 C 0 km/h
2739 23-02-2010 04:40:09 8.6 C 7.22 g/m*3 8.6 C 0 km/h
2740 23-02-2010 04:52:09 8.5 C 7.17 g/m*3 8.5 C 0 km/h
2741 23-02-2010 05:04:09 8.4 C 7.04 g/m*3 8.4 C 0 km/h
2742 23-02-2010 05:16:09 8.5 C 7.17 g/m*3 8.5 C 0 km/h
2743 23-02-2010 05:28:09 8.3 C 7.08 g/m*3 8.3 C 0 km/h
2744 23-02-2010 05:40:09 8.5 C 7.17 g/m*3 8.5 C 0 km/h
2745 23-02-2010 05:52:09 8.5 C 7.09 g/m*3 8.5 C 0 km/h
2746 23-02-2010 06:04:09 8.5 C 7.09 g/m*3 8.5 C 0 km/h
2747 23-02-2010 06:16:09 8.5 C 7.09 g/m*3 8.5 C 0 km/h
2748 23-02-2010 06:28:09 8.5 C 7.09 g/m*3 8.5 C 0 km/h
2749 23-02-2010 06:40:09 8.5 C 7.09 g/m*3 8.5 C 0 km/h
2750 23-02-2010 06:52:09 8.5 C 7.09 g/m*3 8.5 C 0 km/h
Sensor: Nr:Datum:Temp:Abs-Feuchte:Windchill:Wind:
Aussen-T/F 2751 23-02-2010 07:04:09 8.4 C 7.04 g/m*3 8.4 C 0 km/h
2752 23-02-2010 07:16:08 8.2 C 6.95 g/m*3 8.2 C 0 km/h
2753 23-02-2010 07:28:08 8.1 C 6.99 g/m*3 8.1 C 0 km/h
2754 23-02-2010 07:40:08 8.2 C 7.03 g/m*3 8.2 C 0 km/h
2755 23-02-2010 07:52:01 8.2 C 7.03 g/m*3 8.2 C 0 km/h
2756 23-02-2010 08:04:02 8.3 C 7.16 g/m*3 8.3 C 0 km/h
2757 23-02-2010 08:16:01 8.5 C 7.26 g/m*3 8.5 C 0 km/h
2758 23-02-2010 08:28:01 8.6 C 7.22 g/m*3 8.6 C 0 km/h
2759 23-02-2010 08:40:02 8.8 C 7.31 g/m*3 8.8 C 0 km/h
2760 23-02-2010 08:52:02 8.9 C 7.27 g/m*3 8.9 C 0 km/h
2761 23-02-2010 09:04:02 9 C 7.23 g/m*3 9 C 0 km/h
2762 23-02-2010 09:16:01 9.1 C 7.28 g/m*3 9.1 C 0 km/h
2763 23-02-2010 09:28:01 9.1 C 7.1 g/m*3 9.1 C 0 km/h
2764 23-02-2010 09:40:02 9.1 C 7.01 g/m*3 9.1 C 0 km/h
2765 23-02-2010 09:52:02 9.3 C 7.19 g/m*3 9.3 C 0 km/h
2766 23-02-2010 10:04:02 9.7 C 7.19 g/m*3 9.7 C 0 km/h
2767 23-02-2010 10:16:01 10.4 C 7.04 g/m*3 10.4 C 0 km/h
2768 23-02-2010 10:28:01 10.7 C 6.88 g/m*3 10.7 C 0 km/h
2769 23-02-2010 10:40:02 10.6 C 6.83 g/m*3 10.6 C 0 km/h
2770 23-02-2010 10:52:01 10.6 C 6.73 g/m*3 10.6 C 0 km/h
2771 23-02-2010 11:04:02 10.8 C 6.92 g/m*3 10.8 C 0 km/h
2772 23-02-2010 11:16:02 11 C 6.81 g/m*3 11 C 0 km/h
2773 23-02-2010 11:28:02 11.2 C 6.69 g/m*3 11.2 C 0 km/h
2774 23-02-2010 11:40:02 11.4 C 6.57 g/m*3 11.4 C 0 km/h
2775 23-02-2010 11:52:01 11.6 C 6.55 g/m*3 11.6 C 0 km/h
Sensor: Nr:Datum:Temp:Abs-Feuchte:Windchill:Wind:
Aussen-T/F 2776 23-02-2010 12:04:02 11.2 C 6.49 g/m*3 11.2 C 0 km/h
2777 23-02-2010 12:16:02 10.9 C 6.66 g/m*3 10.9 C 0 km/h
2778 23-02-2010 12:28:02 10.3 C 6.9 g/m*3 10.3 C 0 km/h
2779 23-02-2010 12:40:01 10.5 C 7.27 g/m*3 10.5 C 0 km/h
2780 23-02-2010 12:52:02 10.4 C 7.13 g/m*3 10.4 C 0 km/h
2781 23-02-2010 13:04:01 10.3 C 7.18 g/m*3 10.3 C 0 km/h
2782 23-02-2010 13:16:02 10.4 C 7.32 g/m*3 10.4 C 0 km/h
2783 23-02-2010 13:28:02 10.5 C 7.37 g/m*3 10.5 C 0 km/h
2784 23-02-2010 13:40:01 10.3 C 7.47 g/m*3 10.3 C 0 km/h
2785 23-02-2010 13:52:02 10.6 C 7.71 g/m*3 10.6 C 0 km/h
2786 23-02-2010 14:04:02 10.9 C 7.76 g/m*3 10.9 C 0 km/h
2787 23-02-2010 14:16:02 11 C 7.81 g/m*3 11 C 0 km/h
2788 23-02-2010 14:28:02 10.8 C 7.71 g/m*3 10.8 C 0 km/h
2789 23-02-2010 14:40:03 10.9 C 7.76 g/m*3 10.9 C 0 km/h
2790 23-02-2010 14:52:02 11 C 7.61 g/m*3 11 C 0 km/h
2791 23-02-2010 15:04:01 11 C 7.71 g/m*3 11 C 0 km/h
2792 23-02-2010 15:16:02 11 C 7.71 g/m*3 11 C 0 km/h
2793 23-02-2010 15:28:02 11 C 7.81 g/m*3 11 C 0 km/h
2794 23-02-2010 15:40:02 11.1 C 7.66 g/m*3 11.1 C 0 km/h
2795 23-02-2010 15:52:02 11 C 7.51 g/m*3 11 C 0 km/h
2796 23-02-2010 16:04:03 10.7 C 7.46 g/m*3 10.7 C 0 km/h
2797 23-02-2010 16:16:02 10.5 C 7.47 g/m*3 10.5 C 0 km/h
2798 23-02-2010 16:28:02 10.6 C 7.52 g/m*3 10.6 C 0 km/h
2799 23-02-2010 16:40:02 10.6 C 7.52 g/m*3 10.6 C 0 km/h
2800 23-02-2010 16:52:01 10.4 C 7.32 g/m*3 10.4 C 0 km/h
Sensor: Nr:Datum:Temp:Abs-Feuchte:Windchill:Wind:
Aussen-T/F 2801 23-02-2010 17:04:02 10.4 C 7.32 g/m*3 10.4 C 0 km/h
2802 23-02-2010 17:16:01 10.2 C 7.23 g/m*3 10.2 C 0 km/h
2803 23-02-2010 17:28:01 10.1 C 7.09 g/m*3 10.1 C 0 km/h
2804 23-02-2010 17:40:02 10.1 C 7.19 g/m*3 10.1 C 0 km/h
2805 23-02-2010 17:52:01 10 C 7.14 g/m*3 10 C 0 km/h
2806 23-02-2010 18:04:02 9.8 C 7.24 g/m*3 9.8 C 0 km/h
2807 23-02-2010 18:16:01 9.6 C 7.33 g/m*3 9.6 C 0 km/h
2808 23-02-2010 18:28:01 9.6 C 7.33 g/m*3 9.6 C 0 km/h
2809 23-02-2010 18:40:02 9.5 C 7.37 g/m*3 9.5 C 0 km/h
2810 23-02-2010 18:52:01 9.5 C 7.46 g/m*3 9.5 C 0 km/h
2811 23-02-2010 19:04:02 9.2 C 7.41 g/m*3 9.2 C 0 km/h
2812 23-02-2010 19:16:02 9.1 C 7.45 g/m*3 9.1 C 0 km/h
2813 23-02-2010 19:28:02 9.2 C 7.59 g/m*3 9.2 C 0 km/h
2814 23-02-2010 19:40:02 9.2 C 7.68 g/m*3 9.2 C 0 km/h
2815 23-02-2010 19:52:02 9.2 C 7.68 g/m*3 9.2 C 0 km/h
2816 23-02-2010 20:04:02 9 C 7.67 g/m*3 9 C 0 km/h
2817 23-02-2010 20:16:02 9.1 C 7.81 g/m*3 9.1 C 0 km/h
2818 23-02-2010 20:28:02 9 C 7.76 g/m*3 9 C 0 km/h
2819 23-02-2010 20:40:02 9 C 7.76 g/m*3 9 C 0 km/h
2820 23-02-2010 20:52:01 9.2 C 7.86 g/m*3 9.2 C 0 km/h
2821 23-02-2010 21:04:02 9.3 C 7.91 g/m*3 9.3 C 0 km/h
2822 23-02-2010 21:16:01 9.4 C 7.78 g/m*3 9.4 C 0 km/h
2823 23-02-2010 21:28:01 9.6 C 7.6 g/m*3 9.6 C 0 km/h
2824 23-02-2010 21:40:02 9.6 C 7.33 g/m*3 9.6 C 0 km/h
2825 23-02-2010 21:52:02 9.5 C 7.1 g/m*3 9.5 C 0 km/h
Sensor: Nr:Datum:Temp:Abs-Feuchte:Windchill:Wind:
Aussen-T/F 2826 23-02-2010 22:04:02 9.3 C 6.92 g/m*3 9.3 C 0 km/h
2827 23-02-2010 22:16:02 9.3 C 6.92 g/m*3 9.3 C 0 km/h
2828 23-02-2010 22:28:02 9.3 C 6.74 g/m*3 9.3 C 0 km/h
2829 23-02-2010 22:40:02 8.9 C 6.75 g/m*3 8.9 C 0 km/h
2830 23-02-2010 22:52:01 8.7 C 6.75 g/m*3 8.7 C 0 km/h
2831 23-02-2010 23:04:02 8.5 C 6.66 g/m*3 8.5 C 0 km/h
2832 23-02-2010 23:16:02 8.5 C 6.66 g/m*3 8.5 C 0 km/h
2833 23-02-2010 23:28:02 8.2 C 6.62 g/m*3 8.2 C 0 km/h
2834 23-02-2010 23:40:01 8.2 C 6.7 g/m*3 8.2 C 0 km/h
2835 23-02-2010 23:52:02 8.2 C 6.7 g/m*3 8.2 C 0 km/h
2836 24-02-2010 00:04:01 8.1 C 6.66 g/m*3 8.1 C 0 km/h
2837 24-02-2010 00:16:02 7.9 C 6.74 g/m*3 7.9 C 0 km/h
2838 24-02-2010 00:28:02 7.9 C 6.82 g/m*3 7.9 C 0 km/h
2839 24-02-2010 00:40:01 7.8 C 6.77 g/m*3 7.8 C 0 km/h
2840 24-02-2010 00:52:02 7.5 C 6.64 g/m*3 7.5 C 0 km/h
2841 24-02-2010 01:04:01 7.3 C 6.64 g/m*3 7.3 C 0 km/h
2842 24-02-2010 01:16:02 7.5 C 6.8 g/m*3 7.5 C 0 km/h
2843 24-02-2010 01:28:02 8.1 C 6.99 g/m*3 8.1 C 0 km/h
2844 24-02-2010 01:40:01 8.7 C 6.92 g/m*3 8.7 C 0 km/h
2845 24-02-2010 01:52:02 8.6 C 6.7 g/m*3 8.6 C 0 km/h
2846 24-02-2010 02:04:02 8.3 C 6.57 g/m*3 8.3 C 0 km/h
2847 24-02-2010 02:16:02 8.1 C 6.57 g/m*3 8.1 C 0 km/h
2848 24-02-2010 02:28:02 7.9 C 6.74 g/m*3 7.9 C 0 km/h
2849 24-02-2010 02:40:02 7.9 C 6.82 g/m*3 7.9 C 0 km/h
2850 24-02-2010 02:52:01 7.8 C 6.77 g/m*3 7.8 C 0 km/h
Sensor: Nr:Datum:Temp:Abs-Feuchte:Windchill:Wind:
Aussen-T/F 2851 24-02-2010 03:04:01 7.7 C 6.73 g/m*3 7.7 C 0 km/h
2852 24-02-2010 03:16:01 7.9 C 6.9 g/m*3 7.9 C 0 km/h
2853 24-02-2010 03:28:01 8 C 6.86 g/m*3 8 C 0 km/h
2854 24-02-2010 03:40:02 8 C 6.78 g/m*3 8 C 0 km/h
2855 24-02-2010 03:52:02 8 C 6.78 g/m*3 8 C 0 km/h
2856 24-02-2010 04:04:01 8 C 6.78 g/m*3 8 C 0 km/h
2857 24-02-2010 04:16:02 8 C 6.86 g/m*3 8 C 0 km/h
2858 24-02-2010 04:28:02 8 C 6.86 g/m*3 8 C 0 km/h
2859 24-02-2010 04:40:01 8 C 6.86 g/m*3 8 C 0 km/h
2860 24-02-2010 04:52:02 8.1 C 6.91 g/m*3 8.1 C 0 km/h
2861 24-02-2010 05:04:01 8.3 C 7 g/m*3 8.3 C 0 km/h
2862 24-02-2010 05:16:01 8.4 C 6.96 g/m*3 8.4 C 0 km/h
2863 24-02-2010 05:28:01 8.2 C 6.78 g/m*3 8.2 C 0 km/h
2864 24-02-2010 05:40:01 8.3 C 6.83 g/m*3 8.3 C 0 km/h
2865 24-02-2010 05:52:02 8.4 C 6.79 g/m*3 8.4 C 0 km/h
2866 24-02-2010 06:04:01 8.2 C 6.62 g/m*3 8.2 C 0 km/h
2867 24-02-2010 06:16:01 7.9 C 6.65 g/m*3 7.9 C 0 km/h
2868 24-02-2010 06:28:01 7.8 C 6.61 g/m*3 7.8 C 0 km/h
2869 24-02-2010 06:40:02 7.6 C 6.53 g/m*3 7.6 C 0 km/h
2870 24-02-2010 06:52:01 7.3 C 6.4 g/m*3 7.3 C 0 km/h
2871 24-02-2010 07:04:01 7.3 C 6.56 g/m*3 7.3 C 0 km/h
2872 24-02-2010 07:16:01 7.4 C 6.6 g/m*3 7.4 C 0 km/h
2873 24-02-2010 07:28:01 7.5 C 6.64 g/m*3 7.5 C 0 km/h
2874 24-02-2010 07:40:02 7.5 C 6.56 g/m*3 7.5 C 0 km/h
2875 24-02-2010 07:52:01 7.4 C 6.6 g/m*3 7.4 C 0 km/h
Sensor: Nr:Datum:Temp:Abs-Feuchte:Windchill:Wind:
Aussen-T/F 2876 24-02-2010 08:04:02 7.5 C 6.64 g/m*3 7.5 C 0 km/h
2877 24-02-2010 08:16:01 7.5 C 6.56 g/m*3 7.5 C 0 km/h
2878 24-02-2010 08:28:01 7.9 C 6.82 g/m*3 7.9 C 0 km/h
2879 24-02-2010 08:40:02 8.1 C 6.74 g/m*3 8.1 C 0 km/h
2880 24-02-2010 08:52:01 8.5 C 6.92 g/m*3 8.5 C 0 km/h
2881 24-02-2010 09:04:02 8.6 C 6.79 g/m*3 8.6 C 0 km/h
2882 24-02-2010 09:16:01 8.9 C 6.83 g/m*3 8.9 C 0 km/h
2883 24-02-2010 09:28:01 9.1 C 6.65 g/m*3 9.1 C 0 km/h
2884 24-02-2010 09:40:01 9.2 C 6.52 g/m*3 9.2 C 0 km/h
2885 24-02-2010 09:52:01 9.4 C 6.51 g/m*3 9.4 C 0 km/h
2886 24-02-2010 10:04:02 9.7 C 6.55 g/m*3 9.7 C 0 km/h
2887 24-02-2010 10:16:01 10 C 6.39 g/m*3 10 C 0 km/h
2888 24-02-2010 10:28:01 10.2 C 6.28 g/m*3 10.2 C 0 km/h
2889 24-02-2010 10:40:01 10.4 C 6.26 g/m*3 10.4 C 0 km/h
2890 24-02-2010 10:52:01 10.9 C 6.17 g/m*3 10.9 C 0 km/h
2891 24-02-2010 11:04:01 10.9 C 5.97 g/m*3 10.9 C 0 km/h
2892 24-02-2010 11:16:02 11.1 C 5.74 g/m*3 11.1 C 0 km/h
2893 24-02-2010 11:28:02 11.2 C 5.68 g/m*3 11.2 C 0 km/h
2894 24-02-2010 11:40:01 11.2 C 5.57 g/m*3 11.2 C 0 km/h
2895 24-02-2010 11:52:01 11.3 C 5.61 g/m*3 11.3 C 0 km/h
2896 24-02-2010 12:04:01 11.1 C 5.64 g/m*3 11.1 C 0 km/h
2897 24-02-2010 12:16:02 11.2 C 5.57 g/m*3 11.2 C 0 km/h
2898 24-02-2010 12:28:02 11.6 C 5.72 g/m*3 11.6 C 0 km/h
2899 24-02-2010 12:40:01 11.8 C 5.58 g/m*3 11.8 C 0 km/h
2900 24-02-2010 12:52:02 12 C 5.54 g/m*3 12 C 0 km/h
Sensor: Nr:Datum:Temp:Abs-Feuchte:Windchill:Wind:
Aussen-T/F 2901 24-02-2010 13:04:01 12 C 5.54 g/m*3 12 C 0 km/h
2902 24-02-2010 13:16:02 11.8 C 5.58 g/m*3 11.8 C 0 km/h
2903 24-02-2010 13:28:02 12 C 5.44 g/m*3 12 C 0 km/h
2904 24-02-2010 13:40:01 12.2 C 5.61 g/m*3 12.2 C 0 km/h
2905 24-02-2010 13:52:02 12.4 C 5.35 g/m*3 12.4 C 0 km/h
2906 24-02-2010 14:04:01 12.3 C 5.32 g/m*3 12.3 C 0 km/h
2907 24-02-2010 14:16:01 12.6 C 5.53 g/m*3 12.6 C 0 km/h
2908 24-02-2010 14:28:01 12.7 C 5.45 g/m*3 12.7 C 0 km/h
2909 24-02-2010 14:40:01 12.8 C 5.38 g/m*3 12.8 C 0 km/h
2910 24-02-2010 14:52:02 13.1 C 5.36 g/m*3 13.1 C 0 km/h
2911 24-02-2010 15:04:01 13.2 C 5.4 g/m*3 13.2 C 0 km/h
2912 24-02-2010 15:16:01 13.1 C 5.36 g/m*3 13.1 C 0 km/h
2913 24-02-2010 15:28:01 13.2 C 5.4 g/m*3 13.2 C 0 km/h
2914 24-02-2010 15:40:02 13.7 C 5.45 g/m*3 13.7 C 0 km/h
2915 24-02-2010 15:52:01 14.1 C 5.46 g/m*3 14.1 C 0 km/h
2916 24-02-2010 16:04:01 15.2 C 5.58 g/m*3 15.2 C 0 km/h
2917 24-02-2010 16:16:01 14.4 C 5.19 g/m*3 14.4 C 0 km/h
2918 24-02-2010 16:28:01 14 C 5.43 g/m*3 14 C 0 km/h
2919 24-02-2010 16:40:02 14.4 C 5.32 g/m*3 14.4 C 0 km/h
2920 24-02-2010 16:52:01 14.2 C 5.13 g/m*3 14.2 C 0 km/h
2921 24-02-2010 17:04:02 13.6 C 5.3 g/m*3 13.6 C 0 km/h
2922 24-02-2010 17:16:01 12.8 C 5.38 g/m*3 12.8 C 0 km/h
2923 24-02-2010 17:28:01 11.8 C 5.68 g/m*3 11.8 C 0 km/h
2924 24-02-2010 17:40:02 11.2 C 5.68 g/m*3 11.2 C 0 km/h
2925 24-02-2010 17:52:01 10.7 C 5.8 g/m*3 10.7 C 0 km/h
Sensor: Nr:Datum:Temp:Abs-Feuchte:Windchill:Wind:
Aussen-T/F 2926 24-02-2010 18:04:02 10.2 C 5.8 g/m*3 10.2 C 0 km/h
2927 24-02-2010 18:16:01 9.8 C 5.85 g/m*3 9.8 C 0 km/h
2928 24-02-2010 18:28:02 9.7 C 5.9 g/m*3 9.7 C 0 km/h
2929 24-02-2010 18:40:01 9.6 C 5.95 g/m*3 9.6 C 0 km/h
2930 24-02-2010 18:52:01 9.6 C 6.05 g/m*3 9.6 C 0 km/h
2931 24-02-2010 19:04:01 9.7 C 6.18 g/m*3 9.7 C 0 km/h
2932 24-02-2010 19:16:01 9.5 C 6.55 g/m*3 9.5 C 0 km/h
2933 24-02-2010 19:28:01 8.8 C 6.7 g/m*3 8.8 C 0 km/h
2934 24-02-2010 19:40:01 8.5 C 6.92 g/m*3 8.5 C 0 km/h
2935 24-02-2010 19:52:01 8.5 C 7.09 g/m*3 8.5 C 0 km/h
2936 24-02-2010 20:04:01 8.4 C 7.13 g/m*3 8.4 C 0 km/h
2937 24-02-2010 20:16:02 8.3 C 7.16 g/m*3 8.3 C 0 km/h
2938 24-02-2010 20:28:02 8.4 C 7.3 g/m*3 8.4 C 0 km/h
2939 24-02-2010 20:40:01 8.3 C 7.33 g/m*3 8.3 C 0 km/h
2940 24-02-2010 20:52:01 8.5 C 7.43 g/m*3 8.5 C 0 km/h
2941 24-02-2010 21:04:01 8.5 C 7.51 g/m*3 8.5 C 0 km/h
2942 24-02-2010 21:16:02 8.4 C 7.38 g/m*3 8.4 C 0 km/h
2943 24-02-2010 21:28:02 7.9 C 7.23 g/m*3 7.9 C 0 km/h
2944 24-02-2010 21:40:01 7.8 C 7.18 g/m*3 7.8 C 0 km/h
2945 24-02-2010 21:52:02 7.6 C 7.09 g/m*3 7.6 C 0 km/h
2946 24-02-2010 22:04:01 7.5 C 6.96 g/m*3 7.5 C 0 km/h
2947 24-02-2010 22:16:02 7.6 C 7.01 g/m*3 7.6 C 0 km/h
2948 24-02-2010 22:28:02 7.7 C 7.05 g/m*3 7.7 C 0 km/h
2949 24-02-2010 22:40:01 8 C 7.03 g/m*3 8 C 0 km/h
2950 24-02-2010 22:52:02 8.1 C 6.82 g/m*3 8.1 C 0 km/h
Sensor: Nr:Datum:Temp:Abs-Feuchte:Windchill:Wind:
Aussen-T/F 2951 24-02-2010 23:04:01 8.2 C 6.7 g/m*3 8.2 C 0 km/h
2952 24-02-2010 23:16:01 8.3 C 6.74 g/m*3 8.3 C 0 km/h
2953 24-02-2010 23:28:01 8.4 C 6.62 g/m*3 8.4 C 0 km/h
2954 24-02-2010 23:40:01 8.4 C 6.53 g/m*3 8.4 C 0 km/h
2955 24-02-2010 23:52:02 8.4 C 6.45 g/m*3 8.4 C 0 km/h
2956 25-02-2010 00:04:01 8.7 C 6.49 g/m*3 8.7 C 0 km/h
2957 25-02-2010 00:16:02 8.7 C 6.4 g/m*3 8.7 C 0 km/h
2958 25-02-2010 00:28:02 8.6 C 6.36 g/m*3 8.6 C 0 km/h
2959 25-02-2010 00:40:01 8.4 C 6.28 g/m*3 8.4 C 0 km/h
2960 25-02-2010 00:52:02 8.1 C 6.24 g/m*3 8.1 C 0 km/h
2961 25-02-2010 01:04:01 8.1 C 6.41 g/m*3 8.1 C 0 km/h
2962 25-02-2010 01:16:01 8.4 C 6.36 g/m*3 8.4 C 0 km/h
2963 25-02-2010 01:28:01 8.5 C 6.23 g/m*3 8.5 C 0 km/h
2964 25-02-2010 01:40:02 8.6 C 6.19 g/m*3 8.6 C 0 km/h
2965 25-02-2010 01:52:01 8.6 C 6.19 g/m*3 8.6 C 0 km/h
2966 25-02-2010 02:04:01 8.4 C 6.11 g/m*3 8.4 C 0 km/h
2967 25-02-2010 02:16:01 8 C 6.12 g/m*3 8 C 0 km/h
2968 25-02-2010 02:28:01 7.9 C 6.32 g/m*3 7.9 C 0 km/h
2969 25-02-2010 02:40:02 7.9 C 6.41 g/m*3 7.9 C 0 km/h
2970 25-02-2010 02:52:01 7.8 C 6.28 g/m*3 7.8 C 0 km/h
2971 25-02-2010 03:04:01 7.7 C 6.32 g/m*3 7.7 C 0 km/h
2972 25-02-2010 03:16:02 7.5 C 6.48 g/m*3 7.5 C 0 km/h
2973 25-02-2010 03:28:02 7.4 C 6.6 g/m*3 7.4 C 0 km/h
2974 25-02-2010 03:40:02 7.3 C 6.56 g/m*3 7.3 C 0 km/h
2975 25-02-2010 03:52:02 7.3 C 6.56 g/m*3 7.3 C 0 km/h
Sensor: Nr:Datum:Temp:Abs-Feuchte:Windchill:Wind:
Aussen-T/F 2976 25-02-2010 04:04:01 7.2 C 6.52 g/m*3 7.2 C 0 km/h
2977 25-02-2010 04:16:01 7.2 C 6.52 g/m*3 7.2 C 0 km/h
2978 25-02-2010 04:28:01 7.2 C 6.52 g/m*3 7.2 C 0 km/h
2979 25-02-2010 04:40:02 7.1 C 6.47 g/m*3 7.1 C 0 km/h
2980 25-02-2010 04:52:01 7.1 C 6.55 g/m*3 7.1 C 0 km/h
2981 25-02-2010 05:04:02 7.3 C 6.56 g/m*3 7.3 C 0 km/h
2982 25-02-2010 05:16:01 7.2 C 6.52 g/m*3 7.2 C 0 km/h
2983 25-02-2010 05:28:01 7.4 C 6.6 g/m*3 7.4 C 0 km/h
2984 25-02-2010 05:40:02 7.6 C 6.53 g/m*3 7.6 C 0 km/h
2985 25-02-2010 05:52:01 7.9 C 6.32 g/m*3 7.9 C 0 km/h
2986 25-02-2010 06:04:02 8.1 C 6.07 g/m*3 8.1 C 0 km/h
2987 25-02-2010 06:16:01 8.3 C 5.98 g/m*3 8.3 C 0 km/h
2988 25-02-2010 06:28:01 8.5 C 5.89 g/m*3 8.5 C 0 km/h
2989 25-02-2010 06:40:02 8.6 C 5.84 g/m*3 8.6 C 0 km/h
2990 25-02-2010 06:52:02 8.7 C 5.79 g/m*3 8.7 C 0 km/h
2991 25-02-2010 07:04:01 8.7 C 5.79 g/m*3 8.7 C 0 km/h
2992 25-02-2010 07:16:01 8.8 C 5.74 g/m*3 8.8 C 0 km/h
2993 25-02-2010 07:28:01 8.8 C 5.83 g/m*3 8.8 C 0 km/h
2994 25-02-2010 07:40:01 8.7 C 5.88 g/m*3 8.7 C 0 km/h
2995 25-02-2010 07:52:02 8.6 C 5.93 g/m*3 8.6 C 0 km/h
2996 25-02-2010 08:04:01 8.4 C 6.02 g/m*3 8.4 C 0 km/h
2997 25-02-2010 08:16:01 8.6 C 5.93 g/m*3 8.6 C 0 km/h
2998 25-02-2010 08:28:01 8.9 C 5.78 g/m*3 8.9 C 0 km/h
2999 25-02-2010 08:40:02 9 C 5.64 g/m*3 9 C 0 km/h
3000 25-02-2010 08:52:01 9.1 C 5.68 g/m*3 9.1 C 0 km/h
Sensor: Nr:Datum:Temp:Abs-Feuchte:Windchill:Wind:
Aussen-T/F 3001 25-02-2010 09:04:02 9.3 C 5.66 g/m*3 9.3 C 0 km/h
3002 25-02-2010 09:16:01 9.5 C 5.64 g/m*3 9.5 C 0 km/h
3003 25-02-2010 09:28:01 9.6 C 5.5 g/m*3 9.6 C 0 km/h
3004 25-02-2010 09:40:02 9.6 C 5.59 g/m*3 9.6 C 0 km/h
3005 25-02-2010 09:52:01 9.9 C 5.6 g/m*3 9.9 C 0 km/h
3006 25-02-2010 10:04:02 9.9 C 5.51 g/m*3 9.9 C 0 km/h
3007 25-02-2010 10:16:01 9.9 C 5.6 g/m*3 9.9 C 0 km/h
3008 25-02-2010 10:28:01 10.2 C 5.42 g/m*3 10.2 C 0 km/h
3009 25-02-2010 10:40:02 10.6 C 5.37 g/m*3 10.6 C 0 km/h
3010 25-02-2010 10:52:01 10.7 C 5.21 g/m*3 10.7 C 0 km/h
3011 25-02-2010 11:04:01 10.6 C 5.17 g/m*3 10.6 C 0 km/h
3012 25-02-2010 11:16:01 11.2 C 5.17 g/m*3 11.2 C 0 km/h
3013 25-02-2010 11:28:01 10.9 C 5.17 g/m*3 10.9 C 0 km/h
3014 25-02-2010 11:40:02 11.2 C 5.07 g/m*3 11.2 C 0 km/h
3015 25-02-2010 11:52:01 11.3 C 5.1 g/m*3 11.3 C 0 km/h
3016 25-02-2010 12:04:02 11.4 C 4.82 g/m*3 11.4 C 0 km/h
3017 25-02-2010 12:16:01 11.4 C 4.82 g/m*3 11.4 C 0 km/h
3018 25-02-2010 12:28:01 11.4 C 4.82 g/m*3 11.4 C 0 km/h
3019 25-02-2010 12:40:02 11.1 C 4.73 g/m*3 11.1 C 0 km/h
3020 25-02-2010 12:52:01 11.4 C 4.82 g/m*3 11.4 C 0 km/h
3021 25-02-2010 13:04:02 11.7 C 4.81 g/m*3 11.7 C 0 km/h
3022 25-02-2010 13:16:01 12.9 C 4.85 g/m*3 12.9 C 0 km/h
3023 25-02-2010 13:28:01 13 C 4.54 g/m*3 13 C 0 km/h
3024 25-02-2010 13:40:02 12.7 C 4.68 g/m*3 12.7 C 0 km/h
3025 25-02-2010 13:52:01 11.9 C 4.77 g/m*3 11.9 C 0 km/h
Sensor: Nr:Datum:Temp:Abs-Feuchte:Windchill:Wind:
Aussen-T/F 3026 25-02-2010 14:04:02 12.2 C 4.96 g/m*3 12.2 C 0 km/h
3027 25-02-2010 14:16:01 13 C 4.88 g/m*3 13 C 0 km/h
3028 25-02-2010 14:28:01 12.8 C 4.82 g/m*3 12.8 C 0 km/h
3029 25-02-2010 14:40:01 12.4 C 4.7 g/m*3 12.4 C 0 km/h
3030 25-02-2010 14:52:01 12.6 C 4.87 g/m*3 12.6 C 0 km/h
3031 25-02-2010 15:04:02 12.7 C 4.68 g/m*3 12.7 C 0 km/h
3032 25-02-2010 15:16:01 12.8 C 4.59 g/m*3 12.8 C 0 km/h
3033 25-02-2010 15:28:01 12.5 C 4.4 g/m*3 12.5 C 0 km/h
3034 25-02-2010 15:40:01 12.5 C 4.4 g/m*3 12.5 C 0 km/h
3035 25-02-2010 15:52:01 12.3 C 4.34 g/m*3 12.3 C 0 km/h
3036 25-02-2010 16:04:01 12.2 C 4.32 g/m*3 12.2 C 0 km/h
3037 25-02-2010 16:16:02 12 C 4.26 g/m*3 12 C 0 km/h
3038 25-02-2010 16:28:02 11.8 C 4.53 g/m*3 11.8 C 0 km/h
3039 25-02-2010 16:40:01 11.6 C 4.68 g/m*3 11.6 C 0 km/h
3040 25-02-2010 16:52:01 11.5 C 4.75 g/m*3 11.5 C 0 km/h
3041 25-02-2010 17:04:01 11.2 C 5.07 g/m*3 11.2 C 0 km/h
3042 25-02-2010 17:16:01 11.2 C 4.97 g/m*3 11.2 C 0 km/h
3043 25-02-2010 17:28:01 11 C 4.8 g/m*3 11 C 0 km/h
3044 25-02-2010 17:40:01 11 C 4.8 g/m*3 11 C 0 km/h
3045 25-02-2010 17:52:01 10.9 C 4.87 g/m*3 10.9 C 0 km/h
3046 25-02-2010 18:04:02 10.5 C 5.14 g/m*3 10.5 C 0 km/h
3047 25-02-2010 18:16:01 9.7 C 5.35 g/m*3 9.7 C 0 km/h
3048 25-02-2010 18:28:01 9.3 C 5.93 g/m*3 9.3 C 0 km/h
3049 25-02-2010 18:40:02 8.9 C 6.22 g/m*3 8.9 C 0 km/h
3050 25-02-2010 18:52:02 8.8 C 6.53 g/m*3 8.8 C 0 km/h
Sensor: Nr:Datum:Temp:Abs-Feuchte:Windchill:Wind:
Aussen-T/F 3051 25-02-2010 19:04:01 8.5 C 6.57 g/m*3 8.5 C 0 km/h
3052 25-02-2010 19:16:01 8.6 C 6.79 g/m*3 8.6 C 0 km/h
3053 25-02-2010 19:28:01 8.5 C 6.83 g/m*3 8.5 C 0 km/h
3054 25-02-2010 19:40:02 8.4 C 6.87 g/m*3 8.4 C 0 km/h
3055 25-02-2010 19:52:01 8.5 C 6.83 g/m*3 8.5 C 0 km/h
3056 25-02-2010 20:04:02 8.6 C 6.79 g/m*3 8.6 C 0 km/h
3057 25-02-2010 20:16:01 8.6 C 6.7 g/m*3 8.6 C 0 km/h
3058 25-02-2010 20:28:01 8.6 C 6.7 g/m*3 8.6 C 0 km/h
3059 25-02-2010 20:40:02 8.7 C 6.66 g/m*3 8.7 C 0 km/h
3060 25-02-2010 20:52:01 8.8 C 6.61 g/m*3 8.8 C 0 km/h
3061 25-02-2010 21:04:02 8.9 C 6.66 g/m*3 8.9 C 0 km/h
3062 25-02-2010 21:16:01 9 C 6.52 g/m*3 9 C 0 km/h
3063 25-02-2010 21:28:01 9.2 C 6.61 g/m*3 9.2 C 0 km/h
3064 25-02-2010 21:40:02 9.2 C 6.52 g/m*3 9.2 C 0 km/h
3065 25-02-2010 21:52:01 9.2 C 6.52 g/m*3 9.2 C 0 km/h
3066 25-02-2010 22:04:01 9.1 C 6.57 g/m*3 9.1 C 0 km/h
3067 25-02-2010 22:16:01 9.1 C 6.65 g/m*3 9.1 C 0 km/h
3068 25-02-2010 22:28:01 9.2 C 6.61 g/m*3 9.2 C 0 km/h
3069 25-02-2010 22:40:01 9.3 C 6.65 g/m*3 9.3 C 0 km/h
3070 25-02-2010 22:52:02 9.2 C 6.61 g/m*3 9.2 C 0 km/h
3071 25-02-2010 23:04:01 9.2 C 6.7 g/m*3 9.2 C 0 km/h
3072 25-02-2010 23:16:01 9.5 C 6.83 g/m*3 9.5 C 0 km/h
3073 25-02-2010 23:28:01 9.4 C 6.78 g/m*3 9.4 C 0 km/h
3074 25-02-2010 23:40:02 9.3 C 6.74 g/m*3 9.3 C 0 km/h
3075 25-02-2010 23:52:01 9.4 C 6.78 g/m*3 9.4 C 0 km/h
Sensor: Nr:Datum:Temp:Abs-Feuchte:Windchill:Wind:
Aussen-T/F 3076 26-02-2010 00:04:02 9.3 C 6.83 g/m*3 9.3 C 0 km/h
3077 26-02-2010 00:16:01 9.4 C 6.87 g/m*3 9.4 C 0 km/h
3078 26-02-2010 00:28:01 9.4 C 6.87 g/m*3 9.4 C 0 km/h
3079 26-02-2010 00:40:02 9.3 C 6.83 g/m*3 9.3 C 0 km/h
3080 26-02-2010 00:52:01 9.3 C 6.92 g/m*3 9.3 C 0 km/h
3081 26-02-2010 01:04:02 9.4 C 6.96 g/m*3 9.4 C 0 km/h
3082 26-02-2010 01:16:01 9.5 C 7.01 g/m*3 9.5 C 0 km/h
3083 26-02-2010 01:28:01 9.4 C 6.96 g/m*3 9.4 C 0 km/h
3084 26-02-2010 01:40:01 9.6 C 7.05 g/m*3 9.6 C 0 km/h
3085 26-02-2010 01:52:01 9.6 C 6.96 g/m*3 9.6 C 0 km/h
3086 26-02-2010 02:04:01 9.8 C 7.05 g/m*3 9.8 C 0 km/h
3087 26-02-2010 02:16:01 9.8 C 7.05 g/m*3 9.8 C 0 km/h
3088 26-02-2010 02:28:01 9.7 C 7.01 g/m*3 9.7 C 0 km/h
3089 26-02-2010 02:40:01 9.8 C 7.05 g/m*3 9.8 C 0 km/h
3090 26-02-2010 02:53:06 9.8 C 7.05 g/m*3 9.8 C 0 km/h
3091 26-02-2010 03:05:06 9.8 C 7.05 g/m*3 9.8 C 0 km/h
3092 26-02-2010 03:17:06 10 C 6.95 g/m*3 10 C 0 km/h
3093 26-02-2010 03:29:06 9.9 C 7 g/m*3 9.9 C 0 km/h
3094 26-02-2010 03:41:02 9.9 C 6.91 g/m*3 9.9 C 0 km/h
3095 26-02-2010 03:53:02 9.7 C 6.82 g/m*3 9.7 C 0 km/h
3096 26-02-2010 04:05:03 9.5 C 6.83 g/m*3 9.5 C 0 km/h
3097 26-02-2010 04:17:02 9.5 C 6.83 g/m*3 9.5 C 0 km/h
3098 26-02-2010 04:29:02 9.5 C 6.83 g/m*3 9.5 C 0 km/h
3099 26-02-2010 04:41:02 9.7 C 6.73 g/m*3 9.7 C 0 km/h
3100 26-02-2010 04:53:01 9.5 C 6.64 g/m*3 9.5 C 0 km/h
Sensor: Nr:Datum:Temp:Abs-Feuchte:Windchill:Wind:
Aussen-T/F 3101 26-02-2010 05:05:02 9.4 C 6.51 g/m*3 9.4 C 0 km/h
3102 26-02-2010 05:17:01 9.4 C 6.42 g/m*3 9.4 C 0 km/h
3103 26-02-2010 05:29:01 9.6 C 6.32 g/m*3 9.6 C 0 km/h
3104 26-02-2010 05:41:02 9.2 C 6.34 g/m*3 9.2 C 0 km/h
3105 26-02-2010 05:53:01 9.1 C 6.3 g/m*3 9.1 C 0 km/h
3106 26-02-2010 06:05:02 8.8 C 6.27 g/m*3 8.8 C 0 km/h
3107 26-02-2010 06:17:01 9 C 6.26 g/m*3 9 C 0 km/h
3108 26-02-2010 06:29:01 9.1 C 6.21 g/m*3 9.1 C 0 km/h
3109 26-02-2010 06:41:02 9.2 C 6.07 g/m*3 9.2 C 0 km/h
3110 26-02-2010 06:53:01 9.4 C 6.15 g/m*3 9.4 C 0 km/h
3111 26-02-2010 07:05:02 9.1 C 6.03 g/m*3 9.1 C 0 km/h
3112 26-02-2010 07:17:02 8.9 C 6.31 g/m*3 8.9 C 0 km/h
3113 26-02-2010 07:29:02 9 C 6.26 g/m*3 9 C 0 km/h
3114 26-02-2010 07:41:02 9.2 C 6.07 g/m*3 9.2 C 0 km/h
3115 26-02-2010 07:53:02 9.5 C 5.92 g/m*3 9.5 C 0 km/h
3116 26-02-2010 08:05:02 9.6 C 5.77 g/m*3 9.6 C 0 km/h
3117 26-02-2010 08:17:02 9.6 C 5.68 g/m*3 9.6 C 0 km/h
3118 26-02-2010 08:29:02 9.8 C 5.57 g/m*3 9.8 C 0 km/h
3119 26-02-2010 08:41:02 9.7 C 5.72 g/m*3 9.7 C 0 km/h
3120 26-02-2010 08:53:02 9.8 C 5.66 g/m*3 9.8 C 0 km/h
3121 26-02-2010 09:05:02 10.2 C 5.52 g/m*3 10.2 C 0 km/h
3122 26-02-2010 09:17:02 10.2 C 5.42 g/m*3 10.2 C 0 km/h
3123 26-02-2010 09:29:02 10.1 C 5.58 g/m*3 10.1 C 0 km/h
3124 26-02-2010 09:41:02 10.1 C 5.39 g/m*3 10.1 C 0 km/h
3125 26-02-2010 09:53:02 10.5 C 5.33 g/m*3 10.5 C 0 km/h
Sensor: Nr:Datum:Temp:Abs-Feuchte:Windchill:Wind:
Aussen-T/F 3126 26-02-2010 10:05:02 9.8 C 5.66 g/m*3 9.8 C 0 km/h
3127 26-02-2010 10:17:02 9.5 C 5.92 g/m*3 9.5 C 0 km/h
3128 26-02-2010 10:29:02 9.9 C 5.88 g/m*3 9.9 C 0 km/h
3129 26-02-2010 10:41:02 10.1 C 5.48 g/m*3 10.1 C 0 km/h
3130 26-02-2010 10:53:02 10.3 C 5.36 g/m*3 10.3 C 0 km/h
3131 26-02-2010 11:05:02 10.6 C 5.47 g/m*3 10.6 C 0 km/h
3132 26-02-2010 11:17:03 10.8 C 5.34 g/m*3 10.8 C 0 km/h
3133 26-02-2010 11:29:03 11 C 5.2 g/m*3 11 C 0 km/h
3134 26-02-2010 11:41:02 11.2 C 5.17 g/m*3 11.2 C 0 km/h
3135 26-02-2010 11:53:02 10.2 C 5.52 g/m*3 10.2 C 0 km/h
3136 26-02-2010 12:05:02 9.7 C 5.72 g/m*3 9.7 C 0 km/h
3137 26-02-2010 12:17:02 10 C 5.64 g/m*3 10 C 0 km/h
3138 26-02-2010 12:29:02 10.8 C 5.73 g/m*3 10.8 C 0 km/h
3139 26-02-2010 12:41:02 10.8 C 5.44 g/m*3 10.8 C 0 km/h
3140 26-02-2010 12:53:02 10.3 C 5.84 g/m*3 10.3 C 0 km/h
3141 26-02-2010 13:05:02 10.4 C 5.78 g/m*3 10.4 C 0 km/h
3142 26-02-2010 13:17:03 10.7 C 5.6 g/m*3 10.7 C 0 km/h
3143 26-02-2010 13:29:03 11.4 C 5.44 g/m*3 11.4 C 0 km/h
3144 26-02-2010 13:41:02 11.1 C 5.24 g/m*3 11.1 C 0 km/h
3145 26-02-2010 13:53:01 10.9 C 5.07 g/m*3 10.9 C 0 km/h
3146 26-02-2010 14:05:01 11.1 C 5.34 g/m*3 11.1 C 0 km/h
3147 26-02-2010 14:17:02 10.8 C 5.14 g/m*3 10.8 C 0 km/h
3148 26-02-2010 14:29:02 10.6 C 5.17 g/m*3 10.6 C 0 km/h
3149 26-02-2010 14:41:02 10.1 C 5.01 g/m*3 10.1 C 0 km/h
3150 26-02-2010 14:53:03 9.4 C 5.25 g/m*3 9.4 C 0 km/h
Sensor: Nr:Datum:Temp:Abs-Feuchte:Windchill:Wind:
Aussen-T/F 3151 26-02-2010 15:05:03 9.2 C 5.36 g/m*3 9.2 C 0 km/h
3152 26-02-2010 15:17:02 8.9 C 5.26 g/m*3 8.9 C 0 km/h
3153 26-02-2010 15:29:03 8.7 C 5.28 g/m*3 8.7 C 0 km/h
3154 26-02-2010 15:41:02 8.4 C 5.34 g/m*3 8.4 C 0 km/h
3155 26-02-2010 15:53:02 8.3 C 4.89 g/m*3 8.3 C 0 km/h
3156 26-02-2010 16:05:02 8.2 C 4.69 g/m*3 8.2 C 0 km/h
3157 26-02-2010 16:17:02 8 C 4.3 g/m*3 8 C 0 km/h
3158 26-02-2010 16:29:02 7.9 C 4.19 g/m*3 7.9 C 0 km/h
3159 26-02-2010 16:41:04 7.9 C 4.02 g/m*3 7.9 C 0 km/h
3160 26-02-2010 16:53:02 7.9 C 4.11 g/m*3 7.9 C 0 km/h
3161 26-02-2010 17:05:01 8.1 C 4.08 g/m*3 8.1 C 0 km/h
3162 26-02-2010 17:17:02 8 C 4.05 g/m*3 8 C 0 km/h
3163 26-02-2010 17:29:02 7.9 C 4.11 g/m*3 7.9 C 0 km/h
3164 26-02-2010 17:41:02 7.8 C 4.16 g/m*3 7.8 C 0 km/h
3165 26-02-2010 17:53:02 7.7 C 4.22 g/m*3 7.7 C 0 km/h
3166 26-02-2010 18:05:02 7.6 C 4.27 g/m*3 7.6 C 0 km/h
3167 26-02-2010 18:17:01 7.3 C 4.42 g/m*3 7.3 C 0 km/h
3168 26-02-2010 18:29:01 6.6 C 4.76 g/m*3 6.6 C 0 km/h
3169 26-02-2010 18:41:02 6.3 C 4.44 g/m*3 6.3 C 0 km/h
3170 26-02-2010 18:53:02 6.3 C 4.22 g/m*3 6.3 C 0 km/h
3171 26-02-2010 19:05:02 6.5 C 4.2 g/m*3 6.5 C 0 km/h
3172 26-02-2010 19:17:02 6.3 C 4.29 g/m*3 6.3 C 0 km/h
3173 26-02-2010 19:29:02 5.8 C 4.3 g/m*3 5.8 C 0 km/h
3174 26-02-2010 19:41:04 5.8 C 4.01 g/m*3 5.8 C 0 km/h
3175 26-02-2010 19:53:04 5.8 C 3.94 g/m*3 5.8 C 0 km/h
Sensor: Nr:Datum:Temp:Abs-Feuchte:Windchill:Wind:
Aussen-T/F 3176 26-02-2010 20:05:02 5.9 C 4.04 g/m*3 5.9 C 0 km/h
3177 26-02-2010 20:17:02 6 C 4.14 g/m*3 6 C 0 km/h
3178 26-02-2010 20:29:02 5.9 C 4.18 g/m*3 5.9 C 0 km/h
3179 26-02-2010 20:41:03 6 C 3.92 g/m*3 6 C 0 km/h
3180 26-02-2010 20:53:02 5.9 C 3.89 g/m*3 5.9 C 0 km/h
3181 26-02-2010 21:05:02 5.8 C 3.94 g/m*3 5.8 C 0 km/h
3182 26-02-2010 21:17:03 5.6 C 4.03 g/m*3 5.6 C 0 km/h
3183 26-02-2010 21:29:03 5.5 C 4 g/m*3 5.5 C 0 km/h
3184 26-02-2010 21:41:02 5.6 C 3.89 g/m*3 5.6 C 0 km/h
3185 26-02-2010 21:53:03 5.7 C 3.91 g/m*3 5.7 C 0 km/h
3186 26-02-2010 22:05:02 5.5 C 3.86 g/m*3 5.5 C 0 km/h
3187 26-02-2010 22:17:03 5.4 C 3.84 g/m*3 5.4 C 0 km/h
3188 26-02-2010 22:29:03 5.3 C 3.81 g/m*3 5.3 C 0 km/h
3189 26-02-2010 22:42:04 5.2 C 3.65 g/m*3 5.2 C 0 km/h
3190 26-02-2010 22:54:04 5.1 C 3.69 g/m*3 5.1 C 0 km/h
3191 26-02-2010 23:06:04 5.1 C 3.63 g/m*3 5.1 C 0 km/h
3192 26-02-2010 23:18:04 5.1 C 3.63 g/m*3 5.1 C 0 km/h
3193 26-02-2010 23:30:04 4.9 C 3.71 g/m*3 4.9 C 0 km/h
3194 26-02-2010 23:42:04 4.7 C 3.66 g/m*3 4.7 C 0 km/h
3195 26-02-2010 23:54:05 4.7 C 3.6 g/m*3 4.7 C 0 km/h
3196 27-02-2010 00:06:05 4.5 C 3.62 g/m*3 4.5 C 0 km/h
3197 27-02-2010 00:18:05 4.4 C 3.59 g/m*3 4.4 C 0 km/h
3198 27-02-2010 00:30:05 4.4 C 3.59 g/m*3 4.4 C 0 km/h
3199 27-02-2010 00:42:05 4.3 C 3.57 g/m*3 4.3 C 0 km/h
3200 27-02-2010 00:54:05 4.1 C 3.58 g/m*3 4.1 C 0 km/h
Sensor: Nr:Datum:Temp:Abs-Feuchte:Windchill:Wind:
Aussen-T/F 3201 27-02-2010 01:06:05 3.8 C 3.64 g/m*3 3.8 C 0 km/h
3202 27-02-2010 01:18:05 3.9 C 3.73 g/m*3 3.9 C 0 km/h
3203 27-02-2010 01:30:05 4 C 3.62 g/m*3 4 C 0 km/h
3204 27-02-2010 01:42:05 4.1 C 3.58 g/m*3 4.1 C 0 km/h
3205 27-02-2010 01:54:05 3.7 C 3.68 g/m*3 3.7 C 0 km/h
3206 27-02-2010 02:06:05 3.2 C 3.74 g/m*3 3.2 C 0 km/h
3207 27-02-2010 02:18:05 2.8 C 3.75 g/m*3 2.8 C 0 km/h
3208 27-02-2010 02:30:05 3.1 C 3.77 g/m*3 3.1 C 0 km/h
3209 27-02-2010 02:42:05 3.1 C 3.77 g/m*3 3.1 C 0 km/h
3210 27-02-2010 02:54:05 3.2 C 3.74 g/m*3 3.2 C 0 km/h
3211 27-02-2010 03:06:05 3.3 C 3.76 g/m*3 3.3 C 0 km/h
3212 27-02-2010 03:18:05 3.5 C 3.69 g/m*3 3.5 C 0 km/h
3213 27-02-2010 03:30:05 3.7 C 3.74 g/m*3 3.7 C 0 km/h
3214 27-02-2010 03:42:05 3.6 C 3.78 g/m*3 3.6 C 0 km/h
3215 27-02-2010 03:54:05 3.5 C 3.81 g/m*3 3.5 C 0 km/h
3216 27-02-2010 04:06:06 3.4 C 3.79 g/m*3 3.4 C 0 km/h
3217 27-02-2010 04:18:06 3.3 C 3.88 g/m*3 3.3 C 0 km/h
3218 27-02-2010 04:30:06 3.4 C 3.97 g/m*3 3.4 C 0 km/h
3219 27-02-2010 04:42:06 3.6 C 4.09 g/m*3 3.6 C 0 km/h
3220 27-02-2010 04:54:06 4.1 C 4.16 g/m*3 4.1 C 0 km/h
3221 27-02-2010 05:06:06 4 C 4.07 g/m*3 4 C 0 km/h
3222 27-02-2010 05:18:06 3.9 C 4.17 g/m*3 3.9 C 0 km/h
3223 27-02-2010 05:30:06 3.9 C 4.23 g/m*3 3.9 C 0 km/h
3224 27-02-2010 05:42:06 3.8 C 4.2 g/m*3 3.8 C 0 km/h
3225 27-02-2010 05:54:06 3.6 C 4.21 g/m*3 3.6 C 0 km/h
Sensor: Nr:Datum:Temp:Abs-Feuchte:Windchill:Wind:
Aussen-T/F 3226 27-02-2010 06:06:06 4 C 4.26 g/m*3 4 C 0 km/h
3227 27-02-2010 06:18:06 4.3 C 4.28 g/m*3 4.3 C 0 km/h
3228 27-02-2010 06:30:06 4.3 C 4.22 g/m*3 4.3 C 0 km/h
3229 27-02-2010 06:42:06 4.4 C 4.31 g/m*3 4.4 C 0 km/h
3230 27-02-2010 06:54:06 4.6 C 4.37 g/m*3 4.6 C 0 km/h
3231 27-02-2010 07:06:06 4.4 C 4.31 g/m*3 4.4 C 0 km/h
3232 27-02-2010 07:18:06 4.7 C 4.46 g/m*3 4.7 C 0 km/h
3233 27-02-2010 07:30:06 4.8 C 4.49 g/m*3 4.8 C 0 km/h
3234 27-02-2010 07:42:06 5.2 C 4.54 g/m*3 5.2 C 0 km/h
3235 27-02-2010 07:54:06 5.3 C 4.57 g/m*3 5.3 C 0 km/h
3236 27-02-2010 08:06:07 5.4 C 4.6 g/m*3 5.4 C 0 km/h
3237 27-02-2010 08:18:07 5.6 C 4.67 g/m*3 5.6 C 0 km/h
3238 27-02-2010 08:30:07 5.8 C 4.66 g/m*3 5.8 C 0 km/h
3239 27-02-2010 08:42:03 6.4 C 4.62 g/m*3 6.4 C 0 km/h
3240 27-02-2010 08:54:01 6.5 C 4.57 g/m*3 6.5 C 0 km/h
3241 27-02-2010 09:06:02 6.6 C 4.6 g/m*3 6.6 C 0 km/h
3242 27-02-2010 09:18:02 6.8 C 4.59 g/m*3 6.8 C 0 km/h